<?xml version="1.0" encoding="UTF-8" standalone="no" ?>
<gpx xmlns="http://www.topografix.com/GPX/1/1" xmlns:xsi="http://www.w3.org/2001/XMLSchema-instance" xsi:schemaLocation="http://www.topografix.com/GPX/1/1 http://www.topografix.com/GPX/1/1/gpx.xsd" version="1.1" creator="VisuGPX - https://www.visugpx.com">
  <metadata>
    <name>refuge du campana</name>
    <desc><![CDATA[les lacs de caderolles greziolles et le refuge de campana du cloutou 
temps frais peu de nuage ; belle vue sur les lacs !]]></desc>
  </metadata>
  <trk>
    <name><![CDATA[2011-05-15 (09:10:46)]]></name>
    <desc><![CDATA[campana]]></desc>
    <trkseg>
      <trkpt lat="42.91573" lon="0.21145">
        <ele>1491.9</ele>
        <time>2011-05-15T07:19:26Z</time>
      </trkpt>
      <trkpt lat="42.91571" lon="0.2115">
        <ele>1487.7</ele>
        <time>2011-05-15T07:22:20Z</time>
      </trkpt>
      <trkpt lat="42.91582" lon="0.21154">
        <ele>1494.4</ele>
        <time>2011-05-15T07:23:12Z</time>
      </trkpt>
      <trkpt lat="42.91586" lon="0.21159">
        <ele>1496.6</ele>
        <time>2011-05-15T07:24:19Z</time>
      </trkpt>
      <trkpt lat="42.91588" lon="0.21164">
        <ele>1496.5</ele>
        <time>2011-05-15T07:25:50Z</time>
      </trkpt>
      <trkpt lat="42.91575" lon="0.21352">
        <ele>1548.8</ele>
        <time>2011-05-15T07:27:23Z</time>
      </trkpt>
      <trkpt lat="42.91583" lon="0.21351">
        <ele>1546.3</ele>
        <time>2011-05-15T07:27:24Z</time>
      </trkpt>
      <trkpt lat="42.91576" lon="0.21353">
        <ele>1548</ele>
        <time>2011-05-15T07:27:30Z</time>
      </trkpt>
      <trkpt lat="42.91582" lon="0.21359">
        <ele>1547.4</ele>
        <time>2011-05-15T07:27:32Z</time>
      </trkpt>
      <trkpt lat="42.91587" lon="0.21363">
        <ele>1553.6</ele>
        <time>2011-05-15T07:27:50Z</time>
      </trkpt>
      <trkpt lat="42.91592" lon="0.21362">
        <ele>1555.3</ele>
        <time>2011-05-15T07:27:55Z</time>
      </trkpt>
      <trkpt lat="42.91586" lon="0.21359">
        <ele>1557.2</ele>
        <time>2011-05-15T07:28:00Z</time>
      </trkpt>
      <trkpt lat="42.91583" lon="0.21366">
        <ele>1557.6</ele>
        <time>2011-05-15T07:28:07Z</time>
      </trkpt>
      <trkpt lat="42.91584" lon="0.21373">
        <ele>1559.2</ele>
        <time>2011-05-15T07:28:11Z</time>
      </trkpt>
      <trkpt lat="42.91588" lon="0.21378">
        <ele>1559.3</ele>
        <time>2011-05-15T07:28:14Z</time>
      </trkpt>
      <trkpt lat="42.91592" lon="0.2138">
        <ele>1559.9</ele>
        <time>2011-05-15T07:28:16Z</time>
      </trkpt>
      <trkpt lat="42.91596" lon="0.21384">
        <ele>1561.9</ele>
        <time>2011-05-15T07:28:23Z</time>
      </trkpt>
      <trkpt lat="42.91595" lon="0.21379">
        <ele>1563.1</ele>
        <time>2011-05-15T07:28:31Z</time>
      </trkpt>
      <trkpt lat="42.91597" lon="0.21369">
        <ele>1565</ele>
        <time>2011-05-15T07:28:43Z</time>
      </trkpt>
      <trkpt lat="42.91591" lon="0.21374">
        <ele>1564.8</ele>
        <time>2011-05-15T07:28:44Z</time>
      </trkpt>
      <trkpt lat="42.91576" lon="0.21384">
        <ele>1566.3</ele>
        <time>2011-05-15T07:28:45Z</time>
      </trkpt>
      <trkpt lat="42.91578" lon="0.21391">
        <ele>1573.3</ele>
        <time>2011-05-15T07:29:07Z</time>
      </trkpt>
      <trkpt lat="42.91584" lon="0.21393">
        <ele>1574.3</ele>
        <time>2011-05-15T07:29:13Z</time>
      </trkpt>
      <trkpt lat="42.91594" lon="0.21393">
        <ele>1575.8</ele>
        <time>2011-05-15T07:29:20Z</time>
      </trkpt>
      <trkpt lat="42.91592" lon="0.21399">
        <ele>1576.6</ele>
        <time>2011-05-15T07:29:23Z</time>
      </trkpt>
      <trkpt lat="42.91589" lon="0.21404">
        <ele>1576.1</ele>
        <time>2011-05-15T07:29:25Z</time>
      </trkpt>
      <trkpt lat="42.91593" lon="0.21403">
        <ele>1578.2</ele>
        <time>2011-05-15T07:29:43Z</time>
      </trkpt>
      <trkpt lat="42.91599" lon="0.21404">
        <ele>1577.7</ele>
        <time>2011-05-15T07:29:47Z</time>
      </trkpt>
      <trkpt lat="42.91605" lon="0.21406">
        <ele>1577.7</ele>
        <time>2011-05-15T07:29:52Z</time>
      </trkpt>
      <trkpt lat="42.9161" lon="0.21405">
        <ele>1577.8</ele>
        <time>2011-05-15T07:29:56Z</time>
      </trkpt>
      <trkpt lat="42.91605" lon="0.21409">
        <ele>1577.9</ele>
        <time>2011-05-15T07:30:00Z</time>
      </trkpt>
      <trkpt lat="42.916" lon="0.21412">
        <ele>1578</ele>
        <time>2011-05-15T07:30:03Z</time>
      </trkpt>
      <trkpt lat="42.91597" lon="0.21417">
        <ele>1577.9</ele>
        <time>2011-05-15T07:30:06Z</time>
      </trkpt>
      <trkpt lat="42.91592" lon="0.21421">
        <ele>1578.6</ele>
        <time>2011-05-15T07:30:08Z</time>
      </trkpt>
      <trkpt lat="42.91582" lon="0.21435">
        <ele>1583.2</ele>
        <time>2011-05-15T07:30:09Z</time>
      </trkpt>
      <trkpt lat="42.91576" lon="0.21437">
        <ele>1584.2</ele>
        <time>2011-05-15T07:30:11Z</time>
      </trkpt>
      <trkpt lat="42.91573" lon="0.2143">
        <ele>1587.5</ele>
        <time>2011-05-15T07:30:15Z</time>
      </trkpt>
      <trkpt lat="42.91578" lon="0.21431">
        <ele>1593.1</ele>
        <time>2011-05-15T07:30:27Z</time>
      </trkpt>
      <trkpt lat="42.9158" lon="0.21438">
        <ele>1596.9</ele>
        <time>2011-05-15T07:30:39Z</time>
      </trkpt>
      <trkpt lat="42.9158" lon="0.21431">
        <ele>1596.6</ele>
        <time>2011-05-15T07:30:44Z</time>
      </trkpt>
      <trkpt lat="42.91571" lon="0.21428">
        <ele>1596.4</ele>
        <time>2011-05-15T07:30:48Z</time>
      </trkpt>
      <trkpt lat="42.91566" lon="0.21424">
        <ele>1596</ele>
        <time>2011-05-15T07:30:51Z</time>
      </trkpt>
      <trkpt lat="42.91574" lon="0.21419">
        <ele>1597.5</ele>
        <time>2011-05-15T07:30:52Z</time>
      </trkpt>
      <trkpt lat="42.91581" lon="0.21422">
        <ele>1597.7</ele>
        <time>2011-05-15T07:30:54Z</time>
      </trkpt>
      <trkpt lat="42.9158" lon="0.21415">
        <ele>1598.6</ele>
        <time>2011-05-15T07:30:58Z</time>
      </trkpt>
      <trkpt lat="42.91573" lon="0.21415">
        <ele>1598.6</ele>
        <time>2011-05-15T07:31:02Z</time>
      </trkpt>
      <trkpt lat="42.91646" lon="0.21375">
        <ele>1598.1</ele>
        <time>2011-05-15T07:31:46Z</time>
      </trkpt>
      <trkpt lat="42.91648" lon="0.21391">
        <ele>1598.5</ele>
        <time>2011-05-15T07:31:47Z</time>
      </trkpt>
      <trkpt lat="42.91656" lon="0.21391">
        <ele>1598.7</ele>
        <time>2011-05-15T07:31:48Z</time>
      </trkpt>
      <trkpt lat="42.91652" lon="0.21397">
        <ele>1598.4</ele>
        <time>2011-05-15T07:31:49Z</time>
      </trkpt>
      <trkpt lat="42.91634" lon="0.2139">
        <ele>1599</ele>
        <time>2011-05-15T07:31:50Z</time>
      </trkpt>
      <trkpt lat="42.91639" lon="0.21381">
        <ele>1599</ele>
        <time>2011-05-15T07:31:51Z</time>
      </trkpt>
      <trkpt lat="42.91617" lon="0.21384">
        <ele>1599.7</ele>
        <time>2011-05-15T07:31:53Z</time>
      </trkpt>
      <trkpt lat="42.91625" lon="0.21387">
        <ele>1599.7</ele>
        <time>2011-05-15T07:31:55Z</time>
      </trkpt>
      <trkpt lat="42.91628" lon="0.21381">
        <ele>1599.8</ele>
        <time>2011-05-15T07:31:56Z</time>
      </trkpt>
      <trkpt lat="42.91612" lon="0.21379">
        <ele>1600</ele>
        <time>2011-05-15T07:31:57Z</time>
      </trkpt>
      <trkpt lat="42.91597" lon="0.21379">
        <ele>1600.2</ele>
        <time>2011-05-15T07:31:58Z</time>
      </trkpt>
      <trkpt lat="42.91602" lon="0.21395">
        <ele>1599.5</ele>
        <time>2011-05-15T07:31:59Z</time>
      </trkpt>
      <trkpt lat="42.91596" lon="0.21393">
        <ele>1599.6</ele>
        <time>2011-05-15T07:32:00Z</time>
      </trkpt>
      <trkpt lat="42.91587" lon="0.214">
        <ele>1599.5</ele>
        <time>2011-05-15T07:32:01Z</time>
      </trkpt>
      <trkpt lat="42.91591" lon="0.2141">
        <ele>1599.2</ele>
        <time>2011-05-15T07:32:02Z</time>
      </trkpt>
      <trkpt lat="42.91585" lon="0.21412">
        <ele>1599.5</ele>
        <time>2011-05-15T07:32:04Z</time>
      </trkpt>
      <trkpt lat="42.91564" lon="0.21417">
        <ele>1601.1</ele>
        <time>2011-05-15T07:32:06Z</time>
      </trkpt>
      <trkpt lat="42.91571" lon="0.21418">
        <ele>1601.8</ele>
        <time>2011-05-15T07:32:11Z</time>
      </trkpt>
      <trkpt lat="42.91563" lon="0.21416">
        <ele>1601</ele>
        <time>2011-05-15T07:32:15Z</time>
      </trkpt>
      <trkpt lat="42.91568" lon="0.21419">
        <ele>1602.4</ele>
        <time>2011-05-15T07:32:18Z</time>
      </trkpt>
      <trkpt lat="42.91571" lon="0.21414">
        <ele>1603.8</ele>
        <time>2011-05-15T07:32:34Z</time>
      </trkpt>
      <trkpt lat="42.91576" lon="0.21417">
        <ele>1604</ele>
        <time>2011-05-15T07:32:38Z</time>
      </trkpt>
      <trkpt lat="42.91572" lon="0.21412">
        <ele>1604.7</ele>
        <time>2011-05-15T07:32:42Z</time>
      </trkpt>
      <trkpt lat="42.91575" lon="0.21419">
        <ele>1605.5</ele>
        <time>2011-05-15T07:32:54Z</time>
      </trkpt>
      <trkpt lat="42.91574" lon="0.21428">
        <ele>1602.9</ele>
        <time>2011-05-15T07:32:58Z</time>
      </trkpt>
      <trkpt lat="42.9157" lon="0.21431">
        <ele>1600</ele>
        <time>2011-05-15T07:33:03Z</time>
      </trkpt>
      <trkpt lat="42.91571" lon="0.21425">
        <ele>1602.1</ele>
        <time>2011-05-15T07:33:12Z</time>
      </trkpt>
      <trkpt lat="42.91569" lon="0.2143">
        <ele>1602.9</ele>
        <time>2011-05-15T07:33:16Z</time>
      </trkpt>
      <trkpt lat="42.91577" lon="0.2143">
        <ele>1602</ele>
        <time>2011-05-15T07:33:18Z</time>
      </trkpt>
      <trkpt lat="42.91581" lon="0.21434">
        <ele>1598.8</ele>
        <time>2011-05-15T07:33:30Z</time>
      </trkpt>
      <trkpt lat="42.91577" lon="0.2143">
        <ele>1602.8</ele>
        <time>2011-05-15T07:33:34Z</time>
      </trkpt>
      <trkpt lat="42.91571" lon="0.21427">
        <ele>1602.1</ele>
        <time>2011-05-15T07:33:35Z</time>
      </trkpt>
      <trkpt lat="42.91576" lon="0.21426">
        <ele>1602.3</ele>
        <time>2011-05-15T07:33:38Z</time>
      </trkpt>
      <trkpt lat="42.91582" lon="0.21424">
        <ele>1604.5</ele>
        <time>2011-05-15T07:33:43Z</time>
      </trkpt>
      <trkpt lat="42.91587" lon="0.21427">
        <ele>1604.5</ele>
        <time>2011-05-15T07:33:47Z</time>
      </trkpt>
      <trkpt lat="42.91582" lon="0.21428">
        <ele>1605.5</ele>
        <time>2011-05-15T07:33:53Z</time>
      </trkpt>
      <trkpt lat="42.91581" lon="0.21435">
        <ele>1605.8</ele>
        <time>2011-05-15T07:33:56Z</time>
      </trkpt>
      <trkpt lat="42.91586" lon="0.21432">
        <ele>1606.5</ele>
        <time>2011-05-15T07:34:12Z</time>
      </trkpt>
      <trkpt lat="42.91591" lon="0.2143">
        <ele>1608.3</ele>
        <time>2011-05-15T07:34:27Z</time>
      </trkpt>
      <trkpt lat="42.91585" lon="0.21433">
        <ele>1607.8</ele>
        <time>2011-05-15T07:34:35Z</time>
      </trkpt>
      <trkpt lat="42.9159" lon="0.21434">
        <ele>1608.5</ele>
        <time>2011-05-15T07:34:37Z</time>
      </trkpt>
      <trkpt lat="42.91594" lon="0.21437">
        <ele>1608.3</ele>
        <time>2011-05-15T07:34:40Z</time>
      </trkpt>
      <trkpt lat="42.91589" lon="0.21436">
        <ele>1608.1</ele>
        <time>2011-05-15T07:34:47Z</time>
      </trkpt>
      <trkpt lat="42.91586" lon="0.21431">
        <ele>1607.6</ele>
        <time>2011-05-15T07:34:51Z</time>
      </trkpt>
      <trkpt lat="42.9159" lon="0.21434">
        <ele>1608</ele>
        <time>2011-05-15T07:34:55Z</time>
      </trkpt>
      <trkpt lat="42.91585" lon="0.21434">
        <ele>1607.7</ele>
        <time>2011-05-15T07:34:56Z</time>
      </trkpt>
      <trkpt lat="42.9159" lon="0.21435">
        <ele>1607</ele>
        <time>2011-05-15T07:34:59Z</time>
      </trkpt>
      <trkpt lat="42.91585" lon="0.21435">
        <ele>1606.7</ele>
        <time>2011-05-15T07:35:00Z</time>
      </trkpt>
      <trkpt lat="42.9158" lon="0.21438">
        <ele>1608.2</ele>
        <time>2011-05-15T07:35:03Z</time>
      </trkpt>
      <trkpt lat="42.91586" lon="0.21439">
        <ele>1608.8</ele>
        <time>2011-05-15T07:35:07Z</time>
      </trkpt>
      <trkpt lat="42.91592" lon="0.21436">
        <ele>1609.3</ele>
        <time>2011-05-15T07:35:10Z</time>
      </trkpt>
      <trkpt lat="42.91586" lon="0.2143">
        <ele>1609.5</ele>
        <time>2011-05-15T07:35:12Z</time>
      </trkpt>
      <trkpt lat="42.91579" lon="0.21428">
        <ele>1609.8</ele>
        <time>2011-05-15T07:35:13Z</time>
      </trkpt>
      <trkpt lat="42.91573" lon="0.21427">
        <ele>1609.6</ele>
        <time>2011-05-15T07:35:15Z</time>
      </trkpt>
      <trkpt lat="42.91579" lon="0.21423">
        <ele>1609.3</ele>
        <time>2011-05-15T07:35:18Z</time>
      </trkpt>
      <trkpt lat="42.91584" lon="0.21424">
        <ele>1609</ele>
        <time>2011-05-15T07:35:21Z</time>
      </trkpt>
      <trkpt lat="42.9158" lon="0.21424">
        <ele>1609</ele>
        <time>2011-05-15T07:35:28Z</time>
      </trkpt>
      <trkpt lat="42.91577" lon="0.21429">
        <ele>1608.6</ele>
        <time>2011-05-15T07:35:37Z</time>
      </trkpt>
      <trkpt lat="42.91578" lon="0.21437">
        <ele>1608.4</ele>
        <time>2011-05-15T07:35:40Z</time>
      </trkpt>
      <trkpt lat="42.91575" lon="0.21432">
        <ele>1608.8</ele>
        <time>2011-05-15T07:35:44Z</time>
      </trkpt>
      <trkpt lat="42.91584" lon="0.21433">
        <ele>1609.4</ele>
        <time>2011-05-15T07:35:54Z</time>
      </trkpt>
      <trkpt lat="42.91579" lon="0.21435">
        <ele>1609.2</ele>
        <time>2011-05-15T07:35:55Z</time>
      </trkpt>
      <trkpt lat="42.91574" lon="0.2144">
        <ele>1608.8</ele>
        <time>2011-05-15T07:35:57Z</time>
      </trkpt>
      <trkpt lat="42.91581" lon="0.2144">
        <ele>1608.9</ele>
        <time>2011-05-15T07:36:01Z</time>
      </trkpt>
      <trkpt lat="42.91575" lon="0.21438">
        <ele>1608.9</ele>
        <time>2011-05-15T07:36:02Z</time>
      </trkpt>
      <trkpt lat="42.91571" lon="0.21447">
        <ele>1609.5</ele>
        <time>2011-05-15T07:36:05Z</time>
      </trkpt>
      <trkpt lat="42.91564" lon="0.2145">
        <ele>1609</ele>
        <time>2011-05-15T07:36:09Z</time>
      </trkpt>
      <trkpt lat="42.9157" lon="0.2145">
        <ele>1609.2</ele>
        <time>2011-05-15T07:36:14Z</time>
      </trkpt>
      <trkpt lat="42.91565" lon="0.21453">
        <ele>1609</ele>
        <time>2011-05-15T07:36:17Z</time>
      </trkpt>
      <trkpt lat="42.91559" lon="0.21457">
        <ele>1608.8</ele>
        <time>2011-05-15T07:36:19Z</time>
      </trkpt>
      <trkpt lat="42.9155" lon="0.21461">
        <ele>1608.5</ele>
        <time>2011-05-15T07:36:21Z</time>
      </trkpt>
      <trkpt lat="42.91552" lon="0.21469">
        <ele>1608.3</ele>
        <time>2011-05-15T07:36:24Z</time>
      </trkpt>
      <trkpt lat="42.91556" lon="0.21476">
        <ele>1608.1</ele>
        <time>2011-05-15T07:36:26Z</time>
      </trkpt>
      <trkpt lat="42.9155" lon="0.21478">
        <ele>1607.9</ele>
        <time>2011-05-15T07:36:28Z</time>
      </trkpt>
      <trkpt lat="42.91542" lon="0.21478">
        <ele>1607.8</ele>
        <time>2011-05-15T07:36:44Z</time>
      </trkpt>
      <trkpt lat="42.91535" lon="0.21481">
        <ele>1607.8</ele>
        <time>2011-05-15T07:36:49Z</time>
      </trkpt>
      <trkpt lat="42.91519" lon="0.21479">
        <ele>1609.7</ele>
        <time>2011-05-15T07:36:52Z</time>
      </trkpt>
      <trkpt lat="42.91512" lon="0.2148">
        <ele>1609.3</ele>
        <time>2011-05-15T07:36:55Z</time>
      </trkpt>
      <trkpt lat="42.91517" lon="0.2148">
        <ele>1609.7</ele>
        <time>2011-05-15T07:36:56Z</time>
      </trkpt>
      <trkpt lat="42.91525" lon="0.21478">
        <ele>1611.5</ele>
        <time>2011-05-15T07:37:09Z</time>
      </trkpt>
      <trkpt lat="42.91521" lon="0.21482">
        <ele>1611.2</ele>
        <time>2011-05-15T07:37:10Z</time>
      </trkpt>
      <trkpt lat="42.91528" lon="0.21484">
        <ele>1611.5</ele>
        <time>2011-05-15T07:37:11Z</time>
      </trkpt>
      <trkpt lat="42.91542" lon="0.21481">
        <ele>1612</ele>
        <time>2011-05-15T07:37:14Z</time>
      </trkpt>
      <trkpt lat="42.91537" lon="0.21483">
        <ele>1611.7</ele>
        <time>2011-05-15T07:37:16Z</time>
      </trkpt>
      <trkpt lat="42.91541" lon="0.21488">
        <ele>1611.6</ele>
        <time>2011-05-15T07:37:17Z</time>
      </trkpt>
      <trkpt lat="42.91539" lon="0.21495">
        <ele>1611.1</ele>
        <time>2011-05-15T07:37:25Z</time>
      </trkpt>
      <trkpt lat="42.91543" lon="0.215">
        <ele>1611</ele>
        <time>2011-05-15T07:37:26Z</time>
      </trkpt>
      <trkpt lat="42.91538" lon="0.21504">
        <ele>1610.9</ele>
        <time>2011-05-15T07:37:27Z</time>
      </trkpt>
      <trkpt lat="42.91534" lon="0.21506">
        <ele>1610.8</ele>
        <time>2011-05-15T07:37:28Z</time>
      </trkpt>
      <trkpt lat="42.91539" lon="0.21506">
        <ele>1610.9</ele>
        <time>2011-05-15T07:37:29Z</time>
      </trkpt>
      <trkpt lat="42.91534" lon="0.21511">
        <ele>1610.7</ele>
        <time>2011-05-15T07:37:31Z</time>
      </trkpt>
      <trkpt lat="42.91531" lon="0.2152">
        <ele>1610.6</ele>
        <time>2011-05-15T07:37:33Z</time>
      </trkpt>
      <trkpt lat="42.91526" lon="0.21523">
        <ele>1610.5</ele>
        <time>2011-05-15T07:37:34Z</time>
      </trkpt>
      <trkpt lat="42.9152" lon="0.2153">
        <ele>1610.4</ele>
        <time>2011-05-15T07:37:36Z</time>
      </trkpt>
      <trkpt lat="42.91513" lon="0.21536">
        <ele>1610.3</ele>
        <time>2011-05-15T07:37:40Z</time>
      </trkpt>
      <trkpt lat="42.91517" lon="0.21542">
        <ele>1610.2</ele>
        <time>2011-05-15T07:37:47Z</time>
      </trkpt>
      <trkpt lat="42.91523" lon="0.21547">
        <ele>1610.2</ele>
        <time>2011-05-15T07:37:50Z</time>
      </trkpt>
      <trkpt lat="42.91531" lon="0.21555">
        <ele>1610.1</ele>
        <time>2011-05-15T07:37:55Z</time>
      </trkpt>
      <trkpt lat="42.91529" lon="0.21561">
        <ele>1610.1</ele>
        <time>2011-05-15T07:37:57Z</time>
      </trkpt>
      <trkpt lat="42.91537" lon="0.21563">
        <ele>1610.1</ele>
        <time>2011-05-15T07:38:00Z</time>
      </trkpt>
      <trkpt lat="42.91531" lon="0.21566">
        <ele>1610.1</ele>
        <time>2011-05-15T07:38:05Z</time>
      </trkpt>
      <trkpt lat="42.91529" lon="0.21571">
        <ele>1610.1</ele>
        <time>2011-05-15T07:38:13Z</time>
      </trkpt>
      <trkpt lat="42.91522" lon="0.21578">
        <ele>1610.1</ele>
        <time>2011-05-15T07:38:15Z</time>
      </trkpt>
      <trkpt lat="42.91526" lon="0.21587">
        <ele>1610.1</ele>
        <time>2011-05-15T07:38:19Z</time>
      </trkpt>
      <trkpt lat="42.91523" lon="0.21593">
        <ele>1610</ele>
        <time>2011-05-15T07:38:23Z</time>
      </trkpt>
      <trkpt lat="42.91518" lon="0.21598">
        <ele>1610</ele>
        <time>2011-05-15T07:38:26Z</time>
      </trkpt>
      <trkpt lat="42.91512" lon="0.21605">
        <ele>1610</ele>
        <time>2011-05-15T07:38:28Z</time>
      </trkpt>
      <trkpt lat="42.91505" lon="0.21612">
        <ele>1610</ele>
        <time>2011-05-15T07:38:32Z</time>
      </trkpt>
      <trkpt lat="42.91502" lon="0.21618">
        <ele>1610</ele>
        <time>2011-05-15T07:38:35Z</time>
      </trkpt>
      <trkpt lat="42.91506" lon="0.21624">
        <ele>1610</ele>
        <time>2011-05-15T07:38:40Z</time>
      </trkpt>
      <trkpt lat="42.915" lon="0.2162">
        <ele>1609.9</ele>
        <time>2011-05-15T07:38:46Z</time>
      </trkpt>
      <trkpt lat="42.91504" lon="0.21626">
        <ele>1610</ele>
        <time>2011-05-15T07:38:47Z</time>
      </trkpt>
      <trkpt lat="42.91492" lon="0.21617">
        <ele>1609.9</ele>
        <time>2011-05-15T07:38:48Z</time>
      </trkpt>
      <trkpt lat="42.91481" lon="0.21612">
        <ele>1609.9</ele>
        <time>2011-05-15T07:38:49Z</time>
      </trkpt>
      <trkpt lat="42.91478" lon="0.21617">
        <ele>1609.8</ele>
        <time>2011-05-15T07:38:53Z</time>
      </trkpt>
      <trkpt lat="42.91493" lon="0.21631">
        <ele>1609.6</ele>
        <time>2011-05-15T07:38:54Z</time>
      </trkpt>
      <trkpt lat="42.91489" lon="0.21627">
        <ele>1609.5</ele>
        <time>2011-05-15T07:38:59Z</time>
      </trkpt>
      <trkpt lat="42.91487" lon="0.21632">
        <ele>1609.5</ele>
        <time>2011-05-15T07:39:01Z</time>
      </trkpt>
      <trkpt lat="42.91481" lon="0.21627">
        <ele>1609.9</ele>
        <time>2011-05-15T07:39:07Z</time>
      </trkpt>
      <trkpt lat="42.91477" lon="0.21634">
        <ele>1609.7</ele>
        <time>2011-05-15T07:39:08Z</time>
      </trkpt>
      <trkpt lat="42.91468" lon="0.21633">
        <ele>1609.7</ele>
        <time>2011-05-15T07:39:11Z</time>
      </trkpt>
      <trkpt lat="42.91464" lon="0.21637">
        <ele>1608.7</ele>
        <time>2011-05-15T07:39:15Z</time>
      </trkpt>
      <trkpt lat="42.91483" lon="0.21628">
        <ele>1607.6</ele>
        <time>2011-05-15T07:39:16Z</time>
      </trkpt>
      <trkpt lat="42.91485" lon="0.21634">
        <ele>1607.2</ele>
        <time>2011-05-15T07:39:21Z</time>
      </trkpt>
      <trkpt lat="42.91481" lon="0.2164">
        <ele>1606.2</ele>
        <time>2011-05-15T07:39:23Z</time>
      </trkpt>
      <trkpt lat="42.91477" lon="0.21639">
        <ele>1605.7</ele>
        <time>2011-05-15T07:39:24Z</time>
      </trkpt>
      <trkpt lat="42.91472" lon="0.21652">
        <ele>1607.2</ele>
        <time>2011-05-15T07:39:26Z</time>
      </trkpt>
      <trkpt lat="42.91475" lon="0.2166">
        <ele>1610.1</ele>
        <time>2011-05-15T07:39:28Z</time>
      </trkpt>
      <trkpt lat="42.91469" lon="0.21658">
        <ele>1612.1</ele>
        <time>2011-05-15T07:39:30Z</time>
      </trkpt>
      <trkpt lat="42.91467" lon="0.21664">
        <ele>1612.8</ele>
        <time>2011-05-15T07:39:36Z</time>
      </trkpt>
      <trkpt lat="42.91462" lon="0.21665">
        <ele>1617.8</ele>
        <time>2011-05-15T07:39:42Z</time>
      </trkpt>
      <trkpt lat="42.9142" lon="0.21675">
        <ele>1618.4</ele>
        <time>2011-05-15T07:40:38Z</time>
      </trkpt>
      <trkpt lat="42.91415" lon="0.21678">
        <ele>1619</ele>
        <time>2011-05-15T07:40:40Z</time>
      </trkpt>
      <trkpt lat="42.91411" lon="0.21673">
        <ele>1614.6</ele>
        <time>2011-05-15T07:40:46Z</time>
      </trkpt>
      <trkpt lat="42.91407" lon="0.21672">
        <ele>1613.9</ele>
        <time>2011-05-15T07:40:52Z</time>
      </trkpt>
      <trkpt lat="42.91402" lon="0.21672">
        <ele>1615.7</ele>
        <time>2011-05-15T07:40:59Z</time>
      </trkpt>
      <trkpt lat="42.91396" lon="0.21672">
        <ele>1615.1</ele>
        <time>2011-05-15T07:41:03Z</time>
      </trkpt>
      <trkpt lat="42.91392" lon="0.2167">
        <ele>1615.5</ele>
        <time>2011-05-15T07:41:06Z</time>
      </trkpt>
      <trkpt lat="42.91387" lon="0.21671">
        <ele>1615.2</ele>
        <time>2011-05-15T07:41:12Z</time>
      </trkpt>
      <trkpt lat="42.91382" lon="0.2167">
        <ele>1614.2</ele>
        <time>2011-05-15T07:41:18Z</time>
      </trkpt>
      <trkpt lat="42.91377" lon="0.21667">
        <ele>1612.5</ele>
        <time>2011-05-15T07:41:23Z</time>
      </trkpt>
      <trkpt lat="42.91371" lon="0.21665">
        <ele>1613.2</ele>
        <time>2011-05-15T07:41:28Z</time>
      </trkpt>
      <trkpt lat="42.91366" lon="0.21661">
        <ele>1613.8</ele>
        <time>2011-05-15T07:41:33Z</time>
      </trkpt>
      <trkpt lat="42.91362" lon="0.21658">
        <ele>1612.6</ele>
        <time>2011-05-15T07:41:37Z</time>
      </trkpt>
      <trkpt lat="42.91357" lon="0.21655">
        <ele>1614.8</ele>
        <time>2011-05-15T07:41:42Z</time>
      </trkpt>
      <trkpt lat="42.91353" lon="0.21654">
        <ele>1614.8</ele>
        <time>2011-05-15T07:41:46Z</time>
      </trkpt>
      <trkpt lat="42.91349" lon="0.21649">
        <ele>1614</ele>
        <time>2011-05-15T07:41:55Z</time>
      </trkpt>
      <trkpt lat="42.91344" lon="0.21646">
        <ele>1615.4</ele>
        <time>2011-05-15T07:42:01Z</time>
      </trkpt>
      <trkpt lat="42.91339" lon="0.21642">
        <ele>1615.7</ele>
        <time>2011-05-15T07:42:05Z</time>
      </trkpt>
      <trkpt lat="42.91333" lon="0.2164">
        <ele>1616</ele>
        <time>2011-05-15T07:42:09Z</time>
      </trkpt>
      <trkpt lat="42.91331" lon="0.21634">
        <ele>1617.3</ele>
        <time>2011-05-15T07:42:14Z</time>
      </trkpt>
      <trkpt lat="42.91326" lon="0.21633">
        <ele>1617.9</ele>
        <time>2011-05-15T07:42:18Z</time>
      </trkpt>
      <trkpt lat="42.91321" lon="0.2163">
        <ele>1617.6</ele>
        <time>2011-05-15T07:42:23Z</time>
      </trkpt>
      <trkpt lat="42.91316" lon="0.21628">
        <ele>1617.3</ele>
        <time>2011-05-15T07:42:26Z</time>
      </trkpt>
      <trkpt lat="42.91311" lon="0.21625">
        <ele>1616.3</ele>
        <time>2011-05-15T07:42:32Z</time>
      </trkpt>
      <trkpt lat="42.91306" lon="0.21622">
        <ele>1617</ele>
        <time>2011-05-15T07:42:36Z</time>
      </trkpt>
      <trkpt lat="42.913" lon="0.21622">
        <ele>1617.7</ele>
        <time>2011-05-15T07:42:39Z</time>
      </trkpt>
      <trkpt lat="42.91295" lon="0.21621">
        <ele>1618.7</ele>
        <time>2011-05-15T07:42:44Z</time>
      </trkpt>
      <trkpt lat="42.9129" lon="0.21617">
        <ele>1616.8</ele>
        <time>2011-05-15T07:42:50Z</time>
      </trkpt>
      <trkpt lat="42.91285" lon="0.21615">
        <ele>1616.8</ele>
        <time>2011-05-15T07:42:58Z</time>
      </trkpt>
      <trkpt lat="42.91282" lon="0.2161">
        <ele>1616.8</ele>
        <time>2011-05-15T07:43:04Z</time>
      </trkpt>
      <trkpt lat="42.91277" lon="0.21608">
        <ele>1614.2</ele>
        <time>2011-05-15T07:43:14Z</time>
      </trkpt>
      <trkpt lat="42.9127" lon="0.21607">
        <ele>1614.9</ele>
        <time>2011-05-15T07:43:17Z</time>
      </trkpt>
      <trkpt lat="42.91266" lon="0.21604">
        <ele>1615.2</ele>
        <time>2011-05-15T07:43:19Z</time>
      </trkpt>
      <trkpt lat="42.91261" lon="0.216">
        <ele>1615.7</ele>
        <time>2011-05-15T07:43:23Z</time>
      </trkpt>
      <trkpt lat="42.91256" lon="0.21598">
        <ele>1615.2</ele>
        <time>2011-05-15T07:43:26Z</time>
      </trkpt>
      <trkpt lat="42.91251" lon="0.21596">
        <ele>1613.5</ele>
        <time>2011-05-15T07:43:32Z</time>
      </trkpt>
      <trkpt lat="42.91245" lon="0.21597">
        <ele>1612.9</ele>
        <time>2011-05-15T07:43:36Z</time>
      </trkpt>
      <trkpt lat="42.9124" lon="0.21595">
        <ele>1612.2</ele>
        <time>2011-05-15T07:43:47Z</time>
      </trkpt>
      <trkpt lat="42.91235" lon="0.21592">
        <ele>1612.6</ele>
        <time>2011-05-15T07:43:51Z</time>
      </trkpt>
      <trkpt lat="42.91231" lon="0.21591">
        <ele>1613.5</ele>
        <time>2011-05-15T07:43:55Z</time>
      </trkpt>
      <trkpt lat="42.91226" lon="0.21588">
        <ele>1614.5</ele>
        <time>2011-05-15T07:43:59Z</time>
      </trkpt>
      <trkpt lat="42.91221" lon="0.21586">
        <ele>1612.8</ele>
        <time>2011-05-15T07:44:04Z</time>
      </trkpt>
      <trkpt lat="42.91216" lon="0.21581">
        <ele>1612.7</ele>
        <time>2011-05-15T07:44:08Z</time>
      </trkpt>
      <trkpt lat="42.91211" lon="0.21578">
        <ele>1613</ele>
        <time>2011-05-15T07:44:12Z</time>
      </trkpt>
      <trkpt lat="42.91206" lon="0.21576">
        <ele>1612.9</ele>
        <time>2011-05-15T07:44:16Z</time>
      </trkpt>
      <trkpt lat="42.91203" lon="0.2157">
        <ele>1611.2</ele>
        <time>2011-05-15T07:44:22Z</time>
      </trkpt>
      <trkpt lat="42.91198" lon="0.21566">
        <ele>1611.4</ele>
        <time>2011-05-15T07:44:29Z</time>
      </trkpt>
      <trkpt lat="42.91192" lon="0.21564">
        <ele>1610.5</ele>
        <time>2011-05-15T07:44:32Z</time>
      </trkpt>
      <trkpt lat="42.91188" lon="0.21559">
        <ele>1612.2</ele>
        <time>2011-05-15T07:44:37Z</time>
      </trkpt>
      <trkpt lat="42.91187" lon="0.21552">
        <ele>1612.5</ele>
        <time>2011-05-15T07:44:41Z</time>
      </trkpt>
      <trkpt lat="42.91185" lon="0.21546">
        <ele>1612.7</ele>
        <time>2011-05-15T07:44:47Z</time>
      </trkpt>
      <trkpt lat="42.9118" lon="0.21544">
        <ele>1609.5</ele>
        <time>2011-05-15T07:44:52Z</time>
      </trkpt>
      <trkpt lat="42.91176" lon="0.2154">
        <ele>1610.8</ele>
        <time>2011-05-15T07:44:57Z</time>
      </trkpt>
      <trkpt lat="42.91175" lon="0.21533">
        <ele>1614.1</ele>
        <time>2011-05-15T07:45:14Z</time>
      </trkpt>
      <trkpt lat="42.91172" lon="0.21526">
        <ele>1611.2</ele>
        <time>2011-05-15T07:45:31Z</time>
      </trkpt>
      <trkpt lat="42.91169" lon="0.21521">
        <ele>1611.3</ele>
        <time>2011-05-15T07:45:34Z</time>
      </trkpt>
      <trkpt lat="42.91166" lon="0.21516">
        <ele>1610.1</ele>
        <time>2011-05-15T07:45:38Z</time>
      </trkpt>
      <trkpt lat="42.91162" lon="0.21512">
        <ele>1612</ele>
        <time>2011-05-15T07:45:44Z</time>
      </trkpt>
      <trkpt lat="42.91156" lon="0.2151">
        <ele>1612.6</ele>
        <time>2011-05-15T07:45:48Z</time>
      </trkpt>
      <trkpt lat="42.91151" lon="0.21507">
        <ele>1612.9</ele>
        <time>2011-05-15T07:45:51Z</time>
      </trkpt>
      <trkpt lat="42.91148" lon="0.21501">
        <ele>1612.9</ele>
        <time>2011-05-15T07:45:56Z</time>
      </trkpt>
      <trkpt lat="42.91138" lon="0.21492">
        <ele>1612.4</ele>
        <time>2011-05-15T07:46:47Z</time>
      </trkpt>
      <trkpt lat="42.91135" lon="0.21487">
        <ele>1612</ele>
        <time>2011-05-15T07:46:48Z</time>
      </trkpt>
      <trkpt lat="42.91129" lon="0.21484">
        <ele>1611.4</ele>
        <time>2011-05-15T07:46:50Z</time>
      </trkpt>
      <trkpt lat="42.91123" lon="0.21482">
        <ele>1611.6</ele>
        <time>2011-05-15T07:46:52Z</time>
      </trkpt>
      <trkpt lat="42.91118" lon="0.2148">
        <ele>1612.6</ele>
        <time>2011-05-15T07:46:54Z</time>
      </trkpt>
      <trkpt lat="42.91113" lon="0.21479">
        <ele>1613.4</ele>
        <time>2011-05-15T07:46:56Z</time>
      </trkpt>
      <trkpt lat="42.91108" lon="0.21482">
        <ele>1614.7</ele>
        <time>2011-05-15T07:47:04Z</time>
      </trkpt>
      <trkpt lat="42.91101" lon="0.21484">
        <ele>1616.7</ele>
        <time>2011-05-15T07:47:11Z</time>
      </trkpt>
      <trkpt lat="42.91098" lon="0.21491">
        <ele>1618</ele>
        <time>2011-05-15T07:47:16Z</time>
      </trkpt>
      <trkpt lat="42.91092" lon="0.21493">
        <ele>1618.1</ele>
        <time>2011-05-15T07:47:22Z</time>
      </trkpt>
      <trkpt lat="42.91089" lon="0.21497">
        <ele>1617.1</ele>
        <time>2011-05-15T07:47:33Z</time>
      </trkpt>
      <trkpt lat="42.91084" lon="0.21503">
        <ele>1615.9</ele>
        <time>2011-05-15T07:47:41Z</time>
      </trkpt>
      <trkpt lat="42.91082" lon="0.21512">
        <ele>1615.3</ele>
        <time>2011-05-15T07:47:46Z</time>
      </trkpt>
      <trkpt lat="42.91085" lon="0.21517">
        <ele>1615.2</ele>
        <time>2011-05-15T07:47:48Z</time>
      </trkpt>
      <trkpt lat="42.9109" lon="0.21522">
        <ele>1615.5</ele>
        <time>2011-05-15T07:47:50Z</time>
      </trkpt>
      <trkpt lat="42.91085" lon="0.21526">
        <ele>1617.7</ele>
        <time>2011-05-15T07:48:01Z</time>
      </trkpt>
      <trkpt lat="42.9108" lon="0.21529">
        <ele>1615.4</ele>
        <time>2011-05-15T07:48:08Z</time>
      </trkpt>
      <trkpt lat="42.91074" lon="0.2153">
        <ele>1614.1</ele>
        <time>2011-05-15T07:48:12Z</time>
      </trkpt>
      <trkpt lat="42.91069" lon="0.21532">
        <ele>1614.2</ele>
        <time>2011-05-15T07:48:17Z</time>
      </trkpt>
      <trkpt lat="42.91064" lon="0.21531">
        <ele>1614.1</ele>
        <time>2011-05-15T07:48:20Z</time>
      </trkpt>
      <trkpt lat="42.91059" lon="0.21528">
        <ele>1614.5</ele>
        <time>2011-05-15T07:48:26Z</time>
      </trkpt>
      <trkpt lat="42.91054" lon="0.2153">
        <ele>1612.5</ele>
        <time>2011-05-15T07:48:35Z</time>
      </trkpt>
      <trkpt lat="42.91051" lon="0.21535">
        <ele>1612.4</ele>
        <time>2011-05-15T07:48:40Z</time>
      </trkpt>
      <trkpt lat="42.91047" lon="0.2153">
        <ele>1614.7</ele>
        <time>2011-05-15T07:48:55Z</time>
      </trkpt>
      <trkpt lat="42.91042" lon="0.21529">
        <ele>1613.6</ele>
        <time>2011-05-15T07:48:59Z</time>
      </trkpt>
      <trkpt lat="42.91037" lon="0.21527">
        <ele>1614.6</ele>
        <time>2011-05-15T07:49:05Z</time>
      </trkpt>
      <trkpt lat="42.91032" lon="0.21525">
        <ele>1613.7</ele>
        <time>2011-05-15T07:49:11Z</time>
      </trkpt>
      <trkpt lat="42.91028" lon="0.21527">
        <ele>1612.7</ele>
        <time>2011-05-15T07:49:19Z</time>
      </trkpt>
      <trkpt lat="42.91027" lon="0.2152">
        <ele>1612.4</ele>
        <time>2011-05-15T07:49:27Z</time>
      </trkpt>
      <trkpt lat="42.91024" lon="0.21515">
        <ele>1613.3</ele>
        <time>2011-05-15T07:49:39Z</time>
      </trkpt>
      <trkpt lat="42.9102" lon="0.21511">
        <ele>1615.9</ele>
        <time>2011-05-15T07:49:46Z</time>
      </trkpt>
      <trkpt lat="42.91015" lon="0.21508">
        <ele>1616.1</ele>
        <time>2011-05-15T07:49:51Z</time>
      </trkpt>
      <trkpt lat="42.91012" lon="0.21502">
        <ele>1616.3</ele>
        <time>2011-05-15T07:50:04Z</time>
      </trkpt>
      <trkpt lat="42.91007" lon="0.21499">
        <ele>1616.2</ele>
        <time>2011-05-15T07:50:08Z</time>
      </trkpt>
      <trkpt lat="42.91004" lon="0.21494">
        <ele>1616.9</ele>
        <time>2011-05-15T07:50:12Z</time>
      </trkpt>
      <trkpt lat="42.91" lon="0.21489">
        <ele>1616.8</ele>
        <time>2011-05-15T07:50:16Z</time>
      </trkpt>
      <trkpt lat="42.90997" lon="0.21485">
        <ele>1616.2</ele>
        <time>2011-05-15T07:50:24Z</time>
      </trkpt>
      <trkpt lat="42.90992" lon="0.21486">
        <ele>1615.5</ele>
        <time>2011-05-15T07:50:31Z</time>
      </trkpt>
      <trkpt lat="42.90987" lon="0.21486">
        <ele>1615.4</ele>
        <time>2011-05-15T07:50:38Z</time>
      </trkpt>
      <trkpt lat="42.90982" lon="0.21482">
        <ele>1616.7</ele>
        <time>2011-05-15T07:50:43Z</time>
      </trkpt>
      <trkpt lat="42.90978" lon="0.21479">
        <ele>1616.2</ele>
        <time>2011-05-15T07:50:48Z</time>
      </trkpt>
      <trkpt lat="42.90975" lon="0.21474">
        <ele>1619</ele>
        <time>2011-05-15T07:51:10Z</time>
      </trkpt>
      <trkpt lat="42.9097" lon="0.21472">
        <ele>1620.4</ele>
        <time>2011-05-15T07:51:28Z</time>
      </trkpt>
      <trkpt lat="42.90966" lon="0.21465">
        <ele>1621.2</ele>
        <time>2011-05-15T07:51:48Z</time>
      </trkpt>
      <trkpt lat="42.9096" lon="0.21461">
        <ele>1622.1</ele>
        <time>2011-05-15T07:51:50Z</time>
      </trkpt>
      <trkpt lat="42.90956" lon="0.21459">
        <ele>1620.9</ele>
        <time>2011-05-15T07:51:51Z</time>
      </trkpt>
      <trkpt lat="42.90951" lon="0.21456">
        <ele>1619.2</ele>
        <time>2011-05-15T07:51:53Z</time>
      </trkpt>
      <trkpt lat="42.90946" lon="0.21452">
        <ele>1619.8</ele>
        <time>2011-05-15T07:51:56Z</time>
      </trkpt>
      <trkpt lat="42.9094" lon="0.21449">
        <ele>1620.2</ele>
        <time>2011-05-15T07:51:59Z</time>
      </trkpt>
      <trkpt lat="42.90936" lon="0.21448">
        <ele>1620.3</ele>
        <time>2011-05-15T07:52:02Z</time>
      </trkpt>
      <trkpt lat="42.90931" lon="0.21445">
        <ele>1621.6</ele>
        <time>2011-05-15T07:52:08Z</time>
      </trkpt>
      <trkpt lat="42.90926" lon="0.21442">
        <ele>1622.1</ele>
        <time>2011-05-15T07:52:14Z</time>
      </trkpt>
      <trkpt lat="42.9092" lon="0.21437">
        <ele>1624.1</ele>
        <time>2011-05-15T07:52:53Z</time>
      </trkpt>
      <trkpt lat="42.90916" lon="0.21435">
        <ele>1625.3</ele>
        <time>2011-05-15T07:53:01Z</time>
      </trkpt>
      <trkpt lat="42.90907" lon="0.21429">
        <ele>1625.7</ele>
        <time>2011-05-15T07:53:08Z</time>
      </trkpt>
      <trkpt lat="42.90905" lon="0.21423">
        <ele>1625</ele>
        <time>2011-05-15T07:53:12Z</time>
      </trkpt>
      <trkpt lat="42.90902" lon="0.21417">
        <ele>1625.8</ele>
        <time>2011-05-15T07:53:18Z</time>
      </trkpt>
      <trkpt lat="42.909" lon="0.21412">
        <ele>1626.8</ele>
        <time>2011-05-15T07:53:26Z</time>
      </trkpt>
      <trkpt lat="42.90894" lon="0.21406">
        <ele>1626.5</ele>
        <time>2011-05-15T07:53:28Z</time>
      </trkpt>
      <trkpt lat="42.90891" lon="0.21401">
        <ele>1626.7</ele>
        <time>2011-05-15T07:53:40Z</time>
      </trkpt>
      <trkpt lat="42.90881" lon="0.21396">
        <ele>1626.3</ele>
        <time>2011-05-15T07:54:01Z</time>
      </trkpt>
      <trkpt lat="42.90877" lon="0.21394">
        <ele>1624.9</ele>
        <time>2011-05-15T07:54:02Z</time>
      </trkpt>
      <trkpt lat="42.90871" lon="0.2139">
        <ele>1625.5</ele>
        <time>2011-05-15T07:54:06Z</time>
      </trkpt>
      <trkpt lat="42.90868" lon="0.21386">
        <ele>1626.8</ele>
        <time>2011-05-15T07:54:10Z</time>
      </trkpt>
      <trkpt lat="42.90864" lon="0.21381">
        <ele>1627.9</ele>
        <time>2011-05-15T07:54:18Z</time>
      </trkpt>
      <trkpt lat="42.9086" lon="0.21377">
        <ele>1629.1</ele>
        <time>2011-05-15T07:54:23Z</time>
      </trkpt>
      <trkpt lat="42.90855" lon="0.21373">
        <ele>1627.4</ele>
        <time>2011-05-15T07:54:31Z</time>
      </trkpt>
      <trkpt lat="42.90852" lon="0.21368">
        <ele>1628.4</ele>
        <time>2011-05-15T07:54:36Z</time>
      </trkpt>
      <trkpt lat="42.90847" lon="0.21359">
        <ele>1632.8</ele>
        <time>2011-05-15T07:54:49Z</time>
      </trkpt>
      <trkpt lat="42.90842" lon="0.21354">
        <ele>1634.2</ele>
        <time>2011-05-15T07:54:52Z</time>
      </trkpt>
      <trkpt lat="42.9084" lon="0.21348">
        <ele>1636.6</ele>
        <time>2011-05-15T07:54:58Z</time>
      </trkpt>
      <trkpt lat="42.90838" lon="0.21341">
        <ele>1637.7</ele>
        <time>2011-05-15T07:55:10Z</time>
      </trkpt>
      <trkpt lat="42.90834" lon="0.21335">
        <ele>1637.5</ele>
        <time>2011-05-15T07:55:12Z</time>
      </trkpt>
      <trkpt lat="42.90834" lon="0.21328">
        <ele>1642.6</ele>
        <time>2011-05-15T07:55:17Z</time>
      </trkpt>
      <trkpt lat="42.90829" lon="0.21326">
        <ele>1640.8</ele>
        <time>2011-05-15T07:55:22Z</time>
      </trkpt>
      <trkpt lat="42.90824" lon="0.21322">
        <ele>1643.3</ele>
        <time>2011-05-15T07:55:50Z</time>
      </trkpt>
      <trkpt lat="42.9082" lon="0.21317">
        <ele>1643.3</ele>
        <time>2011-05-15T07:55:53Z</time>
      </trkpt>
      <trkpt lat="42.90816" lon="0.21313">
        <ele>1644.8</ele>
        <time>2011-05-15T07:55:56Z</time>
      </trkpt>
      <trkpt lat="42.90812" lon="0.21309">
        <ele>1645.9</ele>
        <time>2011-05-15T07:55:59Z</time>
      </trkpt>
      <trkpt lat="42.90807" lon="0.21306">
        <ele>1645.2</ele>
        <time>2011-05-15T07:56:04Z</time>
      </trkpt>
      <trkpt lat="42.90802" lon="0.21303">
        <ele>1643.6</ele>
        <time>2011-05-15T07:56:08Z</time>
      </trkpt>
      <trkpt lat="42.90798" lon="0.21299">
        <ele>1642.7</ele>
        <time>2011-05-15T07:56:14Z</time>
      </trkpt>
      <trkpt lat="42.90793" lon="0.21295">
        <ele>1645</ele>
        <time>2011-05-15T07:56:29Z</time>
      </trkpt>
      <trkpt lat="42.90789" lon="0.21291">
        <ele>1645.8</ele>
        <time>2011-05-15T07:56:35Z</time>
      </trkpt>
      <trkpt lat="42.90785" lon="0.21289">
        <ele>1644.5</ele>
        <time>2011-05-15T07:56:41Z</time>
      </trkpt>
      <trkpt lat="42.90782" lon="0.21283">
        <ele>1646</ele>
        <time>2011-05-15T07:56:45Z</time>
      </trkpt>
      <trkpt lat="42.90778" lon="0.21277">
        <ele>1645.9</ele>
        <time>2011-05-15T07:56:47Z</time>
      </trkpt>
      <trkpt lat="42.90777" lon="0.21271">
        <ele>1644.4</ele>
        <time>2011-05-15T07:56:51Z</time>
      </trkpt>
      <trkpt lat="42.90773" lon="0.21265">
        <ele>1645.8</ele>
        <time>2011-05-15T07:56:56Z</time>
      </trkpt>
      <trkpt lat="42.90772" lon="0.21259">
        <ele>1647.3</ele>
        <time>2011-05-15T07:57:02Z</time>
      </trkpt>
      <trkpt lat="42.90769" lon="0.21253">
        <ele>1644.4</ele>
        <time>2011-05-15T07:57:09Z</time>
      </trkpt>
      <trkpt lat="42.90766" lon="0.21247">
        <ele>1642.1</ele>
        <time>2011-05-15T07:57:15Z</time>
      </trkpt>
      <trkpt lat="42.90762" lon="0.2124">
        <ele>1643.4</ele>
        <time>2011-05-15T07:57:20Z</time>
      </trkpt>
      <trkpt lat="42.90762" lon="0.21234">
        <ele>1643.7</ele>
        <time>2011-05-15T07:57:27Z</time>
      </trkpt>
      <trkpt lat="42.90761" lon="0.21227">
        <ele>1645.6</ele>
        <time>2011-05-15T07:57:32Z</time>
      </trkpt>
      <trkpt lat="42.90759" lon="0.21221">
        <ele>1650.3</ele>
        <time>2011-05-15T07:57:44Z</time>
      </trkpt>
      <trkpt lat="42.90757" lon="0.21215">
        <ele>1648.8</ele>
        <time>2011-05-15T07:57:48Z</time>
      </trkpt>
      <trkpt lat="42.90752" lon="0.21213">
        <ele>1648.5</ele>
        <time>2011-05-15T07:57:54Z</time>
      </trkpt>
      <trkpt lat="42.90744" lon="0.2121">
        <ele>1649.5</ele>
        <time>2011-05-15T07:58:01Z</time>
      </trkpt>
      <trkpt lat="42.90741" lon="0.21204">
        <ele>1649.5</ele>
        <time>2011-05-15T07:58:05Z</time>
      </trkpt>
      <trkpt lat="42.90737" lon="0.21199">
        <ele>1649.9</ele>
        <time>2011-05-15T07:58:09Z</time>
      </trkpt>
      <trkpt lat="42.90733" lon="0.21194">
        <ele>1652.2</ele>
        <time>2011-05-15T07:58:15Z</time>
      </trkpt>
      <trkpt lat="42.90732" lon="0.21187">
        <ele>1651.4</ele>
        <time>2011-05-15T07:58:23Z</time>
      </trkpt>
      <trkpt lat="42.90728" lon="0.21182">
        <ele>1655</ele>
        <time>2011-05-15T07:58:28Z</time>
      </trkpt>
      <trkpt lat="42.90727" lon="0.21176">
        <ele>1656.4</ele>
        <time>2011-05-15T07:58:37Z</time>
      </trkpt>
      <trkpt lat="42.90726" lon="0.21169">
        <ele>1655.4</ele>
        <time>2011-05-15T07:58:52Z</time>
      </trkpt>
      <trkpt lat="42.9073" lon="0.21166">
        <ele>1657.7</ele>
        <time>2011-05-15T07:59:01Z</time>
      </trkpt>
      <trkpt lat="42.90728" lon="0.21158">
        <ele>1662.4</ele>
        <time>2011-05-15T07:59:12Z</time>
      </trkpt>
      <trkpt lat="42.9072" lon="0.21154">
        <ele>1656</ele>
        <time>2011-05-15T07:59:19Z</time>
      </trkpt>
      <trkpt lat="42.90715" lon="0.21149">
        <ele>1655.8</ele>
        <time>2011-05-15T07:59:23Z</time>
      </trkpt>
      <trkpt lat="42.90711" lon="0.21145">
        <ele>1656.7</ele>
        <time>2011-05-15T07:59:28Z</time>
      </trkpt>
      <trkpt lat="42.90709" lon="0.21139">
        <ele>1659.8</ele>
        <time>2011-05-15T07:59:34Z</time>
      </trkpt>
      <trkpt lat="42.90705" lon="0.21136">
        <ele>1653.7</ele>
        <time>2011-05-15T07:59:38Z</time>
      </trkpt>
      <trkpt lat="42.90707" lon="0.2113">
        <ele>1656.7</ele>
        <time>2011-05-15T07:59:42Z</time>
      </trkpt>
      <trkpt lat="42.90706" lon="0.21124">
        <ele>1658.9</ele>
        <time>2011-05-15T08:00:01Z</time>
      </trkpt>
      <trkpt lat="42.90698" lon="0.21117">
        <ele>1660</ele>
        <time>2011-05-15T08:00:35Z</time>
      </trkpt>
      <trkpt lat="42.90702" lon="0.21119">
        <ele>1663.3</ele>
        <time>2011-05-15T08:00:47Z</time>
      </trkpt>
      <trkpt lat="42.90435" lon="0.20912">
        <ele>1698.4</ele>
        <time>2011-05-15T08:24:56Z</time>
      </trkpt>
      <trkpt lat="42.90439" lon="0.20911">
        <ele>1699.1</ele>
        <time>2011-05-15T08:25:03Z</time>
      </trkpt>
      <trkpt lat="42.90446" lon="0.20943">
        <ele>1706.8</ele>
        <time>2011-05-15T08:25:51Z</time>
      </trkpt>
      <trkpt lat="42.90435" lon="0.20937">
        <ele>1710.2</ele>
        <time>2011-05-15T08:25:56Z</time>
      </trkpt>
      <trkpt lat="42.9043" lon="0.20937">
        <ele>1710.2</ele>
        <time>2011-05-15T08:26:00Z</time>
      </trkpt>
      <trkpt lat="42.90435" lon="0.20939">
        <ele>1710.2</ele>
        <time>2011-05-15T08:26:01Z</time>
      </trkpt>
      <trkpt lat="42.90421" lon="0.20933">
        <ele>1710</ele>
        <time>2011-05-15T08:26:03Z</time>
      </trkpt>
      <trkpt lat="42.90416" lon="0.20933">
        <ele>1710.6</ele>
        <time>2011-05-15T08:26:10Z</time>
      </trkpt>
      <trkpt lat="42.90431" lon="0.2092">
        <ele>1717.2</ele>
        <time>2011-05-15T08:26:13Z</time>
      </trkpt>
      <trkpt lat="42.90432" lon="0.20912">
        <ele>1720</ele>
        <time>2011-05-15T08:26:17Z</time>
      </trkpt>
      <trkpt lat="42.90434" lon="0.2092">
        <ele>1726.6</ele>
        <time>2011-05-15T08:26:22Z</time>
      </trkpt>
      <trkpt lat="42.9043" lon="0.20913">
        <ele>1726.8</ele>
        <time>2011-05-15T08:26:28Z</time>
      </trkpt>
      <trkpt lat="42.90437" lon="0.20911">
        <ele>1726.9</ele>
        <time>2011-05-15T08:26:31Z</time>
      </trkpt>
      <trkpt lat="42.90434" lon="0.20915">
        <ele>1727.1</ele>
        <time>2011-05-15T08:26:32Z</time>
      </trkpt>
      <trkpt lat="42.90433" lon="0.20909">
        <ele>1727.4</ele>
        <time>2011-05-15T08:26:37Z</time>
      </trkpt>
      <trkpt lat="42.90436" lon="0.20922">
        <ele>1730.1</ele>
        <time>2011-05-15T08:26:42Z</time>
      </trkpt>
      <trkpt lat="42.9044" lon="0.20928">
        <ele>1730.3</ele>
        <time>2011-05-15T08:26:43Z</time>
      </trkpt>
      <trkpt lat="42.90435" lon="0.20931">
        <ele>1729.7</ele>
        <time>2011-05-15T08:26:45Z</time>
      </trkpt>
      <trkpt lat="42.90436" lon="0.20922">
        <ele>1732.2</ele>
        <time>2011-05-15T08:26:50Z</time>
      </trkpt>
      <trkpt lat="42.9043" lon="0.20919">
        <ele>1731.2</ele>
        <time>2011-05-15T08:26:55Z</time>
      </trkpt>
      <trkpt lat="42.90434" lon="0.20914">
        <ele>1733.9</ele>
        <time>2011-05-15T08:27:02Z</time>
      </trkpt>
      <trkpt lat="42.90441" lon="0.20914">
        <ele>1733.6</ele>
        <time>2011-05-15T08:27:11Z</time>
      </trkpt>
      <trkpt lat="42.90441" lon="0.20907">
        <ele>1733.9</ele>
        <time>2011-05-15T08:27:15Z</time>
      </trkpt>
      <trkpt lat="42.90438" lon="0.20914">
        <ele>1733.7</ele>
        <time>2011-05-15T08:27:23Z</time>
      </trkpt>
      <trkpt lat="42.9044" lon="0.20907">
        <ele>1733.7</ele>
        <time>2011-05-15T08:27:28Z</time>
      </trkpt>
      <trkpt lat="42.9044" lon="0.20914">
        <ele>1735</ele>
        <time>2011-05-15T08:27:34Z</time>
      </trkpt>
      <trkpt lat="42.90447" lon="0.20902">
        <ele>1735.2</ele>
        <time>2011-05-15T08:27:40Z</time>
      </trkpt>
      <trkpt lat="42.90442" lon="0.209">
        <ele>1736</ele>
        <time>2011-05-15T08:27:45Z</time>
      </trkpt>
      <trkpt lat="42.90439" lon="0.20916">
        <ele>1735.8</ele>
        <time>2011-05-15T08:27:46Z</time>
      </trkpt>
      <trkpt lat="42.90436" lon="0.20923">
        <ele>1735.8</ele>
        <time>2011-05-15T08:27:47Z</time>
      </trkpt>
      <trkpt lat="42.90431" lon="0.20909">
        <ele>1735.6</ele>
        <time>2011-05-15T08:27:49Z</time>
      </trkpt>
      <trkpt lat="42.9043" lon="0.2092">
        <ele>1735.6</ele>
        <time>2011-05-15T08:27:50Z</time>
      </trkpt>
      <trkpt lat="42.90423" lon="0.20917">
        <ele>1735.8</ele>
        <time>2011-05-15T08:27:53Z</time>
      </trkpt>
      <trkpt lat="42.90421" lon="0.2091">
        <ele>1735.7</ele>
        <time>2011-05-15T08:27:55Z</time>
      </trkpt>
      <trkpt lat="42.90428" lon="0.2091">
        <ele>1735.9</ele>
        <time>2011-05-15T08:28:02Z</time>
      </trkpt>
      <trkpt lat="42.90425" lon="0.20905">
        <ele>1736</ele>
        <time>2011-05-15T08:28:04Z</time>
      </trkpt>
      <trkpt lat="42.90426" lon="0.20899">
        <ele>1736.1</ele>
        <time>2011-05-15T08:28:07Z</time>
      </trkpt>
      <trkpt lat="42.90434" lon="0.20901">
        <ele>1736</ele>
        <time>2011-05-15T08:28:10Z</time>
      </trkpt>
      <trkpt lat="42.90438" lon="0.20905">
        <ele>1736</ele>
        <time>2011-05-15T08:28:13Z</time>
      </trkpt>
      <trkpt lat="42.90441" lon="0.209">
        <ele>1736</ele>
        <time>2011-05-15T08:28:14Z</time>
      </trkpt>
      <trkpt lat="42.90441" lon="0.20894">
        <ele>1736.1</ele>
        <time>2011-05-15T08:28:16Z</time>
      </trkpt>
      <trkpt lat="42.90435" lon="0.20898">
        <ele>1736.1</ele>
        <time>2011-05-15T08:28:18Z</time>
      </trkpt>
      <trkpt lat="42.90432" lon="0.20893">
        <ele>1736.1</ele>
        <time>2011-05-15T08:28:20Z</time>
      </trkpt>
      <trkpt lat="42.90429" lon="0.20887">
        <ele>1736.3</ele>
        <time>2011-05-15T08:28:24Z</time>
      </trkpt>
      <trkpt lat="42.90421" lon="0.20894">
        <ele>1736.1</ele>
        <time>2011-05-15T08:28:26Z</time>
      </trkpt>
      <trkpt lat="42.90414" lon="0.209">
        <ele>1738.3</ele>
        <time>2011-05-15T08:28:33Z</time>
      </trkpt>
      <trkpt lat="42.90406" lon="0.20898">
        <ele>1738</ele>
        <time>2011-05-15T08:28:36Z</time>
      </trkpt>
      <trkpt lat="42.90401" lon="0.20902">
        <ele>1739</ele>
        <time>2011-05-15T08:28:40Z</time>
      </trkpt>
      <trkpt lat="42.90397" lon="0.20904">
        <ele>1738.6</ele>
        <time>2011-05-15T08:28:44Z</time>
      </trkpt>
      <trkpt lat="42.90391" lon="0.20904">
        <ele>1739.2</ele>
        <time>2011-05-15T08:28:48Z</time>
      </trkpt>
      <trkpt lat="42.9039" lon="0.20892">
        <ele>1740.7</ele>
        <time>2011-05-15T08:28:57Z</time>
      </trkpt>
      <trkpt lat="42.90385" lon="0.20883">
        <ele>1740.8</ele>
        <time>2011-05-15T08:29:01Z</time>
      </trkpt>
      <trkpt lat="42.90378" lon="0.20887">
        <ele>1743.7</ele>
        <time>2011-05-15T08:29:04Z</time>
      </trkpt>
      <trkpt lat="42.90372" lon="0.20891">
        <ele>1745.8</ele>
        <time>2011-05-15T08:29:06Z</time>
      </trkpt>
      <trkpt lat="42.9037" lon="0.20885">
        <ele>1746.8</ele>
        <time>2011-05-15T08:29:15Z</time>
      </trkpt>
      <trkpt lat="42.90363" lon="0.20877">
        <ele>1746.7</ele>
        <time>2011-05-15T08:29:19Z</time>
      </trkpt>
      <trkpt lat="42.90362" lon="0.2087">
        <ele>1747.2</ele>
        <time>2011-05-15T08:29:20Z</time>
      </trkpt>
      <trkpt lat="42.90361" lon="0.20862">
        <ele>1747.8</ele>
        <time>2011-05-15T08:29:21Z</time>
      </trkpt>
      <trkpt lat="42.90357" lon="0.20858">
        <ele>1747.7</ele>
        <time>2011-05-15T08:29:23Z</time>
      </trkpt>
      <trkpt lat="42.90349" lon="0.20853">
        <ele>1750.2</ele>
        <time>2011-05-15T08:29:26Z</time>
      </trkpt>
      <trkpt lat="42.90339" lon="0.20852">
        <ele>1755.7</ele>
        <time>2011-05-15T08:29:27Z</time>
      </trkpt>
      <trkpt lat="42.90351" lon="0.20864">
        <ele>1758.1</ele>
        <time>2011-05-15T08:29:29Z</time>
      </trkpt>
      <trkpt lat="42.90347" lon="0.2086">
        <ele>1758.6</ele>
        <time>2011-05-15T08:29:34Z</time>
      </trkpt>
      <trkpt lat="42.90349" lon="0.20855">
        <ele>1759.9</ele>
        <time>2011-05-15T08:29:39Z</time>
      </trkpt>
      <trkpt lat="42.90354" lon="0.2086">
        <ele>1759</ele>
        <time>2011-05-15T08:29:42Z</time>
      </trkpt>
      <trkpt lat="42.90353" lon="0.20851">
        <ele>1758.8</ele>
        <time>2011-05-15T08:29:57Z</time>
      </trkpt>
      <trkpt lat="42.90334" lon="0.20841">
        <ele>1759</ele>
        <time>2011-05-15T08:31:36Z</time>
      </trkpt>
      <trkpt lat="42.90329" lon="0.2084">
        <ele>1758.9</ele>
        <time>2011-05-15T08:31:37Z</time>
      </trkpt>
      <trkpt lat="42.90325" lon="0.20837">
        <ele>1759</ele>
        <time>2011-05-15T08:31:38Z</time>
      </trkpt>
      <trkpt lat="42.90328" lon="0.20842">
        <ele>1759.1</ele>
        <time>2011-05-15T08:31:41Z</time>
      </trkpt>
      <trkpt lat="42.90336" lon="0.20846">
        <ele>1759.2</ele>
        <time>2011-05-15T08:31:51Z</time>
      </trkpt>
      <trkpt lat="42.90327" lon="0.20857">
        <ele>1761.1</ele>
        <time>2011-05-15T08:31:55Z</time>
      </trkpt>
      <trkpt lat="42.90323" lon="0.2086">
        <ele>1761.1</ele>
        <time>2011-05-15T08:31:58Z</time>
      </trkpt>
      <trkpt lat="42.90324" lon="0.20869">
        <ele>1761.1</ele>
        <time>2011-05-15T08:32:01Z</time>
      </trkpt>
      <trkpt lat="42.90329" lon="0.20858">
        <ele>1761.5</ele>
        <time>2011-05-15T08:32:12Z</time>
      </trkpt>
      <trkpt lat="42.90332" lon="0.20864">
        <ele>1761.3</ele>
        <time>2011-05-15T08:32:18Z</time>
      </trkpt>
      <trkpt lat="42.90339" lon="0.20862">
        <ele>1761.4</ele>
        <time>2011-05-15T08:32:23Z</time>
      </trkpt>
      <trkpt lat="42.90336" lon="0.20857">
        <ele>1762.1</ele>
        <time>2011-05-15T08:32:24Z</time>
      </trkpt>
      <trkpt lat="42.90327" lon="0.20849">
        <ele>1762</ele>
        <time>2011-05-15T08:32:27Z</time>
      </trkpt>
      <trkpt lat="42.90323" lon="0.2085">
        <ele>1761.8</ele>
        <time>2011-05-15T08:32:32Z</time>
      </trkpt>
      <trkpt lat="42.90314" lon="0.20835">
        <ele>1764.3</ele>
        <time>2011-05-15T08:32:34Z</time>
      </trkpt>
      <trkpt lat="42.90311" lon="0.2083">
        <ele>1764.6</ele>
        <time>2011-05-15T08:32:36Z</time>
      </trkpt>
      <trkpt lat="42.90315" lon="0.20824">
        <ele>1765.1</ele>
        <time>2011-05-15T08:32:44Z</time>
      </trkpt>
      <trkpt lat="42.90308" lon="0.20819">
        <ele>1765.7</ele>
        <time>2011-05-15T08:32:45Z</time>
      </trkpt>
      <trkpt lat="42.90313" lon="0.20827">
        <ele>1765.9</ele>
        <time>2011-05-15T08:32:54Z</time>
      </trkpt>
      <trkpt lat="42.90306" lon="0.20827">
        <ele>1765.9</ele>
        <time>2011-05-15T08:32:55Z</time>
      </trkpt>
      <trkpt lat="42.90301" lon="0.20826">
        <ele>1765.8</ele>
        <time>2011-05-15T08:33:03Z</time>
      </trkpt>
      <trkpt lat="42.90297" lon="0.2083">
        <ele>1765.5</ele>
        <time>2011-05-15T08:33:15Z</time>
      </trkpt>
      <trkpt lat="42.90299" lon="0.20822">
        <ele>1765.6</ele>
        <time>2011-05-15T08:33:19Z</time>
      </trkpt>
      <trkpt lat="42.90292" lon="0.20833">
        <ele>1766</ele>
        <time>2011-05-15T08:33:22Z</time>
      </trkpt>
      <trkpt lat="42.90268" lon="0.20823">
        <ele>1769.1</ele>
        <time>2011-05-15T08:33:23Z</time>
      </trkpt>
      <trkpt lat="42.90273" lon="0.20831">
        <ele>1769.9</ele>
        <time>2011-05-15T08:33:24Z</time>
      </trkpt>
      <trkpt lat="42.90265" lon="0.20819">
        <ele>1771.5</ele>
        <time>2011-05-15T08:33:26Z</time>
      </trkpt>
      <trkpt lat="42.90252" lon="0.20811">
        <ele>1773.3</ele>
        <time>2011-05-15T08:33:28Z</time>
      </trkpt>
      <trkpt lat="42.90246" lon="0.20806">
        <ele>1771.9</ele>
        <time>2011-05-15T08:33:29Z</time>
      </trkpt>
      <trkpt lat="42.90249" lon="0.20814">
        <ele>1771.2</ele>
        <time>2011-05-15T08:33:30Z</time>
      </trkpt>
      <trkpt lat="42.90258" lon="0.20828">
        <ele>1772.8</ele>
        <time>2011-05-15T08:33:32Z</time>
      </trkpt>
      <trkpt lat="42.90268" lon="0.20837">
        <ele>1776.2</ele>
        <time>2011-05-15T08:33:34Z</time>
      </trkpt>
      <trkpt lat="42.90273" lon="0.20843">
        <ele>1775.5</ele>
        <time>2011-05-15T08:33:37Z</time>
      </trkpt>
      <trkpt lat="42.90278" lon="0.20846">
        <ele>1776</ele>
        <time>2011-05-15T08:33:41Z</time>
      </trkpt>
      <trkpt lat="42.90277" lon="0.20838">
        <ele>1777.1</ele>
        <time>2011-05-15T08:33:46Z</time>
      </trkpt>
      <trkpt lat="42.90274" lon="0.20831">
        <ele>1776.3</ele>
        <time>2011-05-15T08:33:57Z</time>
      </trkpt>
      <trkpt lat="42.90273" lon="0.20823">
        <ele>1776.5</ele>
        <time>2011-05-15T08:34:00Z</time>
      </trkpt>
      <trkpt lat="42.9027" lon="0.20811">
        <ele>1777.8</ele>
        <time>2011-05-15T08:34:01Z</time>
      </trkpt>
      <trkpt lat="42.90268" lon="0.20804">
        <ele>1778.1</ele>
        <time>2011-05-15T08:34:02Z</time>
      </trkpt>
      <trkpt lat="42.90282" lon="0.20823">
        <ele>1780.2</ele>
        <time>2011-05-15T08:34:03Z</time>
      </trkpt>
      <trkpt lat="42.90276" lon="0.20833">
        <ele>1779.7</ele>
        <time>2011-05-15T08:34:15Z</time>
      </trkpt>
      <trkpt lat="42.90281" lon="0.20828">
        <ele>1780.1</ele>
        <time>2011-05-15T08:34:16Z</time>
      </trkpt>
      <trkpt lat="42.90274" lon="0.2083">
        <ele>1782.8</ele>
        <time>2011-05-15T08:34:22Z</time>
      </trkpt>
      <trkpt lat="42.90267" lon="0.20837">
        <ele>1785.4</ele>
        <time>2011-05-15T08:34:23Z</time>
      </trkpt>
      <trkpt lat="42.9027" lon="0.20842">
        <ele>1785.6</ele>
        <time>2011-05-15T08:34:25Z</time>
      </trkpt>
      <trkpt lat="42.90266" lon="0.20838">
        <ele>1785.5</ele>
        <time>2011-05-15T08:34:26Z</time>
      </trkpt>
      <trkpt lat="42.90272" lon="0.2084">
        <ele>1786.2</ele>
        <time>2011-05-15T08:34:28Z</time>
      </trkpt>
      <trkpt lat="42.90277" lon="0.20843">
        <ele>1786.5</ele>
        <time>2011-05-15T08:34:31Z</time>
      </trkpt>
      <trkpt lat="42.90282" lon="0.20846">
        <ele>1786.9</ele>
        <time>2011-05-15T08:34:32Z</time>
      </trkpt>
      <trkpt lat="42.90277" lon="0.20851">
        <ele>1787.6</ele>
        <time>2011-05-15T08:34:36Z</time>
      </trkpt>
      <trkpt lat="42.90271" lon="0.20848">
        <ele>1788</ele>
        <time>2011-05-15T08:34:39Z</time>
      </trkpt>
      <trkpt lat="42.90266" lon="0.20845">
        <ele>1787.4</ele>
        <time>2011-05-15T08:34:41Z</time>
      </trkpt>
      <trkpt lat="42.90265" lon="0.20824">
        <ele>1788.9</ele>
        <time>2011-05-15T08:34:46Z</time>
      </trkpt>
      <trkpt lat="42.90261" lon="0.20811">
        <ele>1788.9</ele>
        <time>2011-05-15T08:34:47Z</time>
      </trkpt>
      <trkpt lat="42.90264" lon="0.20791">
        <ele>1790.7</ele>
        <time>2011-05-15T08:34:48Z</time>
      </trkpt>
      <trkpt lat="42.90274" lon="0.2081">
        <ele>1790.8</ele>
        <time>2011-05-15T08:34:52Z</time>
      </trkpt>
      <trkpt lat="42.90284" lon="0.20822">
        <ele>1791</ele>
        <time>2011-05-15T08:34:54Z</time>
      </trkpt>
      <trkpt lat="42.90291" lon="0.20817">
        <ele>1792.2</ele>
        <time>2011-05-15T08:34:59Z</time>
      </trkpt>
      <trkpt lat="42.9029" lon="0.20811">
        <ele>1792.3</ele>
        <time>2011-05-15T08:35:01Z</time>
      </trkpt>
      <trkpt lat="42.90295" lon="0.2081">
        <ele>1792.1</ele>
        <time>2011-05-15T08:35:03Z</time>
      </trkpt>
      <trkpt lat="42.90295" lon="0.20832">
        <ele>1792.1</ele>
        <time>2011-05-15T08:35:04Z</time>
      </trkpt>
      <trkpt lat="42.90294" lon="0.20844">
        <ele>1792.3</ele>
        <time>2011-05-15T08:35:07Z</time>
      </trkpt>
      <trkpt lat="42.90286" lon="0.20853">
        <ele>1794.6</ele>
        <time>2011-05-15T08:35:08Z</time>
      </trkpt>
      <trkpt lat="42.90288" lon="0.2086">
        <ele>1794.2</ele>
        <time>2011-05-15T08:35:09Z</time>
      </trkpt>
      <trkpt lat="42.90283" lon="0.20863">
        <ele>1795.4</ele>
        <time>2011-05-15T08:35:12Z</time>
      </trkpt>
      <trkpt lat="42.90285" lon="0.20871">
        <ele>1796.1</ele>
        <time>2011-05-15T08:35:14Z</time>
      </trkpt>
      <trkpt lat="42.90276" lon="0.20882">
        <ele>1797.7</ele>
        <time>2011-05-15T08:35:16Z</time>
      </trkpt>
      <trkpt lat="42.90273" lon="0.20873">
        <ele>1797.5</ele>
        <time>2011-05-15T08:35:22Z</time>
      </trkpt>
      <trkpt lat="42.90275" lon="0.20881">
        <ele>1797.8</ele>
        <time>2011-05-15T08:35:29Z</time>
      </trkpt>
      <trkpt lat="42.90279" lon="0.20875">
        <ele>1797.7</ele>
        <time>2011-05-15T08:35:40Z</time>
      </trkpt>
      <trkpt lat="42.90287" lon="0.20861">
        <ele>1798.1</ele>
        <time>2011-05-15T08:35:43Z</time>
      </trkpt>
      <trkpt lat="42.90277" lon="0.20863">
        <ele>1797.9</ele>
        <time>2011-05-15T08:35:44Z</time>
      </trkpt>
      <trkpt lat="42.9028" lon="0.20855">
        <ele>1798.9</ele>
        <time>2011-05-15T08:35:45Z</time>
      </trkpt>
      <trkpt lat="42.9028" lon="0.20846">
        <ele>1799.4</ele>
        <time>2011-05-15T08:35:47Z</time>
      </trkpt>
      <trkpt lat="42.90278" lon="0.20818">
        <ele>1800</ele>
        <time>2011-05-15T08:36:44Z</time>
      </trkpt>
      <trkpt lat="42.90255" lon="0.20794">
        <ele>1800</ele>
        <time>2011-05-15T08:36:45Z</time>
      </trkpt>
      <trkpt lat="42.9024" lon="0.20802">
        <ele>1801.4</ele>
        <time>2011-05-15T08:36:46Z</time>
      </trkpt>
      <trkpt lat="42.90239" lon="0.2081">
        <ele>1801.6</ele>
        <time>2011-05-15T08:36:48Z</time>
      </trkpt>
      <trkpt lat="42.90236" lon="0.20822">
        <ele>1801.7</ele>
        <time>2011-05-15T08:36:50Z</time>
      </trkpt>
      <trkpt lat="42.90239" lon="0.20829">
        <ele>1801.7</ele>
        <time>2011-05-15T08:36:52Z</time>
      </trkpt>
      <trkpt lat="42.90245" lon="0.20828">
        <ele>1801.9</ele>
        <time>2011-05-15T08:36:53Z</time>
      </trkpt>
      <trkpt lat="42.90235" lon="0.2083">
        <ele>1801.8</ele>
        <time>2011-05-15T08:36:55Z</time>
      </trkpt>
      <trkpt lat="42.90236" lon="0.20836">
        <ele>1802</ele>
        <time>2011-05-15T08:37:02Z</time>
      </trkpt>
      <trkpt lat="42.9024" lon="0.20827">
        <ele>1802.1</ele>
        <time>2011-05-15T08:37:36Z</time>
      </trkpt>
      <trkpt lat="42.90236" lon="0.20822">
        <ele>1802.1</ele>
        <time>2011-05-15T08:37:38Z</time>
      </trkpt>
      <trkpt lat="42.90233" lon="0.20827">
        <ele>1802.2</ele>
        <time>2011-05-15T08:37:46Z</time>
      </trkpt>
      <trkpt lat="42.90237" lon="0.20818">
        <ele>1802.3</ele>
        <time>2011-05-15T08:37:49Z</time>
      </trkpt>
      <trkpt lat="42.90235" lon="0.20826">
        <ele>1803.7</ele>
        <time>2011-05-15T08:37:51Z</time>
      </trkpt>
      <trkpt lat="42.90229" lon="0.2082">
        <ele>1803.6</ele>
        <time>2011-05-15T08:37:56Z</time>
      </trkpt>
      <trkpt lat="42.90224" lon="0.20813">
        <ele>1803.5</ele>
        <time>2011-05-15T08:37:57Z</time>
      </trkpt>
      <trkpt lat="42.90222" lon="0.20807">
        <ele>1803.5</ele>
        <time>2011-05-15T08:38:00Z</time>
      </trkpt>
      <trkpt lat="42.90217" lon="0.20803">
        <ele>1803.4</ele>
        <time>2011-05-15T08:38:01Z</time>
      </trkpt>
      <trkpt lat="42.90216" lon="0.20809">
        <ele>1803.2</ele>
        <time>2011-05-15T08:38:08Z</time>
      </trkpt>
      <trkpt lat="42.90213" lon="0.2082">
        <ele>1803.2</ele>
        <time>2011-05-15T08:38:12Z</time>
      </trkpt>
      <trkpt lat="42.90212" lon="0.20827">
        <ele>1803.2</ele>
        <time>2011-05-15T08:38:13Z</time>
      </trkpt>
      <trkpt lat="42.9021" lon="0.20834">
        <ele>1803.8</ele>
        <time>2011-05-15T08:38:14Z</time>
      </trkpt>
      <trkpt lat="42.90217" lon="0.20832">
        <ele>1804.6</ele>
        <time>2011-05-15T08:38:16Z</time>
      </trkpt>
      <trkpt lat="42.90224" lon="0.20831">
        <ele>1806.5</ele>
        <time>2011-05-15T08:38:22Z</time>
      </trkpt>
      <trkpt lat="42.9023" lon="0.20813">
        <ele>1809.3</ele>
        <time>2011-05-15T08:38:25Z</time>
      </trkpt>
      <trkpt lat="42.90234" lon="0.20819">
        <ele>1808.5</ele>
        <time>2011-05-15T08:38:28Z</time>
      </trkpt>
      <trkpt lat="42.90234" lon="0.20828">
        <ele>1807.1</ele>
        <time>2011-05-15T08:38:29Z</time>
      </trkpt>
      <trkpt lat="42.90241" lon="0.20825">
        <ele>1808.1</ele>
        <time>2011-05-15T08:38:32Z</time>
      </trkpt>
      <trkpt lat="42.90244" lon="0.2083">
        <ele>1807.9</ele>
        <time>2011-05-15T08:38:34Z</time>
      </trkpt>
      <trkpt lat="42.90244" lon="0.20838">
        <ele>1807.4</ele>
        <time>2011-05-15T08:38:36Z</time>
      </trkpt>
      <trkpt lat="42.90245" lon="0.20844">
        <ele>1807.6</ele>
        <time>2011-05-15T08:38:39Z</time>
      </trkpt>
      <trkpt lat="42.90248" lon="0.20837">
        <ele>1807.5</ele>
        <time>2011-05-15T08:38:40Z</time>
      </trkpt>
      <trkpt lat="42.9025" lon="0.20829">
        <ele>1807.9</ele>
        <time>2011-05-15T08:38:41Z</time>
      </trkpt>
      <trkpt lat="42.90244" lon="0.20819">
        <ele>1809.1</ele>
        <time>2011-05-15T08:38:42Z</time>
      </trkpt>
      <trkpt lat="42.90224" lon="0.20813">
        <ele>1810</ele>
        <time>2011-05-15T08:38:43Z</time>
      </trkpt>
      <trkpt lat="42.90221" lon="0.20806">
        <ele>1810.4</ele>
        <time>2011-05-15T08:38:45Z</time>
      </trkpt>
      <trkpt lat="42.90216" lon="0.20807">
        <ele>1810.7</ele>
        <time>2011-05-15T08:38:47Z</time>
      </trkpt>
      <trkpt lat="42.90206" lon="0.20801">
        <ele>1812</ele>
        <time>2011-05-15T08:38:48Z</time>
      </trkpt>
      <trkpt lat="42.90201" lon="0.20795">
        <ele>1813.4</ele>
        <time>2011-05-15T08:38:49Z</time>
      </trkpt>
      <trkpt lat="42.90189" lon="0.20788">
        <ele>1816.5</ele>
        <time>2011-05-15T08:38:51Z</time>
      </trkpt>
      <trkpt lat="42.90193" lon="0.20795">
        <ele>1818</ele>
        <time>2011-05-15T08:38:52Z</time>
      </trkpt>
      <trkpt lat="42.90195" lon="0.20801">
        <ele>1819</ele>
        <time>2011-05-15T08:38:54Z</time>
      </trkpt>
      <trkpt lat="42.90192" lon="0.20794">
        <ele>1820.2</ele>
        <time>2011-05-15T08:38:57Z</time>
      </trkpt>
      <trkpt lat="42.90196" lon="0.20798">
        <ele>1819.8</ele>
        <time>2011-05-15T08:38:59Z</time>
      </trkpt>
      <trkpt lat="42.90193" lon="0.2079">
        <ele>1820.1</ele>
        <time>2011-05-15T08:39:04Z</time>
      </trkpt>
      <trkpt lat="42.90192" lon="0.20779">
        <ele>1820.5</ele>
        <time>2011-05-15T08:39:06Z</time>
      </trkpt>
      <trkpt lat="42.9019" lon="0.20769">
        <ele>1820.8</ele>
        <time>2011-05-15T08:39:07Z</time>
      </trkpt>
      <trkpt lat="42.90199" lon="0.20772">
        <ele>1821.1</ele>
        <time>2011-05-15T08:39:10Z</time>
      </trkpt>
      <trkpt lat="42.90208" lon="0.20784">
        <ele>1820.9</ele>
        <time>2011-05-15T08:39:14Z</time>
      </trkpt>
      <trkpt lat="42.90207" lon="0.20774">
        <ele>1820.8</ele>
        <time>2011-05-15T08:39:15Z</time>
      </trkpt>
      <trkpt lat="42.90212" lon="0.20784">
        <ele>1820.6</ele>
        <time>2011-05-15T08:39:17Z</time>
      </trkpt>
      <trkpt lat="42.90218" lon="0.208">
        <ele>1820.3</ele>
        <time>2011-05-15T08:39:19Z</time>
      </trkpt>
      <trkpt lat="42.90221" lon="0.20806">
        <ele>1820.1</ele>
        <time>2011-05-15T08:39:20Z</time>
      </trkpt>
      <trkpt lat="42.90223" lon="0.20817">
        <ele>1820</ele>
        <time>2011-05-15T08:39:21Z</time>
      </trkpt>
      <trkpt lat="42.90228" lon="0.20825">
        <ele>1819.9</ele>
        <time>2011-05-15T08:39:22Z</time>
      </trkpt>
      <trkpt lat="42.90223" lon="0.2083">
        <ele>1820.5</ele>
        <time>2011-05-15T08:39:25Z</time>
      </trkpt>
      <trkpt lat="42.90215" lon="0.20817">
        <ele>1820.5</ele>
        <time>2011-05-15T08:39:26Z</time>
      </trkpt>
      <trkpt lat="42.90211" lon="0.20814">
        <ele>1820.2</ele>
        <time>2011-05-15T08:39:29Z</time>
      </trkpt>
      <trkpt lat="42.90204" lon="0.20802">
        <ele>1818.8</ele>
        <time>2011-05-15T08:39:30Z</time>
      </trkpt>
      <trkpt lat="42.90197" lon="0.20792">
        <ele>1818.9</ele>
        <time>2011-05-15T08:39:31Z</time>
      </trkpt>
      <trkpt lat="42.90188" lon="0.20779">
        <ele>1819.2</ele>
        <time>2011-05-15T08:39:33Z</time>
      </trkpt>
      <trkpt lat="42.90184" lon="0.20776">
        <ele>1819.1</ele>
        <time>2011-05-15T08:39:37Z</time>
      </trkpt>
      <trkpt lat="42.90181" lon="0.2077">
        <ele>1819.2</ele>
        <time>2011-05-15T08:39:39Z</time>
      </trkpt>
      <trkpt lat="42.9017" lon="0.20768">
        <ele>1819.7</ele>
        <time>2011-05-15T08:39:47Z</time>
      </trkpt>
      <trkpt lat="42.90155" lon="0.20746">
        <ele>1819.6</ele>
        <time>2011-05-15T08:39:48Z</time>
      </trkpt>
      <trkpt lat="42.90148" lon="0.20735">
        <ele>1819.7</ele>
        <time>2011-05-15T08:39:50Z</time>
      </trkpt>
      <trkpt lat="42.90148" lon="0.20744">
        <ele>1819.5</ele>
        <time>2011-05-15T08:39:54Z</time>
      </trkpt>
      <trkpt lat="42.90147" lon="0.20733">
        <ele>1819.3</ele>
        <time>2011-05-15T08:39:56Z</time>
      </trkpt>
      <trkpt lat="42.90138" lon="0.20722">
        <ele>1819.6</ele>
        <time>2011-05-15T08:39:57Z</time>
      </trkpt>
      <trkpt lat="42.9013" lon="0.20706">
        <ele>1819.7</ele>
        <time>2011-05-15T08:39:59Z</time>
      </trkpt>
      <trkpt lat="42.9013" lon="0.20713">
        <ele>1819.5</ele>
        <time>2011-05-15T08:40:00Z</time>
      </trkpt>
      <trkpt lat="42.90126" lon="0.20704">
        <ele>1819.7</ele>
        <time>2011-05-15T08:40:01Z</time>
      </trkpt>
      <trkpt lat="42.90121" lon="0.20696">
        <ele>1819.8</ele>
        <time>2011-05-15T08:40:03Z</time>
      </trkpt>
      <trkpt lat="42.90115" lon="0.20691">
        <ele>1819.7</ele>
        <time>2011-05-15T08:40:06Z</time>
      </trkpt>
      <trkpt lat="42.90126" lon="0.20724">
        <ele>1820.4</ele>
        <time>2011-05-15T08:40:14Z</time>
      </trkpt>
      <trkpt lat="42.90134" lon="0.20732">
        <ele>1820.1</ele>
        <time>2011-05-15T08:40:15Z</time>
      </trkpt>
      <trkpt lat="42.90126" lon="0.20724">
        <ele>1820.4</ele>
        <time>2011-05-15T08:40:16Z</time>
      </trkpt>
      <trkpt lat="42.90127" lon="0.20732">
        <ele>1820.3</ele>
        <time>2011-05-15T08:40:19Z</time>
      </trkpt>
      <trkpt lat="42.90122" lon="0.20725">
        <ele>1820.4</ele>
        <time>2011-05-15T08:40:20Z</time>
      </trkpt>
      <trkpt lat="42.90124" lon="0.20731">
        <ele>1820.5</ele>
        <time>2011-05-15T08:40:21Z</time>
      </trkpt>
      <trkpt lat="42.90131" lon="0.20737">
        <ele>1820.7</ele>
        <time>2011-05-15T08:40:24Z</time>
      </trkpt>
      <trkpt lat="42.90127" lon="0.2073">
        <ele>1820.6</ele>
        <time>2011-05-15T08:40:26Z</time>
      </trkpt>
      <trkpt lat="42.90128" lon="0.20742">
        <ele>1820.5</ele>
        <time>2011-05-15T08:40:30Z</time>
      </trkpt>
      <trkpt lat="42.90123" lon="0.20738">
        <ele>1820.5</ele>
        <time>2011-05-15T08:40:33Z</time>
      </trkpt>
      <trkpt lat="42.90117" lon="0.20729">
        <ele>1820.6</ele>
        <time>2011-05-15T08:40:36Z</time>
      </trkpt>
      <trkpt lat="42.90118" lon="0.20722">
        <ele>1820.5</ele>
        <time>2011-05-15T08:40:41Z</time>
      </trkpt>
      <trkpt lat="42.90115" lon="0.20715">
        <ele>1820.5</ele>
        <time>2011-05-15T08:40:46Z</time>
      </trkpt>
      <trkpt lat="42.90119" lon="0.20727">
        <ele>1820.5</ele>
        <time>2011-05-15T08:40:49Z</time>
      </trkpt>
      <trkpt lat="42.90115" lon="0.20721">
        <ele>1820.4</ele>
        <time>2011-05-15T08:40:53Z</time>
      </trkpt>
      <trkpt lat="42.90143" lon="0.20762">
        <ele>1823.6</ele>
        <time>2011-05-15T08:41:02Z</time>
      </trkpt>
      <trkpt lat="42.90158" lon="0.2077">
        <ele>1824.6</ele>
        <time>2011-05-15T08:41:14Z</time>
      </trkpt>
      <trkpt lat="42.9016" lon="0.20763">
        <ele>1824.7</ele>
        <time>2011-05-15T08:41:16Z</time>
      </trkpt>
      <trkpt lat="42.90151" lon="0.20734">
        <ele>1826</ele>
        <time>2011-05-15T08:41:30Z</time>
      </trkpt>
      <trkpt lat="42.90157" lon="0.20741">
        <ele>1827.8</ele>
        <time>2011-05-15T08:41:33Z</time>
      </trkpt>
      <trkpt lat="42.90146" lon="0.20754">
        <ele>1829.3</ele>
        <time>2011-05-15T08:41:35Z</time>
      </trkpt>
      <trkpt lat="42.90148" lon="0.2077">
        <ele>1829.7</ele>
        <time>2011-05-15T08:41:38Z</time>
      </trkpt>
      <trkpt lat="42.90132" lon="0.20774">
        <ele>1830.2</ele>
        <time>2011-05-15T08:41:41Z</time>
      </trkpt>
      <trkpt lat="42.90135" lon="0.20756">
        <ele>1830.7</ele>
        <time>2011-05-15T08:41:43Z</time>
      </trkpt>
      <trkpt lat="42.90127" lon="0.2076">
        <ele>1830.7</ele>
        <time>2011-05-15T08:41:46Z</time>
      </trkpt>
      <trkpt lat="42.90122" lon="0.20762">
        <ele>1830.7</ele>
        <time>2011-05-15T08:41:47Z</time>
      </trkpt>
      <trkpt lat="42.9012" lon="0.20745">
        <ele>1830.9</ele>
        <time>2011-05-15T08:41:49Z</time>
      </trkpt>
      <trkpt lat="42.90116" lon="0.20725">
        <ele>1831.3</ele>
        <time>2011-05-15T08:41:51Z</time>
      </trkpt>
      <trkpt lat="42.9011" lon="0.20728">
        <ele>1831.3</ele>
        <time>2011-05-15T08:41:52Z</time>
      </trkpt>
      <trkpt lat="42.9011" lon="0.20715">
        <ele>1831.4</ele>
        <time>2011-05-15T08:41:53Z</time>
      </trkpt>
      <trkpt lat="42.90109" lon="0.20707">
        <ele>1831.4</ele>
        <time>2011-05-15T08:41:54Z</time>
      </trkpt>
      <trkpt lat="42.90101" lon="0.20701">
        <ele>1831.5</ele>
        <time>2011-05-15T08:41:56Z</time>
      </trkpt>
      <trkpt lat="42.90092" lon="0.20707">
        <ele>1831.5</ele>
        <time>2011-05-15T08:41:57Z</time>
      </trkpt>
      <trkpt lat="42.90085" lon="0.20711">
        <ele>1831.5</ele>
        <time>2011-05-15T08:41:58Z</time>
      </trkpt>
      <trkpt lat="42.90085" lon="0.20695">
        <ele>1831.6</ele>
        <time>2011-05-15T08:41:59Z</time>
      </trkpt>
      <trkpt lat="42.90078" lon="0.20692">
        <ele>1831.5</ele>
        <time>2011-05-15T08:42:01Z</time>
      </trkpt>
      <trkpt lat="42.90075" lon="0.20687">
        <ele>1831.5</ele>
        <time>2011-05-15T08:42:02Z</time>
      </trkpt>
      <trkpt lat="42.9007" lon="0.20686">
        <ele>1831.5</ele>
        <time>2011-05-15T08:42:03Z</time>
      </trkpt>
      <trkpt lat="42.90062" lon="0.20682">
        <ele>1831.4</ele>
        <time>2011-05-15T08:42:05Z</time>
      </trkpt>
      <trkpt lat="42.90054" lon="0.20678">
        <ele>1831.4</ele>
        <time>2011-05-15T08:42:07Z</time>
      </trkpt>
      <trkpt lat="42.90049" lon="0.20673">
        <ele>1831.5</ele>
        <time>2011-05-15T08:42:08Z</time>
      </trkpt>
      <trkpt lat="42.90045" lon="0.20666">
        <ele>1831.5</ele>
        <time>2011-05-15T08:42:09Z</time>
      </trkpt>
      <trkpt lat="42.90062" lon="0.20666">
        <ele>1830.7</ele>
        <time>2011-05-15T08:42:10Z</time>
      </trkpt>
      <trkpt lat="42.90078" lon="0.20671">
        <ele>1829.1</ele>
        <time>2011-05-15T08:42:12Z</time>
      </trkpt>
      <trkpt lat="42.90085" lon="0.20679">
        <ele>1830.1</ele>
        <time>2011-05-15T08:42:14Z</time>
      </trkpt>
      <trkpt lat="42.90093" lon="0.20691">
        <ele>1829.8</ele>
        <time>2011-05-15T08:42:15Z</time>
      </trkpt>
      <trkpt lat="42.90089" lon="0.20686">
        <ele>1829.7</ele>
        <time>2011-05-15T08:42:16Z</time>
      </trkpt>
      <trkpt lat="42.90098" lon="0.20696">
        <ele>1830.5</ele>
        <time>2011-05-15T08:42:24Z</time>
      </trkpt>
      <trkpt lat="42.90105" lon="0.20697">
        <ele>1830.3</ele>
        <time>2011-05-15T08:42:25Z</time>
      </trkpt>
      <trkpt lat="42.90117" lon="0.20721">
        <ele>1832.1</ele>
        <time>2011-05-15T08:42:26Z</time>
      </trkpt>
      <trkpt lat="42.90133" lon="0.20757">
        <ele>1832.6</ele>
        <time>2011-05-15T08:42:27Z</time>
      </trkpt>
      <trkpt lat="42.90138" lon="0.20765">
        <ele>1834.7</ele>
        <time>2011-05-15T08:42:29Z</time>
      </trkpt>
      <trkpt lat="42.90143" lon="0.20763">
        <ele>1834.5</ele>
        <time>2011-05-15T08:42:32Z</time>
      </trkpt>
      <trkpt lat="42.90139" lon="0.20761">
        <ele>1834.7</ele>
        <time>2011-05-15T08:42:35Z</time>
      </trkpt>
      <trkpt lat="42.90143" lon="0.20759">
        <ele>1835.3</ele>
        <time>2011-05-15T08:42:36Z</time>
      </trkpt>
      <trkpt lat="42.90149" lon="0.20752">
        <ele>1835.9</ele>
        <time>2011-05-15T08:42:40Z</time>
      </trkpt>
      <trkpt lat="42.90153" lon="0.20749">
        <ele>1836.3</ele>
        <time>2011-05-15T08:42:42Z</time>
      </trkpt>
      <trkpt lat="42.90151" lon="0.20744">
        <ele>1835.5</ele>
        <time>2011-05-15T08:42:46Z</time>
      </trkpt>
      <trkpt lat="42.90152" lon="0.20737">
        <ele>1836.2</ele>
        <time>2011-05-15T08:42:48Z</time>
      </trkpt>
      <trkpt lat="42.90154" lon="0.20731">
        <ele>1836.7</ele>
        <time>2011-05-15T08:42:51Z</time>
      </trkpt>
      <trkpt lat="42.90159" lon="0.20734">
        <ele>1838.2</ele>
        <time>2011-05-15T08:42:54Z</time>
      </trkpt>
      <trkpt lat="42.90159" lon="0.20744">
        <ele>1838</ele>
        <time>2011-05-15T08:42:56Z</time>
      </trkpt>
      <trkpt lat="42.90158" lon="0.20754">
        <ele>1839.8</ele>
        <time>2011-05-15T08:42:59Z</time>
      </trkpt>
      <trkpt lat="42.9016" lon="0.20743">
        <ele>1840.5</ele>
        <time>2011-05-15T08:43:00Z</time>
      </trkpt>
      <trkpt lat="42.90165" lon="0.20739">
        <ele>1841.2</ele>
        <time>2011-05-15T08:43:05Z</time>
      </trkpt>
      <trkpt lat="42.90167" lon="0.20733">
        <ele>1841.5</ele>
        <time>2011-05-15T08:43:11Z</time>
      </trkpt>
      <trkpt lat="42.90162" lon="0.20734">
        <ele>1841.1</ele>
        <time>2011-05-15T08:43:13Z</time>
      </trkpt>
      <trkpt lat="42.90165" lon="0.20729">
        <ele>1842.4</ele>
        <time>2011-05-15T08:43:21Z</time>
      </trkpt>
      <trkpt lat="42.90158" lon="0.2074">
        <ele>1844.2</ele>
        <time>2011-05-15T08:43:27Z</time>
      </trkpt>
      <trkpt lat="42.90165" lon="0.20736">
        <ele>1846.8</ele>
        <time>2011-05-15T08:43:32Z</time>
      </trkpt>
      <trkpt lat="42.90173" lon="0.20736">
        <ele>1847.1</ele>
        <time>2011-05-15T08:43:35Z</time>
      </trkpt>
      <trkpt lat="42.9017" lon="0.20742">
        <ele>1847.6</ele>
        <time>2011-05-15T08:43:38Z</time>
      </trkpt>
      <trkpt lat="42.90177" lon="0.20741">
        <ele>1848.1</ele>
        <time>2011-05-15T08:43:40Z</time>
      </trkpt>
      <trkpt lat="42.90184" lon="0.20741">
        <ele>1848</ele>
        <time>2011-05-15T08:43:44Z</time>
      </trkpt>
      <trkpt lat="42.90184" lon="0.20749">
        <ele>1847.8</ele>
        <time>2011-05-15T08:43:46Z</time>
      </trkpt>
      <trkpt lat="42.90191" lon="0.20744">
        <ele>1848.9</ele>
        <time>2011-05-15T08:43:49Z</time>
      </trkpt>
      <trkpt lat="42.90194" lon="0.20748">
        <ele>1848.8</ele>
        <time>2011-05-15T08:43:52Z</time>
      </trkpt>
      <trkpt lat="42.90189" lon="0.20739">
        <ele>1849.1</ele>
        <time>2011-05-15T08:43:53Z</time>
      </trkpt>
      <trkpt lat="42.90188" lon="0.20733">
        <ele>1848.9</ele>
        <time>2011-05-15T08:43:55Z</time>
      </trkpt>
      <trkpt lat="42.90187" lon="0.20742">
        <ele>1848.6</ele>
        <time>2011-05-15T08:43:58Z</time>
      </trkpt>
      <trkpt lat="42.90188" lon="0.20734">
        <ele>1849.3</ele>
        <time>2011-05-15T08:44:03Z</time>
      </trkpt>
      <trkpt lat="42.90179" lon="0.20728">
        <ele>1850.4</ele>
        <time>2011-05-15T08:44:05Z</time>
      </trkpt>
      <trkpt lat="42.90174" lon="0.20733">
        <ele>1850.9</ele>
        <time>2011-05-15T08:44:07Z</time>
      </trkpt>
      <trkpt lat="42.90171" lon="0.20727">
        <ele>1850.7</ele>
        <time>2011-05-15T08:44:08Z</time>
      </trkpt>
      <trkpt lat="42.90167" lon="0.20718">
        <ele>1852.1</ele>
        <time>2011-05-15T08:44:10Z</time>
      </trkpt>
      <trkpt lat="42.90164" lon="0.20712">
        <ele>1852</ele>
        <time>2011-05-15T08:44:15Z</time>
      </trkpt>
      <trkpt lat="42.90162" lon="0.20706">
        <ele>1852.6</ele>
        <time>2011-05-15T08:44:19Z</time>
      </trkpt>
      <trkpt lat="42.90157" lon="0.20708">
        <ele>1852.8</ele>
        <time>2011-05-15T08:44:24Z</time>
      </trkpt>
      <trkpt lat="42.90154" lon="0.20704">
        <ele>1852.8</ele>
        <time>2011-05-15T08:44:26Z</time>
      </trkpt>
      <trkpt lat="42.90153" lon="0.20696">
        <ele>1852.9</ele>
        <time>2011-05-15T08:44:30Z</time>
      </trkpt>
      <trkpt lat="42.90149" lon="0.20699">
        <ele>1853</ele>
        <time>2011-05-15T08:44:32Z</time>
      </trkpt>
      <trkpt lat="42.90139" lon="0.20693">
        <ele>1853.3</ele>
        <time>2011-05-15T08:44:34Z</time>
      </trkpt>
      <trkpt lat="42.90133" lon="0.20689">
        <ele>1853.6</ele>
        <time>2011-05-15T08:44:35Z</time>
      </trkpt>
      <trkpt lat="42.90131" lon="0.20679">
        <ele>1854.2</ele>
        <time>2011-05-15T08:44:39Z</time>
      </trkpt>
      <trkpt lat="42.90128" lon="0.20669">
        <ele>1854.3</ele>
        <time>2011-05-15T08:44:42Z</time>
      </trkpt>
      <trkpt lat="42.90126" lon="0.20662">
        <ele>1854.3</ele>
        <time>2011-05-15T08:44:46Z</time>
      </trkpt>
      <trkpt lat="42.90123" lon="0.20655">
        <ele>1854.3</ele>
        <time>2011-05-15T08:44:47Z</time>
      </trkpt>
      <trkpt lat="42.9013" lon="0.20671">
        <ele>1854.3</ele>
        <time>2011-05-15T08:44:48Z</time>
      </trkpt>
      <trkpt lat="42.90134" lon="0.20674">
        <ele>1855.4</ele>
        <time>2011-05-15T08:44:52Z</time>
      </trkpt>
      <trkpt lat="42.90136" lon="0.20681">
        <ele>1855.7</ele>
        <time>2011-05-15T08:44:54Z</time>
      </trkpt>
      <trkpt lat="42.9014" lon="0.20688">
        <ele>1855.8</ele>
        <time>2011-05-15T08:44:55Z</time>
      </trkpt>
      <trkpt lat="42.90132" lon="0.20683">
        <ele>1856.7</ele>
        <time>2011-05-15T08:44:57Z</time>
      </trkpt>
      <trkpt lat="42.90127" lon="0.20671">
        <ele>1857</ele>
        <time>2011-05-15T08:44:58Z</time>
      </trkpt>
      <trkpt lat="42.90133" lon="0.20678">
        <ele>1858.6</ele>
        <time>2011-05-15T08:44:59Z</time>
      </trkpt>
      <trkpt lat="42.90145" lon="0.20691">
        <ele>1861.2</ele>
        <time>2011-05-15T08:45:01Z</time>
      </trkpt>
      <trkpt lat="42.90157" lon="0.20709">
        <ele>1864.2</ele>
        <time>2011-05-15T08:45:02Z</time>
      </trkpt>
      <trkpt lat="42.90148" lon="0.20692">
        <ele>1865</ele>
        <time>2011-05-15T08:45:08Z</time>
      </trkpt>
      <trkpt lat="42.90151" lon="0.20701">
        <ele>1865.2</ele>
        <time>2011-05-15T08:45:10Z</time>
      </trkpt>
      <trkpt lat="42.90155" lon="0.20703">
        <ele>1865.1</ele>
        <time>2011-05-15T08:45:12Z</time>
      </trkpt>
      <trkpt lat="42.90161" lon="0.20707">
        <ele>1866.3</ele>
        <time>2011-05-15T08:45:13Z</time>
      </trkpt>
      <trkpt lat="42.9016" lon="0.20696">
        <ele>1866.9</ele>
        <time>2011-05-15T08:45:15Z</time>
      </trkpt>
      <trkpt lat="42.90165" lon="0.20703">
        <ele>1867.9</ele>
        <time>2011-05-15T08:45:17Z</time>
      </trkpt>
      <trkpt lat="42.90168" lon="0.20711">
        <ele>1867.4</ele>
        <time>2011-05-15T08:45:18Z</time>
      </trkpt>
      <trkpt lat="42.90147" lon="0.20677">
        <ele>1869.6</ele>
        <time>2011-05-15T08:45:20Z</time>
      </trkpt>
      <trkpt lat="42.90154" lon="0.20678">
        <ele>1867.5</ele>
        <time>2011-05-15T08:45:25Z</time>
      </trkpt>
      <trkpt lat="42.90159" lon="0.20686">
        <ele>1867.5</ele>
        <time>2011-05-15T08:45:26Z</time>
      </trkpt>
      <trkpt lat="42.90159" lon="0.20693">
        <ele>1868.8</ele>
        <time>2011-05-15T08:45:31Z</time>
      </trkpt>
      <trkpt lat="42.90157" lon="0.20699">
        <ele>1869.7</ele>
        <time>2011-05-15T08:45:36Z</time>
      </trkpt>
      <trkpt lat="42.90152" lon="0.20693">
        <ele>1869.1</ele>
        <time>2011-05-15T08:45:40Z</time>
      </trkpt>
      <trkpt lat="42.90156" lon="0.20695">
        <ele>1870.4</ele>
        <time>2011-05-15T08:45:41Z</time>
      </trkpt>
      <trkpt lat="42.9016" lon="0.20704">
        <ele>1874.6</ele>
        <time>2011-05-15T08:45:48Z</time>
      </trkpt>
      <trkpt lat="42.90162" lon="0.20713">
        <ele>1876.5</ele>
        <time>2011-05-15T08:45:53Z</time>
      </trkpt>
      <trkpt lat="42.90168" lon="0.20719">
        <ele>1877.5</ele>
        <time>2011-05-15T08:45:55Z</time>
      </trkpt>
      <trkpt lat="42.90164" lon="0.2071">
        <ele>1876.8</ele>
        <time>2011-05-15T08:45:56Z</time>
      </trkpt>
      <trkpt lat="42.90166" lon="0.20722">
        <ele>1878.3</ele>
        <time>2011-05-15T08:45:58Z</time>
      </trkpt>
      <trkpt lat="42.90159" lon="0.2072">
        <ele>1887.9</ele>
        <time>2011-05-15T08:46:07Z</time>
      </trkpt>
      <trkpt lat="42.90161" lon="0.20731">
        <ele>1888.6</ele>
        <time>2011-05-15T08:46:09Z</time>
      </trkpt>
      <trkpt lat="42.90166" lon="0.20738">
        <ele>1889.1</ele>
        <time>2011-05-15T08:46:11Z</time>
      </trkpt>
      <trkpt lat="42.9017" lon="0.20747">
        <ele>1888.4</ele>
        <time>2011-05-15T08:46:14Z</time>
      </trkpt>
      <trkpt lat="42.90171" lon="0.20755">
        <ele>1888.7</ele>
        <time>2011-05-15T08:46:17Z</time>
      </trkpt>
      <trkpt lat="42.90168" lon="0.2074">
        <ele>1888.9</ele>
        <time>2011-05-15T08:46:19Z</time>
      </trkpt>
      <trkpt lat="42.90172" lon="0.20743">
        <ele>1890.2</ele>
        <time>2011-05-15T08:46:20Z</time>
      </trkpt>
      <trkpt lat="42.90175" lon="0.20751">
        <ele>1889.9</ele>
        <time>2011-05-15T08:46:22Z</time>
      </trkpt>
      <trkpt lat="42.90172" lon="0.20741">
        <ele>1888.7</ele>
        <time>2011-05-15T08:46:23Z</time>
      </trkpt>
      <trkpt lat="42.90176" lon="0.20744">
        <ele>1889.9</ele>
        <time>2011-05-15T08:46:24Z</time>
      </trkpt>
      <trkpt lat="42.9018" lon="0.20748">
        <ele>1891.8</ele>
        <time>2011-05-15T08:46:26Z</time>
      </trkpt>
      <trkpt lat="42.90176" lon="0.2074">
        <ele>1890.7</ele>
        <time>2011-05-15T08:46:29Z</time>
      </trkpt>
      <trkpt lat="42.90167" lon="0.20719">
        <ele>1890.4</ele>
        <time>2011-05-15T08:46:30Z</time>
      </trkpt>
      <trkpt lat="42.90166" lon="0.20711">
        <ele>1892</ele>
        <time>2011-05-15T08:46:32Z</time>
      </trkpt>
      <trkpt lat="42.90171" lon="0.20717">
        <ele>1890</ele>
        <time>2011-05-15T08:46:39Z</time>
      </trkpt>
      <trkpt lat="42.90162" lon="0.20711">
        <ele>1889.9</ele>
        <time>2011-05-15T08:46:43Z</time>
      </trkpt>
      <trkpt lat="42.90158" lon="0.20707">
        <ele>1890.1</ele>
        <time>2011-05-15T08:46:45Z</time>
      </trkpt>
      <trkpt lat="42.90162" lon="0.20717">
        <ele>1888.6</ele>
        <time>2011-05-15T08:46:48Z</time>
      </trkpt>
      <trkpt lat="42.90167" lon="0.20731">
        <ele>1888.6</ele>
        <time>2011-05-15T08:46:49Z</time>
      </trkpt>
      <trkpt lat="42.90163" lon="0.20722">
        <ele>1889.5</ele>
        <time>2011-05-15T08:46:55Z</time>
      </trkpt>
      <trkpt lat="42.90158" lon="0.20712">
        <ele>1889.8</ele>
        <time>2011-05-15T08:46:58Z</time>
      </trkpt>
      <trkpt lat="42.90153" lon="0.20706">
        <ele>1890</ele>
        <time>2011-05-15T08:46:59Z</time>
      </trkpt>
      <trkpt lat="42.90158" lon="0.20701">
        <ele>1890.8</ele>
        <time>2011-05-15T08:47:00Z</time>
      </trkpt>
      <trkpt lat="42.9016" lon="0.20693">
        <ele>1889.3</ele>
        <time>2011-05-15T08:47:09Z</time>
      </trkpt>
      <trkpt lat="42.9017" lon="0.20695">
        <ele>1889.2</ele>
        <time>2011-05-15T08:47:17Z</time>
      </trkpt>
      <trkpt lat="42.90164" lon="0.2069">
        <ele>1890.7</ele>
        <time>2011-05-15T08:47:18Z</time>
      </trkpt>
      <trkpt lat="42.90157" lon="0.20709">
        <ele>1891.6</ele>
        <time>2011-05-15T08:47:30Z</time>
      </trkpt>
      <trkpt lat="42.90154" lon="0.20716">
        <ele>1891.9</ele>
        <time>2011-05-15T08:47:33Z</time>
      </trkpt>
      <trkpt lat="42.90157" lon="0.20707">
        <ele>1891.9</ele>
        <time>2011-05-15T08:47:34Z</time>
      </trkpt>
      <trkpt lat="42.90157" lon="0.20714">
        <ele>1892.9</ele>
        <time>2011-05-15T08:47:38Z</time>
      </trkpt>
      <trkpt lat="42.90152" lon="0.20717">
        <ele>1892.6</ele>
        <time>2011-05-15T08:47:43Z</time>
      </trkpt>
      <trkpt lat="42.90148" lon="0.20712">
        <ele>1891.6</ele>
        <time>2011-05-15T08:47:51Z</time>
      </trkpt>
      <trkpt lat="42.90153" lon="0.20721">
        <ele>1892.7</ele>
        <time>2011-05-15T08:47:53Z</time>
      </trkpt>
      <trkpt lat="42.90148" lon="0.20725">
        <ele>1893.8</ele>
        <time>2011-05-15T08:47:56Z</time>
      </trkpt>
      <trkpt lat="42.90145" lon="0.2073">
        <ele>1894.4</ele>
        <time>2011-05-15T08:47:57Z</time>
      </trkpt>
      <trkpt lat="42.90151" lon="0.20722">
        <ele>1894.8</ele>
        <time>2011-05-15T08:47:59Z</time>
      </trkpt>
      <trkpt lat="42.90157" lon="0.20705">
        <ele>1894.5</ele>
        <time>2011-05-15T08:48:00Z</time>
      </trkpt>
      <trkpt lat="42.90163" lon="0.20707">
        <ele>1893.6</ele>
        <time>2011-05-15T08:48:02Z</time>
      </trkpt>
      <trkpt lat="42.90164" lon="0.20699">
        <ele>1893.7</ele>
        <time>2011-05-15T08:48:04Z</time>
      </trkpt>
      <trkpt lat="42.90167" lon="0.20691">
        <ele>1894</ele>
        <time>2011-05-15T08:48:06Z</time>
      </trkpt>
      <trkpt lat="42.9017" lon="0.20679">
        <ele>1893.9</ele>
        <time>2011-05-15T08:48:08Z</time>
      </trkpt>
      <trkpt lat="42.90171" lon="0.20689">
        <ele>1894</ele>
        <time>2011-05-15T08:48:13Z</time>
      </trkpt>
      <trkpt lat="42.90169" lon="0.207">
        <ele>1893.6</ele>
        <time>2011-05-15T08:48:14Z</time>
      </trkpt>
      <trkpt lat="42.90173" lon="0.20706">
        <ele>1892.5</ele>
        <time>2011-05-15T08:48:22Z</time>
      </trkpt>
      <trkpt lat="42.90177" lon="0.20709">
        <ele>1893</ele>
        <time>2011-05-15T08:48:27Z</time>
      </trkpt>
      <trkpt lat="42.90179" lon="0.20715">
        <ele>1893</ele>
        <time>2011-05-15T08:48:32Z</time>
      </trkpt>
      <trkpt lat="42.90184" lon="0.20713">
        <ele>1893.2</ele>
        <time>2011-05-15T08:48:38Z</time>
      </trkpt>
      <trkpt lat="42.90184" lon="0.20698">
        <ele>1893.5</ele>
        <time>2011-05-15T08:48:39Z</time>
      </trkpt>
      <trkpt lat="42.90184" lon="0.20691">
        <ele>1893.4</ele>
        <time>2011-05-15T08:48:41Z</time>
      </trkpt>
      <trkpt lat="42.90175" lon="0.2069">
        <ele>1893</ele>
        <time>2011-05-15T08:48:43Z</time>
      </trkpt>
      <trkpt lat="42.9017" lon="0.20688">
        <ele>1893.3</ele>
        <time>2011-05-15T08:48:47Z</time>
      </trkpt>
      <trkpt lat="42.90151" lon="0.20696">
        <ele>1896.8</ele>
        <time>2011-05-15T08:49:20Z</time>
      </trkpt>
      <trkpt lat="42.90151" lon="0.20684">
        <ele>1896.9</ele>
        <time>2011-05-15T08:49:23Z</time>
      </trkpt>
      <trkpt lat="42.90156" lon="0.20693">
        <ele>1896.2</ele>
        <time>2011-05-15T08:49:24Z</time>
      </trkpt>
      <trkpt lat="42.90153" lon="0.20699">
        <ele>1895.6</ele>
        <time>2011-05-15T08:49:26Z</time>
      </trkpt>
      <trkpt lat="42.90156" lon="0.2071">
        <ele>1896.4</ele>
        <time>2011-05-15T08:49:28Z</time>
      </trkpt>
      <trkpt lat="42.9016" lon="0.20721">
        <ele>1896.7</ele>
        <time>2011-05-15T08:49:33Z</time>
      </trkpt>
      <trkpt lat="42.90164" lon="0.20717">
        <ele>1897.4</ele>
        <time>2011-05-15T08:49:42Z</time>
      </trkpt>
      <trkpt lat="42.90169" lon="0.20716">
        <ele>1897.5</ele>
        <time>2011-05-15T08:49:44Z</time>
      </trkpt>
      <trkpt lat="42.90166" lon="0.2071">
        <ele>1897.5</ele>
        <time>2011-05-15T08:49:46Z</time>
      </trkpt>
      <trkpt lat="42.90162" lon="0.2071">
        <ele>1896.9</ele>
        <time>2011-05-15T08:49:49Z</time>
      </trkpt>
      <trkpt lat="42.90165" lon="0.20714">
        <ele>1896.5</ele>
        <time>2011-05-15T08:49:51Z</time>
      </trkpt>
      <trkpt lat="42.90164" lon="0.20722">
        <ele>1896.8</ele>
        <time>2011-05-15T08:49:53Z</time>
      </trkpt>
      <trkpt lat="42.90149" lon="0.20636">
        <ele>1895.9</ele>
        <time>2011-05-15T08:52:42Z</time>
      </trkpt>
      <trkpt lat="42.90149" lon="0.20624">
        <ele>1895.6</ele>
        <time>2011-05-15T08:52:44Z</time>
      </trkpt>
      <trkpt lat="42.90154" lon="0.20646">
        <ele>1895.9</ele>
        <time>2011-05-15T08:52:49Z</time>
      </trkpt>
      <trkpt lat="42.90157" lon="0.20694">
        <ele>1895.6</ele>
        <time>2011-05-15T08:52:50Z</time>
      </trkpt>
      <trkpt lat="42.9016" lon="0.20703">
        <ele>1894.8</ele>
        <time>2011-05-15T08:52:51Z</time>
      </trkpt>
      <trkpt lat="42.90151" lon="0.20695">
        <ele>1912.1</ele>
        <time>2011-05-15T08:53:27Z</time>
      </trkpt>
      <trkpt lat="42.90138" lon="0.20735">
        <ele>1910.1</ele>
        <time>2011-05-15T08:53:28Z</time>
      </trkpt>
      <trkpt lat="42.9014" lon="0.20718">
        <ele>1909.7</ele>
        <time>2011-05-15T08:53:29Z</time>
      </trkpt>
      <trkpt lat="42.90147" lon="0.207">
        <ele>1909.9</ele>
        <time>2011-05-15T08:53:30Z</time>
      </trkpt>
      <trkpt lat="42.90137" lon="0.20682">
        <ele>1908.7</ele>
        <time>2011-05-15T08:53:31Z</time>
      </trkpt>
      <trkpt lat="42.90127" lon="0.20679">
        <ele>1904</ele>
        <time>2011-05-15T08:53:32Z</time>
      </trkpt>
      <trkpt lat="42.90136" lon="0.20692">
        <ele>1905</ele>
        <time>2011-05-15T08:53:33Z</time>
      </trkpt>
      <trkpt lat="42.90131" lon="0.20697">
        <ele>1905</ele>
        <time>2011-05-15T08:53:34Z</time>
      </trkpt>
      <trkpt lat="42.90127" lon="0.20702">
        <ele>1904.4</ele>
        <time>2011-05-15T08:53:36Z</time>
      </trkpt>
      <trkpt lat="42.90119" lon="0.20693">
        <ele>1903.3</ele>
        <time>2011-05-15T08:53:38Z</time>
      </trkpt>
      <trkpt lat="42.90114" lon="0.20685">
        <ele>1902.8</ele>
        <time>2011-05-15T08:53:39Z</time>
      </trkpt>
      <trkpt lat="42.90123" lon="0.20687">
        <ele>1902.1</ele>
        <time>2011-05-15T08:53:40Z</time>
      </trkpt>
      <trkpt lat="42.90142" lon="0.20682">
        <ele>1902.7</ele>
        <time>2011-05-15T08:53:41Z</time>
      </trkpt>
      <trkpt lat="42.9016" lon="0.20694">
        <ele>1906.6</ele>
        <time>2011-05-15T08:53:43Z</time>
      </trkpt>
      <trkpt lat="42.90162" lon="0.20702">
        <ele>1906.6</ele>
        <time>2011-05-15T08:53:44Z</time>
      </trkpt>
      <trkpt lat="42.90159" lon="0.20708">
        <ele>1906.2</ele>
        <time>2011-05-15T08:53:45Z</time>
      </trkpt>
      <trkpt lat="42.90155" lon="0.20703">
        <ele>1904.1</ele>
        <time>2011-05-15T08:53:56Z</time>
      </trkpt>
      <trkpt lat="42.90152" lon="0.20696">
        <ele>1904.5</ele>
        <time>2011-05-15T08:54:00Z</time>
      </trkpt>
      <trkpt lat="42.90149" lon="0.20692">
        <ele>1905.6</ele>
        <time>2011-05-15T08:54:06Z</time>
      </trkpt>
      <trkpt lat="42.90147" lon="0.20686">
        <ele>1906.1</ele>
        <time>2011-05-15T08:54:13Z</time>
      </trkpt>
      <trkpt lat="42.90145" lon="0.2068">
        <ele>1905.3</ele>
        <time>2011-05-15T08:54:21Z</time>
      </trkpt>
      <trkpt lat="42.90142" lon="0.20674">
        <ele>1905.7</ele>
        <time>2011-05-15T08:54:27Z</time>
      </trkpt>
      <trkpt lat="42.90141" lon="0.20668">
        <ele>1906.8</ele>
        <time>2011-05-15T08:55:04Z</time>
      </trkpt>
      <trkpt lat="42.90136" lon="0.20657">
        <ele>1907.7</ele>
        <time>2011-05-15T08:55:07Z</time>
      </trkpt>
      <trkpt lat="42.90132" lon="0.2065">
        <ele>1908.1</ele>
        <time>2011-05-15T08:55:09Z</time>
      </trkpt>
      <trkpt lat="42.9013" lon="0.20642">
        <ele>1909.2</ele>
        <time>2011-05-15T08:55:12Z</time>
      </trkpt>
      <trkpt lat="42.90129" lon="0.20636">
        <ele>1910.5</ele>
        <time>2011-05-15T08:55:16Z</time>
      </trkpt>
      <trkpt lat="42.90125" lon="0.20632">
        <ele>1913.4</ele>
        <time>2011-05-15T08:55:56Z</time>
      </trkpt>
      <trkpt lat="42.90121" lon="0.20627">
        <ele>1915.2</ele>
        <time>2011-05-15T08:55:59Z</time>
      </trkpt>
      <trkpt lat="42.90118" lon="0.20621">
        <ele>1916.3</ele>
        <time>2011-05-15T08:56:04Z</time>
      </trkpt>
      <trkpt lat="42.90116" lon="0.20614">
        <ele>1917.1</ele>
        <time>2011-05-15T08:56:05Z</time>
      </trkpt>
      <trkpt lat="42.90115" lon="0.20608">
        <ele>1916.8</ele>
        <time>2011-05-15T08:56:12Z</time>
      </trkpt>
      <trkpt lat="42.90114" lon="0.20601">
        <ele>1918.3</ele>
        <time>2011-05-15T08:56:19Z</time>
      </trkpt>
      <trkpt lat="42.90109" lon="0.20599">
        <ele>1921.8</ele>
        <time>2011-05-15T08:56:23Z</time>
      </trkpt>
      <trkpt lat="42.90108" lon="0.20593">
        <ele>1924.3</ele>
        <time>2011-05-15T08:56:31Z</time>
      </trkpt>
      <trkpt lat="42.90106" lon="0.206">
        <ele>1925</ele>
        <time>2011-05-15T08:57:04Z</time>
      </trkpt>
      <trkpt lat="42.90104" lon="0.20592">
        <ele>1923.9</ele>
        <time>2011-05-15T08:57:40Z</time>
      </trkpt>
      <trkpt lat="42.90102" lon="0.20587">
        <ele>1922</ele>
        <time>2011-05-15T08:57:42Z</time>
      </trkpt>
      <trkpt lat="42.90099" lon="0.20581">
        <ele>1922.3</ele>
        <time>2011-05-15T08:57:46Z</time>
      </trkpt>
      <trkpt lat="42.901" lon="0.20574">
        <ele>1923</ele>
        <time>2011-05-15T08:57:57Z</time>
      </trkpt>
      <trkpt lat="42.90097" lon="0.20567">
        <ele>1923.4</ele>
        <time>2011-05-15T08:58:04Z</time>
      </trkpt>
      <trkpt lat="42.90096" lon="0.20561">
        <ele>1924.3</ele>
        <time>2011-05-15T08:58:09Z</time>
      </trkpt>
      <trkpt lat="42.90095" lon="0.20555">
        <ele>1926.2</ele>
        <time>2011-05-15T08:58:16Z</time>
      </trkpt>
      <trkpt lat="42.90093" lon="0.20548">
        <ele>1928.3</ele>
        <time>2011-05-15T08:58:26Z</time>
      </trkpt>
      <trkpt lat="42.90088" lon="0.20543">
        <ele>1929.8</ele>
        <time>2011-05-15T08:58:50Z</time>
      </trkpt>
      <trkpt lat="42.90085" lon="0.20539">
        <ele>1931.6</ele>
        <time>2011-05-15T08:59:13Z</time>
      </trkpt>
      <trkpt lat="42.90081" lon="0.20533">
        <ele>1933.6</ele>
        <time>2011-05-15T08:59:18Z</time>
      </trkpt>
      <trkpt lat="42.90079" lon="0.20528">
        <ele>1938.5</ele>
        <time>2011-05-15T08:59:27Z</time>
      </trkpt>
      <trkpt lat="42.90077" lon="0.20522">
        <ele>1939.6</ele>
        <time>2011-05-15T08:59:33Z</time>
      </trkpt>
      <trkpt lat="42.90074" lon="0.20517">
        <ele>1942.9</ele>
        <time>2011-05-15T08:59:40Z</time>
      </trkpt>
      <trkpt lat="42.90071" lon="0.2051">
        <ele>1947</ele>
        <time>2011-05-15T08:59:49Z</time>
      </trkpt>
      <trkpt lat="42.90067" lon="0.20506">
        <ele>1948.8</ele>
        <time>2011-05-15T08:59:58Z</time>
      </trkpt>
      <trkpt lat="42.90067" lon="0.20499">
        <ele>1948</ele>
        <time>2011-05-15T09:00:05Z</time>
      </trkpt>
      <trkpt lat="42.90065" lon="0.20492">
        <ele>1952.4</ele>
        <time>2011-05-15T09:00:29Z</time>
      </trkpt>
      <trkpt lat="42.90062" lon="0.20488">
        <ele>1954.1</ele>
        <time>2011-05-15T09:00:45Z</time>
      </trkpt>
      <trkpt lat="42.90058" lon="0.20484">
        <ele>1955.5</ele>
        <time>2011-05-15T09:00:50Z</time>
      </trkpt>
      <trkpt lat="42.90056" lon="0.20479">
        <ele>1956.7</ele>
        <time>2011-05-15T09:01:14Z</time>
      </trkpt>
      <trkpt lat="42.90052" lon="0.20474">
        <ele>1960.8</ele>
        <time>2011-05-15T09:01:23Z</time>
      </trkpt>
      <trkpt lat="42.90049" lon="0.20469">
        <ele>1962.8</ele>
        <time>2011-05-15T09:01:33Z</time>
      </trkpt>
      <trkpt lat="42.90046" lon="0.20464">
        <ele>1964.1</ele>
        <time>2011-05-15T09:01:43Z</time>
      </trkpt>
      <trkpt lat="42.90043" lon="0.20461">
        <ele>1963</ele>
        <time>2011-05-15T09:01:54Z</time>
      </trkpt>
      <trkpt lat="42.90038" lon="0.20457">
        <ele>1964.3</ele>
        <time>2011-05-15T09:02:00Z</time>
      </trkpt>
      <trkpt lat="42.90035" lon="0.20452">
        <ele>1967</ele>
        <time>2011-05-15T09:02:08Z</time>
      </trkpt>
      <trkpt lat="42.90035" lon="0.20446">
        <ele>1971.1</ele>
        <time>2011-05-15T09:02:27Z</time>
      </trkpt>
      <trkpt lat="42.90032" lon="0.2044">
        <ele>1973</ele>
        <time>2011-05-15T09:02:38Z</time>
      </trkpt>
      <trkpt lat="42.90029" lon="0.20434">
        <ele>1973.4</ele>
        <time>2011-05-15T09:02:45Z</time>
      </trkpt>
      <trkpt lat="42.90025" lon="0.20431">
        <ele>1973.8</ele>
        <time>2011-05-15T09:02:55Z</time>
      </trkpt>
      <trkpt lat="42.90021" lon="0.20434">
        <ele>1972.7</ele>
        <time>2011-05-15T09:03:02Z</time>
      </trkpt>
      <trkpt lat="42.90016" lon="0.20432">
        <ele>1974.4</ele>
        <time>2011-05-15T09:03:10Z</time>
      </trkpt>
      <trkpt lat="42.90011" lon="0.20433">
        <ele>1974.5</ele>
        <time>2011-05-15T09:03:25Z</time>
      </trkpt>
      <trkpt lat="42.90006" lon="0.20432">
        <ele>1975.1</ele>
        <time>2011-05-15T09:03:36Z</time>
      </trkpt>
      <trkpt lat="42.90001" lon="0.20427">
        <ele>1977.2</ele>
        <time>2011-05-15T09:03:45Z</time>
      </trkpt>
      <trkpt lat="42.89996" lon="0.20429">
        <ele>1977.8</ele>
        <time>2011-05-15T09:03:54Z</time>
      </trkpt>
      <trkpt lat="42.89991" lon="0.20427">
        <ele>1978.8</ele>
        <time>2011-05-15T09:04:15Z</time>
      </trkpt>
      <trkpt lat="42.89987" lon="0.20424">
        <ele>1984</ele>
        <time>2011-05-15T09:04:24Z</time>
      </trkpt>
      <trkpt lat="42.89983" lon="0.20421">
        <ele>1983.6</ele>
        <time>2011-05-15T09:04:32Z</time>
      </trkpt>
      <trkpt lat="42.89982" lon="0.20414">
        <ele>1982.7</ele>
        <time>2011-05-15T09:04:34Z</time>
      </trkpt>
      <trkpt lat="42.89978" lon="0.2041">
        <ele>1983.1</ele>
        <time>2011-05-15T09:04:41Z</time>
      </trkpt>
      <trkpt lat="42.89974" lon="0.20406">
        <ele>1986.5</ele>
        <time>2011-05-15T09:04:53Z</time>
      </trkpt>
      <trkpt lat="42.89972" lon="0.20401">
        <ele>1989.6</ele>
        <time>2011-05-15T09:05:00Z</time>
      </trkpt>
      <trkpt lat="42.89971" lon="0.20394">
        <ele>1991</ele>
        <time>2011-05-15T09:05:07Z</time>
      </trkpt>
      <trkpt lat="42.8997" lon="0.20389">
        <ele>1992</ele>
        <time>2011-05-15T09:05:16Z</time>
      </trkpt>
      <trkpt lat="42.89967" lon="0.20383">
        <ele>1993.6</ele>
        <time>2011-05-15T09:05:22Z</time>
      </trkpt>
      <trkpt lat="42.89965" lon="0.20378">
        <ele>1994.4</ele>
        <time>2011-05-15T09:05:29Z</time>
      </trkpt>
      <trkpt lat="42.89964" lon="0.20371">
        <ele>1996</ele>
        <time>2011-05-15T09:05:36Z</time>
      </trkpt>
      <trkpt lat="42.89962" lon="0.20365">
        <ele>1997.3</ele>
        <time>2011-05-15T09:05:42Z</time>
      </trkpt>
      <trkpt lat="42.89958" lon="0.20359">
        <ele>1999.2</ele>
        <time>2011-05-15T09:05:50Z</time>
      </trkpt>
      <trkpt lat="42.89956" lon="0.20353">
        <ele>1999.8</ele>
        <time>2011-05-15T09:05:57Z</time>
      </trkpt>
      <trkpt lat="42.89955" lon="0.20346">
        <ele>2000.7</ele>
        <time>2011-05-15T09:06:04Z</time>
      </trkpt>
      <trkpt lat="42.89954" lon="0.2034">
        <ele>2001.9</ele>
        <time>2011-05-15T09:06:11Z</time>
      </trkpt>
      <trkpt lat="42.89952" lon="0.20333">
        <ele>2001.8</ele>
        <time>2011-05-15T09:06:17Z</time>
      </trkpt>
      <trkpt lat="42.89952" lon="0.20327">
        <ele>2001.8</ele>
        <time>2011-05-15T09:06:24Z</time>
      </trkpt>
      <trkpt lat="42.89951" lon="0.2032">
        <ele>2004.5</ele>
        <time>2011-05-15T09:06:35Z</time>
      </trkpt>
      <trkpt lat="42.89949" lon="0.20313">
        <ele>2004.9</ele>
        <time>2011-05-15T09:06:41Z</time>
      </trkpt>
      <trkpt lat="42.89949" lon="0.20306">
        <ele>2006.2</ele>
        <time>2011-05-15T09:06:48Z</time>
      </trkpt>
      <trkpt lat="42.89948" lon="0.203">
        <ele>2006.7</ele>
        <time>2011-05-15T09:06:54Z</time>
      </trkpt>
      <trkpt lat="42.89947" lon="0.20293">
        <ele>2006</ele>
        <time>2011-05-15T09:07:00Z</time>
      </trkpt>
      <trkpt lat="42.89946" lon="0.20287">
        <ele>2008</ele>
        <time>2011-05-15T09:07:07Z</time>
      </trkpt>
      <trkpt lat="42.89943" lon="0.20283">
        <ele>2008.3</ele>
        <time>2011-05-15T09:07:14Z</time>
      </trkpt>
      <trkpt lat="42.8994" lon="0.20278">
        <ele>2007.3</ele>
        <time>2011-05-15T09:07:20Z</time>
      </trkpt>
      <trkpt lat="42.89936" lon="0.20272">
        <ele>2008.2</ele>
        <time>2011-05-15T09:07:27Z</time>
      </trkpt>
      <trkpt lat="42.89932" lon="0.20268">
        <ele>2009.1</ele>
        <time>2011-05-15T09:07:32Z</time>
      </trkpt>
      <trkpt lat="42.89928" lon="0.20265">
        <ele>2006.3</ele>
        <time>2011-05-15T09:07:37Z</time>
      </trkpt>
      <trkpt lat="42.89923" lon="0.20264">
        <ele>2004.6</ele>
        <time>2011-05-15T09:07:41Z</time>
      </trkpt>
      <trkpt lat="42.89919" lon="0.20262">
        <ele>2005.3</ele>
        <time>2011-05-15T09:07:46Z</time>
      </trkpt>
      <trkpt lat="42.89914" lon="0.20261">
        <ele>2005.9</ele>
        <time>2011-05-15T09:07:51Z</time>
      </trkpt>
      <trkpt lat="42.89911" lon="0.20257">
        <ele>2005.9</ele>
        <time>2011-05-15T09:07:54Z</time>
      </trkpt>
      <trkpt lat="42.89906" lon="0.20253">
        <ele>2008.5</ele>
        <time>2011-05-15T09:08:03Z</time>
      </trkpt>
      <trkpt lat="42.89902" lon="0.20249">
        <ele>2011.8</ele>
        <time>2011-05-15T09:08:12Z</time>
      </trkpt>
      <trkpt lat="42.89904" lon="0.20242">
        <ele>2011.6</ele>
        <time>2011-05-15T09:08:17Z</time>
      </trkpt>
      <trkpt lat="42.899" lon="0.20238">
        <ele>2012.3</ele>
        <time>2011-05-15T09:08:22Z</time>
      </trkpt>
      <trkpt lat="42.89896" lon="0.20237">
        <ele>2013.9</ele>
        <time>2011-05-15T09:08:28Z</time>
      </trkpt>
      <trkpt lat="42.89893" lon="0.20231">
        <ele>2013.9</ele>
        <time>2011-05-15T09:08:35Z</time>
      </trkpt>
      <trkpt lat="42.8989" lon="0.20226">
        <ele>2012.7</ele>
        <time>2011-05-15T09:08:40Z</time>
      </trkpt>
      <trkpt lat="42.89886" lon="0.20222">
        <ele>2011</ele>
        <time>2011-05-15T09:08:45Z</time>
      </trkpt>
      <trkpt lat="42.89882" lon="0.20217">
        <ele>2012.1</ele>
        <time>2011-05-15T09:08:49Z</time>
      </trkpt>
      <trkpt lat="42.89881" lon="0.20211">
        <ele>2013.4</ele>
        <time>2011-05-15T09:08:54Z</time>
      </trkpt>
      <trkpt lat="42.89879" lon="0.20206">
        <ele>2014.4</ele>
        <time>2011-05-15T09:08:59Z</time>
      </trkpt>
      <trkpt lat="42.89874" lon="0.20202">
        <ele>2013.7</ele>
        <time>2011-05-15T09:09:08Z</time>
      </trkpt>
      <trkpt lat="42.8987" lon="0.20198">
        <ele>2015.2</ele>
        <time>2011-05-15T09:09:12Z</time>
      </trkpt>
      <trkpt lat="42.89866" lon="0.20193">
        <ele>2015.1</ele>
        <time>2011-05-15T09:09:17Z</time>
      </trkpt>
      <trkpt lat="42.89863" lon="0.20189">
        <ele>2015.3</ele>
        <time>2011-05-15T09:09:22Z</time>
      </trkpt>
      <trkpt lat="42.89861" lon="0.20183">
        <ele>2015.7</ele>
        <time>2011-05-15T09:09:30Z</time>
      </trkpt>
      <trkpt lat="42.89858" lon="0.20177">
        <ele>2016.6</ele>
        <time>2011-05-15T09:09:36Z</time>
      </trkpt>
      <trkpt lat="42.89858" lon="0.2017">
        <ele>2017.5</ele>
        <time>2011-05-15T09:09:40Z</time>
      </trkpt>
      <trkpt lat="42.89858" lon="0.20164">
        <ele>2018</ele>
        <time>2011-05-15T09:09:44Z</time>
      </trkpt>
      <trkpt lat="42.89856" lon="0.20158">
        <ele>2017.7</ele>
        <time>2011-05-15T09:09:49Z</time>
      </trkpt>
      <trkpt lat="42.89855" lon="0.20151">
        <ele>2018.2</ele>
        <time>2011-05-15T09:09:58Z</time>
      </trkpt>
      <trkpt lat="42.89856" lon="0.20145">
        <ele>2018.9</ele>
        <time>2011-05-15T09:10:05Z</time>
      </trkpt>
      <trkpt lat="42.89856" lon="0.20139">
        <ele>2019.3</ele>
        <time>2011-05-15T09:10:11Z</time>
      </trkpt>
      <trkpt lat="42.89857" lon="0.20132">
        <ele>2019.5</ele>
        <time>2011-05-15T09:10:17Z</time>
      </trkpt>
      <trkpt lat="42.8986" lon="0.20126">
        <ele>2020.7</ele>
        <time>2011-05-15T09:10:26Z</time>
      </trkpt>
      <trkpt lat="42.89863" lon="0.20121">
        <ele>2021.7</ele>
        <time>2011-05-15T09:10:34Z</time>
      </trkpt>
      <trkpt lat="42.89866" lon="0.20117">
        <ele>2022.4</ele>
        <time>2011-05-15T09:10:40Z</time>
      </trkpt>
      <trkpt lat="42.89869" lon="0.20111">
        <ele>2022.4</ele>
        <time>2011-05-15T09:10:55Z</time>
      </trkpt>
      <trkpt lat="42.8987" lon="0.20105">
        <ele>2023.9</ele>
        <time>2011-05-15T09:11:03Z</time>
      </trkpt>
      <trkpt lat="42.8987" lon="0.20099">
        <ele>2024.6</ele>
        <time>2011-05-15T09:11:10Z</time>
      </trkpt>
      <trkpt lat="42.89871" lon="0.20093">
        <ele>2026.2</ele>
        <time>2011-05-15T09:11:22Z</time>
      </trkpt>
      <trkpt lat="42.89872" lon="0.20086">
        <ele>2027.6</ele>
        <time>2011-05-15T09:11:29Z</time>
      </trkpt>
      <trkpt lat="42.89873" lon="0.2008">
        <ele>2028.8</ele>
        <time>2011-05-15T09:11:38Z</time>
      </trkpt>
      <trkpt lat="42.89875" lon="0.20074">
        <ele>2032.1</ele>
        <time>2011-05-15T09:11:50Z</time>
      </trkpt>
      <trkpt lat="42.89871" lon="0.20071">
        <ele>2034.6</ele>
        <time>2011-05-15T09:11:59Z</time>
      </trkpt>
      <trkpt lat="42.89867" lon="0.20067">
        <ele>2037.4</ele>
        <time>2011-05-15T09:12:14Z</time>
      </trkpt>
      <trkpt lat="42.89862" lon="0.20067">
        <ele>2039.3</ele>
        <time>2011-05-15T09:12:24Z</time>
      </trkpt>
      <trkpt lat="42.89857" lon="0.20066">
        <ele>2041.1</ele>
        <time>2011-05-15T09:12:32Z</time>
      </trkpt>
      <trkpt lat="42.89853" lon="0.20064">
        <ele>2039.7</ele>
        <time>2011-05-15T09:12:36Z</time>
      </trkpt>
      <trkpt lat="42.89847" lon="0.20063">
        <ele>2040.2</ele>
        <time>2011-05-15T09:12:42Z</time>
      </trkpt>
      <trkpt lat="42.89842" lon="0.20061">
        <ele>2041.1</ele>
        <time>2011-05-15T09:12:46Z</time>
      </trkpt>
      <trkpt lat="42.89838" lon="0.2006">
        <ele>2041.4</ele>
        <time>2011-05-15T09:12:50Z</time>
      </trkpt>
      <trkpt lat="42.89833" lon="0.20059">
        <ele>2043.5</ele>
        <time>2011-05-15T09:12:59Z</time>
      </trkpt>
      <trkpt lat="42.89828" lon="0.20057">
        <ele>2047.1</ele>
        <time>2011-05-15T09:13:11Z</time>
      </trkpt>
      <trkpt lat="42.89823" lon="0.20054">
        <ele>2049.9</ele>
        <time>2011-05-15T09:13:20Z</time>
      </trkpt>
      <trkpt lat="42.89819" lon="0.20052">
        <ele>2053.4</ele>
        <time>2011-05-15T09:13:30Z</time>
      </trkpt>
      <trkpt lat="42.89814" lon="0.20053">
        <ele>2055.3</ele>
        <time>2011-05-15T09:13:37Z</time>
      </trkpt>
      <trkpt lat="42.89809" lon="0.20051">
        <ele>2055.1</ele>
        <time>2011-05-15T09:13:42Z</time>
      </trkpt>
      <trkpt lat="42.89805" lon="0.20049">
        <ele>2055.2</ele>
        <time>2011-05-15T09:13:48Z</time>
      </trkpt>
      <trkpt lat="42.89799" lon="0.20047">
        <ele>2054.9</ele>
        <time>2011-05-15T09:13:54Z</time>
      </trkpt>
      <trkpt lat="42.89794" lon="0.20046">
        <ele>2055</ele>
        <time>2011-05-15T09:14:00Z</time>
      </trkpt>
      <trkpt lat="42.8979" lon="0.20045">
        <ele>2055.9</ele>
        <time>2011-05-15T09:14:05Z</time>
      </trkpt>
      <trkpt lat="42.89785" lon="0.20043">
        <ele>2056.7</ele>
        <time>2011-05-15T09:14:10Z</time>
      </trkpt>
      <trkpt lat="42.89781" lon="0.2004">
        <ele>2058.1</ele>
        <time>2011-05-15T09:14:17Z</time>
      </trkpt>
      <trkpt lat="42.89777" lon="0.20036">
        <ele>2060.9</ele>
        <time>2011-05-15T09:14:30Z</time>
      </trkpt>
      <trkpt lat="42.89773" lon="0.20033">
        <ele>2061.9</ele>
        <time>2011-05-15T09:14:36Z</time>
      </trkpt>
      <trkpt lat="42.89768" lon="0.20032">
        <ele>2066.5</ele>
        <time>2011-05-15T09:14:45Z</time>
      </trkpt>
      <trkpt lat="42.89764" lon="0.20028">
        <ele>2067.1</ele>
        <time>2011-05-15T09:14:52Z</time>
      </trkpt>
      <trkpt lat="42.8976" lon="0.20026">
        <ele>2069.2</ele>
        <time>2011-05-15T09:15:01Z</time>
      </trkpt>
      <trkpt lat="42.89756" lon="0.20022">
        <ele>2069.6</ele>
        <time>2011-05-15T09:15:14Z</time>
      </trkpt>
      <trkpt lat="42.89752" lon="0.20019">
        <ele>2071.7</ele>
        <time>2011-05-15T09:15:25Z</time>
      </trkpt>
      <trkpt lat="42.89748" lon="0.20016">
        <ele>2074.3</ele>
        <time>2011-05-15T09:15:37Z</time>
      </trkpt>
      <trkpt lat="42.89745" lon="0.20012">
        <ele>2076.1</ele>
        <time>2011-05-15T09:15:48Z</time>
      </trkpt>
      <trkpt lat="42.8974" lon="0.20011">
        <ele>2076.1</ele>
        <time>2011-05-15T09:15:54Z</time>
      </trkpt>
      <trkpt lat="42.89735" lon="0.2001">
        <ele>2075.6</ele>
        <time>2011-05-15T09:16:00Z</time>
      </trkpt>
      <trkpt lat="42.8973" lon="0.20008">
        <ele>2075.4</ele>
        <time>2011-05-15T09:16:06Z</time>
      </trkpt>
      <trkpt lat="42.89726" lon="0.20012">
        <ele>2078</ele>
        <time>2011-05-15T09:16:14Z</time>
      </trkpt>
      <trkpt lat="42.89722" lon="0.20015">
        <ele>2078.1</ele>
        <time>2011-05-15T09:16:18Z</time>
      </trkpt>
      <trkpt lat="42.89717" lon="0.20017">
        <ele>2079.2</ele>
        <time>2011-05-15T09:16:21Z</time>
      </trkpt>
      <trkpt lat="42.89713" lon="0.20016">
        <ele>2077</ele>
        <time>2011-05-15T09:16:25Z</time>
      </trkpt>
      <trkpt lat="42.89708" lon="0.20018">
        <ele>2077.1</ele>
        <time>2011-05-15T09:16:33Z</time>
      </trkpt>
      <trkpt lat="42.89703" lon="0.2002">
        <ele>2076.4</ele>
        <time>2011-05-15T09:16:39Z</time>
      </trkpt>
      <trkpt lat="42.89699" lon="0.20021">
        <ele>2076.1</ele>
        <time>2011-05-15T09:16:43Z</time>
      </trkpt>
      <trkpt lat="42.89694" lon="0.20024">
        <ele>2078.8</ele>
        <time>2011-05-15T09:16:55Z</time>
      </trkpt>
      <trkpt lat="42.89689" lon="0.20026">
        <ele>2079</ele>
        <time>2011-05-15T09:17:00Z</time>
      </trkpt>
      <trkpt lat="42.89685" lon="0.20031">
        <ele>2079.7</ele>
        <time>2011-05-15T09:17:06Z</time>
      </trkpt>
      <trkpt lat="42.89679" lon="0.20032">
        <ele>2079.4</ele>
        <time>2011-05-15T09:17:12Z</time>
      </trkpt>
      <trkpt lat="42.89674" lon="0.20036">
        <ele>2080.7</ele>
        <time>2011-05-15T09:17:19Z</time>
      </trkpt>
      <trkpt lat="42.89671" lon="0.20041">
        <ele>2079.9</ele>
        <time>2011-05-15T09:17:24Z</time>
      </trkpt>
      <trkpt lat="42.89666" lon="0.20044">
        <ele>2080.4</ele>
        <time>2011-05-15T09:17:30Z</time>
      </trkpt>
      <trkpt lat="42.89661" lon="0.20046">
        <ele>2080</ele>
        <time>2011-05-15T09:17:35Z</time>
      </trkpt>
      <trkpt lat="42.8966" lon="0.20039">
        <ele>2079.3</ele>
        <time>2011-05-15T09:17:45Z</time>
      </trkpt>
      <trkpt lat="42.89656" lon="0.20034">
        <ele>2084.2</ele>
        <time>2011-05-15T09:17:56Z</time>
      </trkpt>
      <trkpt lat="42.89656" lon="0.20027">
        <ele>2086.2</ele>
        <time>2011-05-15T09:18:05Z</time>
      </trkpt>
      <trkpt lat="42.89655" lon="0.20021">
        <ele>2088.1</ele>
        <time>2011-05-15T09:18:13Z</time>
      </trkpt>
      <trkpt lat="42.89652" lon="0.20015">
        <ele>2089.7</ele>
        <time>2011-05-15T09:18:21Z</time>
      </trkpt>
      <trkpt lat="42.89651" lon="0.20009">
        <ele>2091.7</ele>
        <time>2011-05-15T09:18:34Z</time>
      </trkpt>
      <trkpt lat="42.89653" lon="0.20003">
        <ele>2092.4</ele>
        <time>2011-05-15T09:18:43Z</time>
      </trkpt>
      <trkpt lat="42.89655" lon="0.19997">
        <ele>2094.1</ele>
        <time>2011-05-15T09:19:12Z</time>
      </trkpt>
      <trkpt lat="42.89659" lon="0.19991">
        <ele>2094.4</ele>
        <time>2011-05-15T09:19:15Z</time>
      </trkpt>
      <trkpt lat="42.89654" lon="0.1999">
        <ele>2095.9</ele>
        <time>2011-05-15T09:19:21Z</time>
      </trkpt>
      <trkpt lat="42.8965" lon="0.19985">
        <ele>2095.9</ele>
        <time>2011-05-15T09:28:12Z</time>
      </trkpt>
      <trkpt lat="42.89648" lon="0.19978">
        <ele>2096.9</ele>
        <time>2011-05-15T09:28:19Z</time>
      </trkpt>
      <trkpt lat="42.89646" lon="0.19973">
        <ele>2095.1</ele>
        <time>2011-05-15T09:28:24Z</time>
      </trkpt>
      <trkpt lat="42.89645" lon="0.19966">
        <ele>2093.1</ele>
        <time>2011-05-15T09:28:31Z</time>
      </trkpt>
      <trkpt lat="42.89641" lon="0.19961">
        <ele>2093</ele>
        <time>2011-05-15T09:28:44Z</time>
      </trkpt>
      <trkpt lat="42.89644" lon="0.19954">
        <ele>2093.1</ele>
        <time>2011-05-15T09:28:48Z</time>
      </trkpt>
      <trkpt lat="42.8964" lon="0.1995">
        <ele>2094.2</ele>
        <time>2011-05-15T09:28:56Z</time>
      </trkpt>
      <trkpt lat="42.89639" lon="0.19944">
        <ele>2093.1</ele>
        <time>2011-05-15T09:29:05Z</time>
      </trkpt>
      <trkpt lat="42.89636" lon="0.1994">
        <ele>2095.9</ele>
        <time>2011-05-15T09:29:11Z</time>
      </trkpt>
      <trkpt lat="42.89632" lon="0.19935">
        <ele>2097.7</ele>
        <time>2011-05-15T09:29:21Z</time>
      </trkpt>
      <trkpt lat="42.89629" lon="0.1993">
        <ele>2097.4</ele>
        <time>2011-05-15T09:29:29Z</time>
      </trkpt>
      <trkpt lat="42.89625" lon="0.19926">
        <ele>2095.8</ele>
        <time>2011-05-15T09:29:33Z</time>
      </trkpt>
      <trkpt lat="42.89624" lon="0.19919">
        <ele>2096.5</ele>
        <time>2011-05-15T09:29:43Z</time>
      </trkpt>
      <trkpt lat="42.89623" lon="0.19912">
        <ele>2098</ele>
        <time>2011-05-15T09:29:55Z</time>
      </trkpt>
      <trkpt lat="42.89622" lon="0.19905">
        <ele>2095.1</ele>
        <time>2011-05-15T09:29:59Z</time>
      </trkpt>
      <trkpt lat="42.89619" lon="0.199">
        <ele>2097.7</ele>
        <time>2011-05-15T09:30:06Z</time>
      </trkpt>
      <trkpt lat="42.89615" lon="0.19897">
        <ele>2098.4</ele>
        <time>2011-05-15T09:30:21Z</time>
      </trkpt>
      <trkpt lat="42.89611" lon="0.19893">
        <ele>2099.2</ele>
        <time>2011-05-15T09:30:28Z</time>
      </trkpt>
      <trkpt lat="42.89606" lon="0.19889">
        <ele>2098.1</ele>
        <time>2011-05-15T09:30:32Z</time>
      </trkpt>
      <trkpt lat="42.89605" lon="0.19883">
        <ele>2098.7</ele>
        <time>2011-05-15T09:30:38Z</time>
      </trkpt>
      <trkpt lat="42.89604" lon="0.19877">
        <ele>2097.9</ele>
        <time>2011-05-15T09:30:42Z</time>
      </trkpt>
      <trkpt lat="42.89599" lon="0.19874">
        <ele>2097.1</ele>
        <time>2011-05-15T09:30:51Z</time>
      </trkpt>
      <trkpt lat="42.89595" lon="0.1987">
        <ele>2098.5</ele>
        <time>2011-05-15T09:31:04Z</time>
      </trkpt>
      <trkpt lat="42.89593" lon="0.19865">
        <ele>2097.2</ele>
        <time>2011-05-15T09:31:11Z</time>
      </trkpt>
      <trkpt lat="42.89589" lon="0.19861">
        <ele>2095.7</ele>
        <time>2011-05-15T09:31:19Z</time>
      </trkpt>
      <trkpt lat="42.89584" lon="0.1986">
        <ele>2098.3</ele>
        <time>2011-05-15T09:31:30Z</time>
      </trkpt>
      <trkpt lat="42.89579" lon="0.19857">
        <ele>2098</ele>
        <time>2011-05-15T09:31:43Z</time>
      </trkpt>
      <trkpt lat="42.89575" lon="0.19856">
        <ele>2097.8</ele>
        <time>2011-05-15T09:31:52Z</time>
      </trkpt>
      <trkpt lat="42.8957" lon="0.19855">
        <ele>2097.7</ele>
        <time>2011-05-15T09:31:58Z</time>
      </trkpt>
      <trkpt lat="42.89565" lon="0.19856">
        <ele>2096.4</ele>
        <time>2011-05-15T09:32:06Z</time>
      </trkpt>
      <trkpt lat="42.89563" lon="0.1985">
        <ele>2097.2</ele>
        <time>2011-05-15T09:32:13Z</time>
      </trkpt>
      <trkpt lat="42.89558" lon="0.19848">
        <ele>2096.3</ele>
        <time>2011-05-15T09:32:20Z</time>
      </trkpt>
      <trkpt lat="42.89552" lon="0.19846">
        <ele>2097.7</ele>
        <time>2011-05-15T09:32:28Z</time>
      </trkpt>
      <trkpt lat="42.89547" lon="0.19845">
        <ele>2098.3</ele>
        <time>2011-05-15T09:32:40Z</time>
      </trkpt>
      <trkpt lat="42.89542" lon="0.19848">
        <ele>2100.6</ele>
        <time>2011-05-15T09:32:43Z</time>
      </trkpt>
      <trkpt lat="42.89538" lon="0.19844">
        <ele>2098.9</ele>
        <time>2011-05-15T09:32:48Z</time>
      </trkpt>
      <trkpt lat="42.89533" lon="0.19843">
        <ele>2097.4</ele>
        <time>2011-05-15T09:33:05Z</time>
      </trkpt>
      <trkpt lat="42.89531" lon="0.19837">
        <ele>2096.6</ele>
        <time>2011-05-15T09:33:09Z</time>
      </trkpt>
      <trkpt lat="42.89526" lon="0.19836">
        <ele>2098.3</ele>
        <time>2011-05-15T09:33:14Z</time>
      </trkpt>
      <trkpt lat="42.89522" lon="0.19833">
        <ele>2097.8</ele>
        <time>2011-05-15T09:33:27Z</time>
      </trkpt>
      <trkpt lat="42.89518" lon="0.19828">
        <ele>2097.8</ele>
        <time>2011-05-15T09:33:33Z</time>
      </trkpt>
      <trkpt lat="42.89515" lon="0.19824">
        <ele>2098.4</ele>
        <time>2011-05-15T09:33:39Z</time>
      </trkpt>
      <trkpt lat="42.8951" lon="0.19825">
        <ele>2098.9</ele>
        <time>2011-05-15T09:33:44Z</time>
      </trkpt>
      <trkpt lat="42.89507" lon="0.19818">
        <ele>2099.7</ele>
        <time>2011-05-15T09:33:51Z</time>
      </trkpt>
      <trkpt lat="42.89502" lon="0.19817">
        <ele>2100.3</ele>
        <time>2011-05-15T09:33:56Z</time>
      </trkpt>
      <trkpt lat="42.89496" lon="0.19818">
        <ele>2099</ele>
        <time>2011-05-15T09:34:00Z</time>
      </trkpt>
      <trkpt lat="42.89491" lon="0.19819">
        <ele>2099.6</ele>
        <time>2011-05-15T09:34:04Z</time>
      </trkpt>
      <trkpt lat="42.89488" lon="0.19815">
        <ele>2100.2</ele>
        <time>2011-05-15T09:34:11Z</time>
      </trkpt>
      <trkpt lat="42.89486" lon="0.19809">
        <ele>2098.5</ele>
        <time>2011-05-15T09:34:15Z</time>
      </trkpt>
      <trkpt lat="42.89482" lon="0.19806">
        <ele>2097.8</ele>
        <time>2011-05-15T09:34:20Z</time>
      </trkpt>
      <trkpt lat="42.89479" lon="0.19801">
        <ele>2097.5</ele>
        <time>2011-05-15T09:34:26Z</time>
      </trkpt>
      <trkpt lat="42.89478" lon="0.19794">
        <ele>2092.6</ele>
        <time>2011-05-15T09:34:30Z</time>
      </trkpt>
      <trkpt lat="42.89476" lon="0.19789">
        <ele>2093.3</ele>
        <time>2011-05-15T09:34:36Z</time>
      </trkpt>
      <trkpt lat="42.89471" lon="0.19785">
        <ele>2096</ele>
        <time>2011-05-15T09:34:42Z</time>
      </trkpt>
      <trkpt lat="42.89467" lon="0.19784">
        <ele>2096.5</ele>
        <time>2011-05-15T09:34:47Z</time>
      </trkpt>
      <trkpt lat="42.89463" lon="0.1978">
        <ele>2097.3</ele>
        <time>2011-05-15T09:34:54Z</time>
      </trkpt>
      <trkpt lat="42.8946" lon="0.19775">
        <ele>2097.2</ele>
        <time>2011-05-15T09:35:01Z</time>
      </trkpt>
      <trkpt lat="42.89458" lon="0.19769">
        <ele>2095.5</ele>
        <time>2011-05-15T09:35:20Z</time>
      </trkpt>
      <trkpt lat="42.89453" lon="0.19769">
        <ele>2097.7</ele>
        <time>2011-05-15T09:35:25Z</time>
      </trkpt>
      <trkpt lat="42.89449" lon="0.19765">
        <ele>2097.2</ele>
        <time>2011-05-15T09:35:32Z</time>
      </trkpt>
      <trkpt lat="42.89446" lon="0.19761">
        <ele>2096.6</ele>
        <time>2011-05-15T09:35:38Z</time>
      </trkpt>
      <trkpt lat="42.89442" lon="0.19756">
        <ele>2097.8</ele>
        <time>2011-05-15T09:35:46Z</time>
      </trkpt>
      <trkpt lat="42.8944" lon="0.19751">
        <ele>2096.9</ele>
        <time>2011-05-15T09:35:53Z</time>
      </trkpt>
      <trkpt lat="42.89436" lon="0.19747">
        <ele>2098.4</ele>
        <time>2011-05-15T09:36:01Z</time>
      </trkpt>
      <trkpt lat="42.89432" lon="0.19744">
        <ele>2097.9</ele>
        <time>2011-05-15T09:36:07Z</time>
      </trkpt>
      <trkpt lat="42.89431" lon="0.19738">
        <ele>2098</ele>
        <time>2011-05-15T09:36:13Z</time>
      </trkpt>
      <trkpt lat="42.89427" lon="0.19733">
        <ele>2098.5</ele>
        <time>2011-05-15T09:36:22Z</time>
      </trkpt>
      <trkpt lat="42.89425" lon="0.19728">
        <ele>2097.3</ele>
        <time>2011-05-15T09:36:31Z</time>
      </trkpt>
      <trkpt lat="42.8942" lon="0.19725">
        <ele>2099</ele>
        <time>2011-05-15T09:36:37Z</time>
      </trkpt>
      <trkpt lat="42.89416" lon="0.19721">
        <ele>2099.5</ele>
        <time>2011-05-15T09:36:45Z</time>
      </trkpt>
      <trkpt lat="42.89414" lon="0.19714">
        <ele>2100</ele>
        <time>2011-05-15T09:36:53Z</time>
      </trkpt>
      <trkpt lat="42.89409" lon="0.19713">
        <ele>2103.3</ele>
        <time>2011-05-15T09:37:06Z</time>
      </trkpt>
      <trkpt lat="42.89405" lon="0.19709">
        <ele>2107.2</ele>
        <time>2011-05-15T09:37:23Z</time>
      </trkpt>
      <trkpt lat="42.894" lon="0.19713">
        <ele>2108.4</ele>
        <time>2011-05-15T09:37:43Z</time>
      </trkpt>
      <trkpt lat="42.89397" lon="0.19719">
        <ele>2104.5</ele>
        <time>2011-05-15T09:37:55Z</time>
      </trkpt>
      <trkpt lat="42.89391" lon="0.1972">
        <ele>2104.1</ele>
        <time>2011-05-15T09:38:02Z</time>
      </trkpt>
      <trkpt lat="42.89388" lon="0.19724">
        <ele>2108.6</ele>
        <time>2011-05-15T09:38:30Z</time>
      </trkpt>
      <trkpt lat="42.89383" lon="0.19725">
        <ele>2110.5</ele>
        <time>2011-05-15T09:38:41Z</time>
      </trkpt>
      <trkpt lat="42.89376" lon="0.19723">
        <ele>2110.5</ele>
        <time>2011-05-15T09:38:51Z</time>
      </trkpt>
      <trkpt lat="42.89373" lon="0.19727">
        <ele>2111</ele>
        <time>2011-05-15T09:39:04Z</time>
      </trkpt>
      <trkpt lat="42.89368" lon="0.19731">
        <ele>2109.7</ele>
        <time>2011-05-15T09:39:08Z</time>
      </trkpt>
      <trkpt lat="42.89364" lon="0.19734">
        <ele>2109.1</ele>
        <time>2011-05-15T09:39:17Z</time>
      </trkpt>
      <trkpt lat="42.89359" lon="0.19736">
        <ele>2108.1</ele>
        <time>2011-05-15T09:39:20Z</time>
      </trkpt>
      <trkpt lat="42.89354" lon="0.19736">
        <ele>2108.8</ele>
        <time>2011-05-15T09:39:26Z</time>
      </trkpt>
      <trkpt lat="42.89349" lon="0.19735">
        <ele>2109.6</ele>
        <time>2011-05-15T09:39:32Z</time>
      </trkpt>
      <trkpt lat="42.89344" lon="0.19735">
        <ele>2112.2</ele>
        <time>2011-05-15T09:39:40Z</time>
      </trkpt>
      <trkpt lat="42.89339" lon="0.19735">
        <ele>2111.9</ele>
        <time>2011-05-15T09:39:45Z</time>
      </trkpt>
      <trkpt lat="42.89334" lon="0.19733">
        <ele>2112.4</ele>
        <time>2011-05-15T09:39:51Z</time>
      </trkpt>
      <trkpt lat="42.8933" lon="0.19736">
        <ele>2113.3</ele>
        <time>2011-05-15T09:40:00Z</time>
      </trkpt>
      <trkpt lat="42.89328" lon="0.19742">
        <ele>2111.6</ele>
        <time>2011-05-15T09:40:08Z</time>
      </trkpt>
      <trkpt lat="42.89323" lon="0.19744">
        <ele>2113.9</ele>
        <time>2011-05-15T09:40:20Z</time>
      </trkpt>
      <trkpt lat="42.89319" lon="0.19744">
        <ele>2116.8</ele>
        <time>2011-05-15T09:40:33Z</time>
      </trkpt>
      <trkpt lat="42.89314" lon="0.19744">
        <ele>2119.3</ele>
        <time>2011-05-15T09:40:42Z</time>
      </trkpt>
      <trkpt lat="42.89312" lon="0.19738">
        <ele>2120.3</ele>
        <time>2011-05-15T09:40:50Z</time>
      </trkpt>
      <trkpt lat="42.89307" lon="0.19735">
        <ele>2123</ele>
        <time>2011-05-15T09:41:01Z</time>
      </trkpt>
      <trkpt lat="42.89303" lon="0.19732">
        <ele>2123.2</ele>
        <time>2011-05-15T09:41:10Z</time>
      </trkpt>
      <trkpt lat="42.89299" lon="0.19735">
        <ele>2124.9</ele>
        <time>2011-05-15T09:41:19Z</time>
      </trkpt>
      <trkpt lat="42.89296" lon="0.1974">
        <ele>2127.6</ele>
        <time>2011-05-15T09:41:27Z</time>
      </trkpt>
      <trkpt lat="42.89292" lon="0.19744">
        <ele>2129.3</ele>
        <time>2011-05-15T09:41:35Z</time>
      </trkpt>
      <trkpt lat="42.8929" lon="0.19749">
        <ele>2132.7</ele>
        <time>2011-05-15T09:41:48Z</time>
      </trkpt>
      <trkpt lat="42.89285" lon="0.19752">
        <ele>2133</ele>
        <time>2011-05-15T09:41:54Z</time>
      </trkpt>
      <trkpt lat="42.89281" lon="0.19754">
        <ele>2133.8</ele>
        <time>2011-05-15T09:42:03Z</time>
      </trkpt>
      <trkpt lat="42.89278" lon="0.1976">
        <ele>2129.5</ele>
        <time>2011-05-15T09:42:11Z</time>
      </trkpt>
      <trkpt lat="42.89274" lon="0.19764">
        <ele>2128.6</ele>
        <time>2011-05-15T09:42:16Z</time>
      </trkpt>
      <trkpt lat="42.89271" lon="0.1977">
        <ele>2126.9</ele>
        <time>2011-05-15T09:42:27Z</time>
      </trkpt>
      <trkpt lat="42.89272" lon="0.19777">
        <ele>2127.6</ele>
        <time>2011-05-15T09:42:30Z</time>
      </trkpt>
      <trkpt lat="42.89268" lon="0.19781">
        <ele>2128.9</ele>
        <time>2011-05-15T09:42:46Z</time>
      </trkpt>
      <trkpt lat="42.89264" lon="0.19784">
        <ele>2130.5</ele>
        <time>2011-05-15T09:42:51Z</time>
      </trkpt>
      <trkpt lat="42.89259" lon="0.19787">
        <ele>2131.8</ele>
        <time>2011-05-15T09:42:57Z</time>
      </trkpt>
      <trkpt lat="42.89256" lon="0.19792">
        <ele>2134.5</ele>
        <time>2011-05-15T09:43:05Z</time>
      </trkpt>
      <trkpt lat="42.89253" lon="0.19797">
        <ele>2136.4</ele>
        <time>2011-05-15T09:43:10Z</time>
      </trkpt>
      <trkpt lat="42.89249" lon="0.19801">
        <ele>2137.6</ele>
        <time>2011-05-15T09:43:15Z</time>
      </trkpt>
      <trkpt lat="42.89247" lon="0.19807">
        <ele>2137.6</ele>
        <time>2011-05-15T09:43:20Z</time>
      </trkpt>
      <trkpt lat="42.89245" lon="0.19813">
        <ele>2136.4</ele>
        <time>2011-05-15T09:43:26Z</time>
      </trkpt>
      <trkpt lat="42.89244" lon="0.19819">
        <ele>2135</ele>
        <time>2011-05-15T09:43:32Z</time>
      </trkpt>
      <trkpt lat="42.8924" lon="0.19825">
        <ele>2134.1</ele>
        <time>2011-05-15T09:43:38Z</time>
      </trkpt>
      <trkpt lat="42.89238" lon="0.19831">
        <ele>2133.7</ele>
        <time>2011-05-15T09:43:42Z</time>
      </trkpt>
      <trkpt lat="42.89237" lon="0.19837">
        <ele>2134.9</ele>
        <time>2011-05-15T09:43:57Z</time>
      </trkpt>
      <trkpt lat="42.89239" lon="0.19843">
        <ele>2134.5</ele>
        <time>2011-05-15T09:44:05Z</time>
      </trkpt>
      <trkpt lat="42.89243" lon="0.19848">
        <ele>2132.8</ele>
        <time>2011-05-15T09:44:11Z</time>
      </trkpt>
      <trkpt lat="42.89246" lon="0.19854">
        <ele>2131.1</ele>
        <time>2011-05-15T09:44:16Z</time>
      </trkpt>
      <trkpt lat="42.89249" lon="0.19859">
        <ele>2132.9</ele>
        <time>2011-05-15T09:44:28Z</time>
      </trkpt>
      <trkpt lat="42.89254" lon="0.19866">
        <ele>2127.9</ele>
        <time>2011-05-15T09:44:31Z</time>
      </trkpt>
      <trkpt lat="42.89257" lon="0.19871">
        <ele>2133.2</ele>
        <time>2011-05-15T09:44:44Z</time>
      </trkpt>
      <trkpt lat="42.89259" lon="0.19877">
        <ele>2132.2</ele>
        <time>2011-05-15T09:44:51Z</time>
      </trkpt>
      <trkpt lat="42.89265" lon="0.19882">
        <ele>2130.4</ele>
        <time>2011-05-15T09:45:00Z</time>
      </trkpt>
      <trkpt lat="42.89268" lon="0.19888">
        <ele>2128.2</ele>
        <time>2011-05-15T09:45:05Z</time>
      </trkpt>
      <trkpt lat="42.8927" lon="0.19894">
        <ele>2126.2</ele>
        <time>2011-05-15T09:45:08Z</time>
      </trkpt>
      <trkpt lat="42.89275" lon="0.19897">
        <ele>2125.9</ele>
        <time>2011-05-15T09:45:10Z</time>
      </trkpt>
      <trkpt lat="42.8928" lon="0.19906">
        <ele>2125.4</ele>
        <time>2011-05-15T09:45:12Z</time>
      </trkpt>
      <trkpt lat="42.89274" lon="0.19895">
        <ele>2125.2</ele>
        <time>2011-05-15T09:45:13Z</time>
      </trkpt>
      <trkpt lat="42.89276" lon="0.19901">
        <ele>2123.5</ele>
        <time>2011-05-15T09:45:22Z</time>
      </trkpt>
      <trkpt lat="42.89278" lon="0.19907">
        <ele>2124</ele>
        <time>2011-05-15T09:45:25Z</time>
      </trkpt>
      <trkpt lat="42.89281" lon="0.19912">
        <ele>2131.2</ele>
        <time>2011-05-15T09:45:48Z</time>
      </trkpt>
      <trkpt lat="42.89283" lon="0.19918">
        <ele>2131.6</ele>
        <time>2011-05-15T09:45:55Z</time>
      </trkpt>
      <trkpt lat="42.89282" lon="0.19926">
        <ele>2133.4</ele>
        <time>2011-05-15T09:45:59Z</time>
      </trkpt>
      <trkpt lat="42.89282" lon="0.19932">
        <ele>2131.2</ele>
        <time>2011-05-15T09:46:08Z</time>
      </trkpt>
      <trkpt lat="42.89282" lon="0.19939">
        <ele>2135.1</ele>
        <time>2011-05-15T09:46:22Z</time>
      </trkpt>
      <trkpt lat="42.89277" lon="0.1994">
        <ele>2134.8</ele>
        <time>2011-05-15T09:46:36Z</time>
      </trkpt>
      <trkpt lat="42.89274" lon="0.19947">
        <ele>2135.2</ele>
        <time>2011-05-15T09:46:42Z</time>
      </trkpt>
      <trkpt lat="42.89277" lon="0.19951">
        <ele>2140</ele>
        <time>2011-05-15T09:47:08Z</time>
      </trkpt>
      <trkpt lat="42.89281" lon="0.19955">
        <ele>2140.1</ele>
        <time>2011-05-15T09:47:17Z</time>
      </trkpt>
      <trkpt lat="42.89285" lon="0.19958">
        <ele>2142.7</ele>
        <time>2011-05-15T09:47:25Z</time>
      </trkpt>
      <trkpt lat="42.89288" lon="0.19963">
        <ele>2143.1</ele>
        <time>2011-05-15T09:47:34Z</time>
      </trkpt>
      <trkpt lat="42.8929" lon="0.19969">
        <ele>2144</ele>
        <time>2011-05-15T09:47:38Z</time>
      </trkpt>
      <trkpt lat="42.89293" lon="0.19973">
        <ele>2143.8</ele>
        <time>2011-05-15T09:47:55Z</time>
      </trkpt>
      <trkpt lat="42.89297" lon="0.19977">
        <ele>2145.1</ele>
        <time>2011-05-15T09:47:56Z</time>
      </trkpt>
      <trkpt lat="42.893" lon="0.19986">
        <ele>2144.4</ele>
        <time>2011-05-15T09:47:58Z</time>
      </trkpt>
      <trkpt lat="42.89302" lon="0.19993">
        <ele>2142.7</ele>
        <time>2011-05-15T09:48:00Z</time>
      </trkpt>
      <trkpt lat="42.89301" lon="0.19987">
        <ele>2142.9</ele>
        <time>2011-05-15T09:48:01Z</time>
      </trkpt>
      <trkpt lat="42.893" lon="0.19994">
        <ele>2149.7</ele>
        <time>2011-05-15T09:48:10Z</time>
      </trkpt>
      <trkpt lat="42.89297" lon="0.19999">
        <ele>2155.4</ele>
        <time>2011-05-15T09:48:21Z</time>
      </trkpt>
      <trkpt lat="42.89292" lon="0.2">
        <ele>2159.4</ele>
        <time>2011-05-15T09:48:31Z</time>
      </trkpt>
      <trkpt lat="42.89287" lon="0.2">
        <ele>2162.3</ele>
        <time>2011-05-15T09:48:42Z</time>
      </trkpt>
      <trkpt lat="42.89284" lon="0.20005">
        <ele>2161.2</ele>
        <time>2011-05-15T09:49:19Z</time>
      </trkpt>
      <trkpt lat="42.8928" lon="0.20009">
        <ele>2160.5</ele>
        <time>2011-05-15T09:49:25Z</time>
      </trkpt>
      <trkpt lat="42.89284" lon="0.20013">
        <ele>2160.2</ele>
        <time>2011-05-15T09:49:36Z</time>
      </trkpt>
      <trkpt lat="42.89282" lon="0.20019">
        <ele>2161.6</ele>
        <time>2011-05-15T09:49:48Z</time>
      </trkpt>
      <trkpt lat="42.89286" lon="0.20023">
        <ele>2162.8</ele>
        <time>2011-05-15T09:49:54Z</time>
      </trkpt>
      <trkpt lat="42.89277" lon="0.20025">
        <ele>2168.9</ele>
        <time>2011-05-15T09:50:22Z</time>
      </trkpt>
      <trkpt lat="42.89272" lon="0.20026">
        <ele>2172.2</ele>
        <time>2011-05-15T09:50:28Z</time>
      </trkpt>
      <trkpt lat="42.89277" lon="0.20029">
        <ele>2172.1</ele>
        <time>2011-05-15T09:50:37Z</time>
      </trkpt>
      <trkpt lat="42.89275" lon="0.20035">
        <ele>2172</ele>
        <time>2011-05-15T09:50:58Z</time>
      </trkpt>
      <trkpt lat="42.89276" lon="0.20041">
        <ele>2171.5</ele>
        <time>2011-05-15T09:51:04Z</time>
      </trkpt>
      <trkpt lat="42.89275" lon="0.20048">
        <ele>2171.3</ele>
        <time>2011-05-15T09:51:12Z</time>
      </trkpt>
      <trkpt lat="42.89275" lon="0.20054">
        <ele>2172.1</ele>
        <time>2011-05-15T09:51:24Z</time>
      </trkpt>
      <trkpt lat="42.89272" lon="0.2006">
        <ele>2172.7</ele>
        <time>2011-05-15T09:51:33Z</time>
      </trkpt>
      <trkpt lat="42.8927" lon="0.20065">
        <ele>2175.4</ele>
        <time>2011-05-15T09:51:48Z</time>
      </trkpt>
      <trkpt lat="42.89266" lon="0.20071">
        <ele>2181.5</ele>
        <time>2011-05-15T09:51:56Z</time>
      </trkpt>
      <trkpt lat="42.89261" lon="0.20072">
        <ele>2184.4</ele>
        <time>2011-05-15T09:52:05Z</time>
      </trkpt>
      <trkpt lat="42.89258" lon="0.20078">
        <ele>2183.2</ele>
        <time>2011-05-15T09:52:11Z</time>
      </trkpt>
      <trkpt lat="42.89255" lon="0.20083">
        <ele>2183.4</ele>
        <time>2011-05-15T09:52:25Z</time>
      </trkpt>
      <trkpt lat="42.89249" lon="0.20086">
        <ele>2186.4</ele>
        <time>2011-05-15T09:52:31Z</time>
      </trkpt>
      <trkpt lat="42.89246" lon="0.20081">
        <ele>2185.2</ele>
        <time>2011-05-15T09:53:29Z</time>
      </trkpt>
      <trkpt lat="42.89241" lon="0.20081">
        <ele>2184.1</ele>
        <time>2011-05-15T09:53:31Z</time>
      </trkpt>
      <trkpt lat="42.89237" lon="0.20085">
        <ele>2184.1</ele>
        <time>2011-05-15T09:53:37Z</time>
      </trkpt>
      <trkpt lat="42.89232" lon="0.20084">
        <ele>2184</ele>
        <time>2011-05-15T09:53:44Z</time>
      </trkpt>
      <trkpt lat="42.89228" lon="0.2008">
        <ele>2183.4</ele>
        <time>2011-05-15T09:53:50Z</time>
      </trkpt>
      <trkpt lat="42.89223" lon="0.20082">
        <ele>2187.7</ele>
        <time>2011-05-15T09:53:58Z</time>
      </trkpt>
      <trkpt lat="42.89218" lon="0.20085">
        <ele>2185.7</ele>
        <time>2011-05-15T09:54:05Z</time>
      </trkpt>
      <trkpt lat="42.89215" lon="0.20091">
        <ele>2184.7</ele>
        <time>2011-05-15T09:54:13Z</time>
      </trkpt>
      <trkpt lat="42.89209" lon="0.20091">
        <ele>2185.4</ele>
        <time>2011-05-15T09:54:28Z</time>
      </trkpt>
      <trkpt lat="42.89206" lon="0.20096">
        <ele>2184.6</ele>
        <time>2011-05-15T09:54:31Z</time>
      </trkpt>
      <trkpt lat="42.89201" lon="0.201">
        <ele>2179</ele>
        <time>2011-05-15T09:54:42Z</time>
      </trkpt>
      <trkpt lat="42.89196" lon="0.201">
        <ele>2179.7</ele>
        <time>2011-05-15T09:54:47Z</time>
      </trkpt>
      <trkpt lat="42.8919" lon="0.201">
        <ele>2179.8</ele>
        <time>2011-05-15T09:54:52Z</time>
      </trkpt>
      <trkpt lat="42.89186" lon="0.20099">
        <ele>2181.1</ele>
        <time>2011-05-15T09:54:56Z</time>
      </trkpt>
      <trkpt lat="42.89182" lon="0.20096">
        <ele>2181.2</ele>
        <time>2011-05-15T09:55:00Z</time>
      </trkpt>
      <trkpt lat="42.89178" lon="0.20093">
        <ele>2182</ele>
        <time>2011-05-15T09:55:04Z</time>
      </trkpt>
      <trkpt lat="42.89173" lon="0.20095">
        <ele>2183</ele>
        <time>2011-05-15T09:55:09Z</time>
      </trkpt>
      <trkpt lat="42.89167" lon="0.20092">
        <ele>2183.3</ele>
        <time>2011-05-15T09:55:15Z</time>
      </trkpt>
      <trkpt lat="42.89163" lon="0.2009">
        <ele>2178.5</ele>
        <time>2011-05-15T09:55:46Z</time>
      </trkpt>
      <trkpt lat="42.89158" lon="0.20087">
        <ele>2182.8</ele>
        <time>2011-05-15T09:55:57Z</time>
      </trkpt>
      <trkpt lat="42.89154" lon="0.20087">
        <ele>2183.3</ele>
        <time>2011-05-15T09:56:04Z</time>
      </trkpt>
      <trkpt lat="42.8915" lon="0.20084">
        <ele>2186.7</ele>
        <time>2011-05-15T09:56:14Z</time>
      </trkpt>
      <trkpt lat="42.89145" lon="0.20082">
        <ele>2187</ele>
        <time>2011-05-15T09:56:25Z</time>
      </trkpt>
      <trkpt lat="42.89141" lon="0.20086">
        <ele>2190</ele>
        <time>2011-05-15T09:56:36Z</time>
      </trkpt>
      <trkpt lat="42.89139" lon="0.20092">
        <ele>2191.3</ele>
        <time>2011-05-15T09:57:16Z</time>
      </trkpt>
      <trkpt lat="42.89137" lon="0.201">
        <ele>2192.2</ele>
        <time>2011-05-15T09:57:21Z</time>
      </trkpt>
      <trkpt lat="42.89133" lon="0.20104">
        <ele>2194.8</ele>
        <time>2011-05-15T09:57:40Z</time>
      </trkpt>
      <trkpt lat="42.89129" lon="0.20104">
        <ele>2197.1</ele>
        <time>2011-05-15T09:57:46Z</time>
      </trkpt>
      <trkpt lat="42.89124" lon="0.20106">
        <ele>2197.9</ele>
        <time>2011-05-15T09:57:50Z</time>
      </trkpt>
      <trkpt lat="42.8912" lon="0.2011">
        <ele>2201.3</ele>
        <time>2011-05-15T09:58:06Z</time>
      </trkpt>
      <trkpt lat="42.89116" lon="0.20112">
        <ele>2204.4</ele>
        <time>2011-05-15T09:58:25Z</time>
      </trkpt>
      <trkpt lat="42.89114" lon="0.20118">
        <ele>2207.7</ele>
        <time>2011-05-15T09:58:43Z</time>
      </trkpt>
      <trkpt lat="42.89113" lon="0.20125">
        <ele>2210.1</ele>
        <time>2011-05-15T09:58:49Z</time>
      </trkpt>
      <trkpt lat="42.8911" lon="0.20129">
        <ele>2210.2</ele>
        <time>2011-05-15T09:58:54Z</time>
      </trkpt>
      <trkpt lat="42.89106" lon="0.20133">
        <ele>2212.9</ele>
        <time>2011-05-15T09:59:02Z</time>
      </trkpt>
      <trkpt lat="42.89102" lon="0.20137">
        <ele>2211.3</ele>
        <time>2011-05-15T09:59:07Z</time>
      </trkpt>
      <trkpt lat="42.89098" lon="0.20141">
        <ele>2210.7</ele>
        <time>2011-05-15T09:59:14Z</time>
      </trkpt>
      <trkpt lat="42.89093" lon="0.20142">
        <ele>2209.9</ele>
        <time>2011-05-15T10:05:51Z</time>
      </trkpt>
      <trkpt lat="42.89091" lon="0.20152">
        <ele>2208.6</ele>
        <time>2011-05-15T10:06:27Z</time>
      </trkpt>
      <trkpt lat="42.89085" lon="0.20155">
        <ele>2209.9</ele>
        <time>2011-05-15T10:06:37Z</time>
      </trkpt>
      <trkpt lat="42.8908" lon="0.20157">
        <ele>2209.3</ele>
        <time>2011-05-15T10:07:07Z</time>
      </trkpt>
      <trkpt lat="42.89077" lon="0.20163">
        <ele>2205.2</ele>
        <time>2011-05-15T10:07:23Z</time>
      </trkpt>
      <trkpt lat="42.89075" lon="0.20168">
        <ele>2205.5</ele>
        <time>2011-05-15T10:07:31Z</time>
      </trkpt>
      <trkpt lat="42.89073" lon="0.20174">
        <ele>2206</ele>
        <time>2011-05-15T10:07:37Z</time>
      </trkpt>
      <trkpt lat="42.8907" lon="0.2018">
        <ele>2204.9</ele>
        <time>2011-05-15T10:07:43Z</time>
      </trkpt>
      <trkpt lat="42.89071" lon="0.20187">
        <ele>2202.9</ele>
        <time>2011-05-15T10:07:47Z</time>
      </trkpt>
      <trkpt lat="42.89066" lon="0.20191">
        <ele>2201.8</ele>
        <time>2011-05-15T10:07:54Z</time>
      </trkpt>
      <trkpt lat="42.89064" lon="0.20197">
        <ele>2203.1</ele>
        <time>2011-05-15T10:08:10Z</time>
      </trkpt>
      <trkpt lat="42.89061" lon="0.20201">
        <ele>2204.5</ele>
        <time>2011-05-15T10:08:22Z</time>
      </trkpt>
      <trkpt lat="42.89057" lon="0.20205">
        <ele>2205.4</ele>
        <time>2011-05-15T10:08:28Z</time>
      </trkpt>
      <trkpt lat="42.89053" lon="0.20208">
        <ele>2205.8</ele>
        <time>2011-05-15T10:08:33Z</time>
      </trkpt>
      <trkpt lat="42.89049" lon="0.20211">
        <ele>2206.4</ele>
        <time>2011-05-15T10:08:44Z</time>
      </trkpt>
      <trkpt lat="42.89044" lon="0.20215">
        <ele>2204.4</ele>
        <time>2011-05-15T10:08:50Z</time>
      </trkpt>
      <trkpt lat="42.89041" lon="0.2022">
        <ele>2204.6</ele>
        <time>2011-05-15T10:09:02Z</time>
      </trkpt>
      <trkpt lat="42.89039" lon="0.20226">
        <ele>2202.5</ele>
        <time>2011-05-15T10:09:15Z</time>
      </trkpt>
      <trkpt lat="42.89041" lon="0.20232">
        <ele>2202.7</ele>
        <time>2011-05-15T10:09:32Z</time>
      </trkpt>
      <trkpt lat="42.89037" lon="0.20237">
        <ele>2206</ele>
        <time>2011-05-15T10:09:55Z</time>
      </trkpt>
      <trkpt lat="42.89034" lon="0.20243">
        <ele>2204.6</ele>
        <time>2011-05-15T10:10:35Z</time>
      </trkpt>
      <trkpt lat="42.8903" lon="0.20242">
        <ele>2210.8</ele>
        <time>2011-05-15T10:10:40Z</time>
      </trkpt>
      <trkpt lat="42.89026" lon="0.20248">
        <ele>2207.7</ele>
        <time>2011-05-15T10:10:45Z</time>
      </trkpt>
      <trkpt lat="42.89024" lon="0.20253">
        <ele>2208.3</ele>
        <time>2011-05-15T10:10:48Z</time>
      </trkpt>
      <trkpt lat="42.89021" lon="0.20259">
        <ele>2205.2</ele>
        <time>2011-05-15T10:11:03Z</time>
      </trkpt>
      <trkpt lat="42.89014" lon="0.20262">
        <ele>2203.7</ele>
        <time>2011-05-15T10:11:06Z</time>
      </trkpt>
      <trkpt lat="42.89011" lon="0.20268">
        <ele>2201.8</ele>
        <time>2011-05-15T10:11:13Z</time>
      </trkpt>
      <trkpt lat="42.89005" lon="0.20271">
        <ele>2198.9</ele>
        <time>2011-05-15T10:11:17Z</time>
      </trkpt>
      <trkpt lat="42.89002" lon="0.20276">
        <ele>2199.4</ele>
        <time>2011-05-15T10:11:21Z</time>
      </trkpt>
      <trkpt lat="42.88998" lon="0.20281">
        <ele>2199.1</ele>
        <time>2011-05-15T10:11:27Z</time>
      </trkpt>
      <trkpt lat="42.88995" lon="0.20287">
        <ele>2195.2</ele>
        <time>2011-05-15T10:11:35Z</time>
      </trkpt>
      <trkpt lat="42.88992" lon="0.20292">
        <ele>2193.4</ele>
        <time>2011-05-15T10:11:42Z</time>
      </trkpt>
      <trkpt lat="42.88989" lon="0.20298">
        <ele>2193.7</ele>
        <time>2011-05-15T10:11:51Z</time>
      </trkpt>
      <trkpt lat="42.88988" lon="0.20304">
        <ele>2192</ele>
        <time>2011-05-15T10:12:00Z</time>
      </trkpt>
      <trkpt lat="42.88983" lon="0.20305">
        <ele>2192.4</ele>
        <time>2011-05-15T10:12:31Z</time>
      </trkpt>
      <trkpt lat="42.88979" lon="0.20309">
        <ele>2192.3</ele>
        <time>2011-05-15T10:12:42Z</time>
      </trkpt>
      <trkpt lat="42.88977" lon="0.20316">
        <ele>2191.7</ele>
        <time>2011-05-15T10:12:52Z</time>
      </trkpt>
      <trkpt lat="42.88977" lon="0.20322">
        <ele>2190.4</ele>
        <time>2011-05-15T10:13:06Z</time>
      </trkpt>
      <trkpt lat="42.88976" lon="0.20328">
        <ele>2187.8</ele>
        <time>2011-05-15T10:13:21Z</time>
      </trkpt>
      <trkpt lat="42.88974" lon="0.20334">
        <ele>2187.3</ele>
        <time>2011-05-15T10:13:37Z</time>
      </trkpt>
      <trkpt lat="42.8897" lon="0.2034">
        <ele>2183</ele>
        <time>2011-05-15T10:13:45Z</time>
      </trkpt>
      <trkpt lat="42.88967" lon="0.20344">
        <ele>2180.2</ele>
        <time>2011-05-15T10:13:52Z</time>
      </trkpt>
      <trkpt lat="42.88968" lon="0.2035">
        <ele>2179.8</ele>
        <time>2011-05-15T10:13:59Z</time>
      </trkpt>
      <trkpt lat="42.88966" lon="0.20356">
        <ele>2178.3</ele>
        <time>2011-05-15T10:14:14Z</time>
      </trkpt>
      <trkpt lat="42.88963" lon="0.20361">
        <ele>2177.3</ele>
        <time>2011-05-15T10:14:25Z</time>
      </trkpt>
      <trkpt lat="42.88958" lon="0.20361">
        <ele>2179.5</ele>
        <time>2011-05-15T10:14:34Z</time>
      </trkpt>
      <trkpt lat="42.88956" lon="0.20366">
        <ele>2177.8</ele>
        <time>2011-05-15T10:14:48Z</time>
      </trkpt>
      <trkpt lat="42.88952" lon="0.20368">
        <ele>2174.5</ele>
        <time>2011-05-15T10:15:21Z</time>
      </trkpt>
      <trkpt lat="42.88949" lon="0.20373">
        <ele>2175.2</ele>
        <time>2011-05-15T10:15:40Z</time>
      </trkpt>
      <trkpt lat="42.88945" lon="0.20377">
        <ele>2176.4</ele>
        <time>2011-05-15T10:15:51Z</time>
      </trkpt>
      <trkpt lat="42.88943" lon="0.20383">
        <ele>2177.3</ele>
        <time>2011-05-15T10:16:15Z</time>
      </trkpt>
      <trkpt lat="42.88939" lon="0.20377">
        <ele>2175.7</ele>
        <time>2011-05-15T10:16:40Z</time>
      </trkpt>
      <trkpt lat="42.88934" lon="0.20382">
        <ele>2171.4</ele>
        <time>2011-05-15T10:16:49Z</time>
      </trkpt>
      <trkpt lat="42.88931" lon="0.20389">
        <ele>2168.8</ele>
        <time>2011-05-15T10:16:55Z</time>
      </trkpt>
      <trkpt lat="42.88926" lon="0.20392">
        <ele>2169.8</ele>
        <time>2011-05-15T10:17:02Z</time>
      </trkpt>
      <trkpt lat="42.88926" lon="0.20399">
        <ele>2168.1</ele>
        <time>2011-05-15T10:17:08Z</time>
      </trkpt>
      <trkpt lat="42.88921" lon="0.20401">
        <ele>2166.5</ele>
        <time>2011-05-15T10:17:13Z</time>
      </trkpt>
      <trkpt lat="42.88918" lon="0.20406">
        <ele>2166.2</ele>
        <time>2011-05-15T10:17:20Z</time>
      </trkpt>
      <trkpt lat="42.88917" lon="0.20412">
        <ele>2165.6</ele>
        <time>2011-05-15T10:17:25Z</time>
      </trkpt>
      <trkpt lat="42.88914" lon="0.20417">
        <ele>2165.3</ele>
        <time>2011-05-15T10:17:32Z</time>
      </trkpt>
      <trkpt lat="42.88911" lon="0.20422">
        <ele>2166.2</ele>
        <time>2011-05-15T10:17:38Z</time>
      </trkpt>
      <trkpt lat="42.88907" lon="0.20424">
        <ele>2167</ele>
        <time>2011-05-15T10:17:46Z</time>
      </trkpt>
      <trkpt lat="42.88903" lon="0.20428">
        <ele>2165.9</ele>
        <time>2011-05-15T10:17:51Z</time>
      </trkpt>
      <trkpt lat="42.88902" lon="0.20434">
        <ele>2167.1</ele>
        <time>2011-05-15T10:18:05Z</time>
      </trkpt>
      <trkpt lat="42.889" lon="0.2044">
        <ele>2167.9</ele>
        <time>2011-05-15T10:18:19Z</time>
      </trkpt>
      <trkpt lat="42.88901" lon="0.20446">
        <ele>2169.7</ele>
        <time>2011-05-15T10:18:30Z</time>
      </trkpt>
      <trkpt lat="42.88902" lon="0.20452">
        <ele>2168.6</ele>
        <time>2011-05-15T10:18:34Z</time>
      </trkpt>
      <trkpt lat="42.88901" lon="0.20458">
        <ele>2167.3</ele>
        <time>2011-05-15T10:18:40Z</time>
      </trkpt>
      <trkpt lat="42.88898" lon="0.20464">
        <ele>2167.4</ele>
        <time>2011-05-15T10:18:48Z</time>
      </trkpt>
      <trkpt lat="42.88894" lon="0.20468">
        <ele>2167.9</ele>
        <time>2011-05-15T10:19:02Z</time>
      </trkpt>
      <trkpt lat="42.88897" lon="0.20473">
        <ele>2168.3</ele>
        <time>2011-05-15T10:19:11Z</time>
      </trkpt>
      <trkpt lat="42.88895" lon="0.20479">
        <ele>2168.5</ele>
        <time>2011-05-15T10:19:29Z</time>
      </trkpt>
      <trkpt lat="42.88894" lon="0.20485">
        <ele>2169.6</ele>
        <time>2011-05-15T10:19:35Z</time>
      </trkpt>
      <trkpt lat="42.88891" lon="0.20491">
        <ele>2169.1</ele>
        <time>2011-05-15T10:19:41Z</time>
      </trkpt>
      <trkpt lat="42.88889" lon="0.20497">
        <ele>2167.1</ele>
        <time>2011-05-15T10:19:51Z</time>
      </trkpt>
      <trkpt lat="42.88889" lon="0.20504">
        <ele>2166.3</ele>
        <time>2011-05-15T10:19:59Z</time>
      </trkpt>
      <trkpt lat="42.88885" lon="0.20508">
        <ele>2169.3</ele>
        <time>2011-05-15T10:20:06Z</time>
      </trkpt>
      <trkpt lat="42.88883" lon="0.20514">
        <ele>2171.3</ele>
        <time>2011-05-15T10:20:17Z</time>
      </trkpt>
      <trkpt lat="42.8888" lon="0.20518">
        <ele>2173</ele>
        <time>2011-05-15T10:20:29Z</time>
      </trkpt>
      <trkpt lat="42.88875" lon="0.20516">
        <ele>2174.3</ele>
        <time>2011-05-15T10:20:45Z</time>
      </trkpt>
      <trkpt lat="42.8887" lon="0.20515">
        <ele>2176.1</ele>
        <time>2011-05-15T10:20:53Z</time>
      </trkpt>
      <trkpt lat="42.88866" lon="0.20512">
        <ele>2176.4</ele>
        <time>2011-05-15T10:21:02Z</time>
      </trkpt>
      <trkpt lat="42.88861" lon="0.20513">
        <ele>2177.3</ele>
        <time>2011-05-15T10:21:10Z</time>
      </trkpt>
      <trkpt lat="42.88856" lon="0.20512">
        <ele>2177.6</ele>
        <time>2011-05-15T10:21:19Z</time>
      </trkpt>
      <trkpt lat="42.88852" lon="0.20514">
        <ele>2176.9</ele>
        <time>2011-05-15T10:21:33Z</time>
      </trkpt>
      <trkpt lat="42.88847" lon="0.20514">
        <ele>2178.5</ele>
        <time>2011-05-15T10:21:46Z</time>
      </trkpt>
      <trkpt lat="42.88843" lon="0.20511">
        <ele>2179.3</ele>
        <time>2011-05-15T10:21:54Z</time>
      </trkpt>
      <trkpt lat="42.88838" lon="0.20513">
        <ele>2178.1</ele>
        <time>2011-05-15T10:21:59Z</time>
      </trkpt>
      <trkpt lat="42.88833" lon="0.20516">
        <ele>2178.4</ele>
        <time>2011-05-15T10:22:17Z</time>
      </trkpt>
      <trkpt lat="42.88829" lon="0.20519">
        <ele>2178.1</ele>
        <time>2011-05-15T10:22:23Z</time>
      </trkpt>
      <trkpt lat="42.88825" lon="0.20522">
        <ele>2174.8</ele>
        <time>2011-05-15T10:22:30Z</time>
      </trkpt>
      <trkpt lat="42.8882" lon="0.20519">
        <ele>2174.4</ele>
        <time>2011-05-15T10:22:40Z</time>
      </trkpt>
      <trkpt lat="42.88815" lon="0.20519">
        <ele>2169.2</ele>
        <time>2011-05-15T10:22:46Z</time>
      </trkpt>
      <trkpt lat="42.8881" lon="0.20521">
        <ele>2168.1</ele>
        <time>2011-05-15T10:22:53Z</time>
      </trkpt>
      <trkpt lat="42.88806" lon="0.20524">
        <ele>2168.2</ele>
        <time>2011-05-15T10:23:08Z</time>
      </trkpt>
      <trkpt lat="42.88801" lon="0.20522">
        <ele>2169.3</ele>
        <time>2011-05-15T10:23:23Z</time>
      </trkpt>
      <trkpt lat="42.88797" lon="0.20525">
        <ele>2163.4</ele>
        <time>2011-05-15T10:23:32Z</time>
      </trkpt>
      <trkpt lat="42.88792" lon="0.20526">
        <ele>2162.3</ele>
        <time>2011-05-15T10:23:40Z</time>
      </trkpt>
      <trkpt lat="42.88787" lon="0.20526">
        <ele>2161.8</ele>
        <time>2011-05-15T10:23:57Z</time>
      </trkpt>
      <trkpt lat="42.88782" lon="0.20522">
        <ele>2163.3</ele>
        <time>2011-05-15T10:24:20Z</time>
      </trkpt>
      <trkpt lat="42.88778" lon="0.20524">
        <ele>2165.7</ele>
        <time>2011-05-15T10:24:28Z</time>
      </trkpt>
      <trkpt lat="42.88772" lon="0.20523">
        <ele>2164.5</ele>
        <time>2011-05-15T10:24:40Z</time>
      </trkpt>
      <trkpt lat="42.88768" lon="0.20526">
        <ele>2164.3</ele>
        <time>2011-05-15T10:24:54Z</time>
      </trkpt>
      <trkpt lat="42.88764" lon="0.20524">
        <ele>2166</ele>
        <time>2011-05-15T10:24:59Z</time>
      </trkpt>
      <trkpt lat="42.88759" lon="0.20525">
        <ele>2164.5</ele>
        <time>2011-05-15T10:25:14Z</time>
      </trkpt>
      <trkpt lat="42.88755" lon="0.20527">
        <ele>2164</ele>
        <time>2011-05-15T10:25:18Z</time>
      </trkpt>
      <trkpt lat="42.88751" lon="0.20532">
        <ele>2164.3</ele>
        <time>2011-05-15T10:25:26Z</time>
      </trkpt>
      <trkpt lat="42.88747" lon="0.20538">
        <ele>2166.6</ele>
        <time>2011-05-15T10:25:31Z</time>
      </trkpt>
      <trkpt lat="42.88743" lon="0.20541">
        <ele>2168.7</ele>
        <time>2011-05-15T10:26:10Z</time>
      </trkpt>
      <trkpt lat="42.88739" lon="0.2054">
        <ele>2166.8</ele>
        <time>2011-05-15T10:26:18Z</time>
      </trkpt>
      <trkpt lat="42.88734" lon="0.2054">
        <ele>2162.8</ele>
        <time>2011-05-15T10:26:57Z</time>
      </trkpt>
      <trkpt lat="42.88728" lon="0.20538">
        <ele>2164.5</ele>
        <time>2011-05-15T10:27:03Z</time>
      </trkpt>
      <trkpt lat="42.88724" lon="0.20537">
        <ele>2164.2</ele>
        <time>2011-05-15T10:27:05Z</time>
      </trkpt>
      <trkpt lat="42.88719" lon="0.20538">
        <ele>2161.1</ele>
        <time>2011-05-15T10:27:48Z</time>
      </trkpt>
      <trkpt lat="42.88714" lon="0.20539">
        <ele>2163.3</ele>
        <time>2011-05-15T10:28:16Z</time>
      </trkpt>
      <trkpt lat="42.8871" lon="0.20542">
        <ele>2163.2</ele>
        <time>2011-05-15T10:28:27Z</time>
      </trkpt>
      <trkpt lat="42.88705" lon="0.20543">
        <ele>2159.9</ele>
        <time>2011-05-15T10:28:37Z</time>
      </trkpt>
      <trkpt lat="42.887" lon="0.20542">
        <ele>2159.7</ele>
        <time>2011-05-15T10:28:41Z</time>
      </trkpt>
      <trkpt lat="42.88695" lon="0.20544">
        <ele>2159.7</ele>
        <time>2011-05-15T10:28:46Z</time>
      </trkpt>
      <trkpt lat="42.8869" lon="0.20544">
        <ele>2159</ele>
        <time>2011-05-15T10:28:52Z</time>
      </trkpt>
      <trkpt lat="42.88686" lon="0.20545">
        <ele>2158.1</ele>
        <time>2011-05-15T10:29:12Z</time>
      </trkpt>
      <trkpt lat="42.88681" lon="0.20543">
        <ele>2157.8</ele>
        <time>2011-05-15T10:29:16Z</time>
      </trkpt>
      <trkpt lat="42.88676" lon="0.20544">
        <ele>2157.5</ele>
        <time>2011-05-15T10:29:21Z</time>
      </trkpt>
      <trkpt lat="42.88671" lon="0.20545">
        <ele>2156.4</ele>
        <time>2011-05-15T10:29:27Z</time>
      </trkpt>
      <trkpt lat="42.88665" lon="0.20547">
        <ele>2157.5</ele>
        <time>2011-05-15T10:29:35Z</time>
      </trkpt>
      <trkpt lat="42.8866" lon="0.20548">
        <ele>2158.6</ele>
        <time>2011-05-15T10:29:40Z</time>
      </trkpt>
      <trkpt lat="42.88659" lon="0.20554">
        <ele>2162.6</ele>
        <time>2011-05-15T10:29:54Z</time>
      </trkpt>
      <trkpt lat="42.88656" lon="0.2056">
        <ele>2165.4</ele>
        <time>2011-05-15T10:30:02Z</time>
      </trkpt>
      <trkpt lat="42.88654" lon="0.20565">
        <ele>2162.1</ele>
        <time>2011-05-15T10:30:10Z</time>
      </trkpt>
      <trkpt lat="42.88649" lon="0.20568">
        <ele>2161.6</ele>
        <time>2011-05-15T10:30:21Z</time>
      </trkpt>
      <trkpt lat="42.88645" lon="0.20571">
        <ele>2161.3</ele>
        <time>2011-05-15T10:30:34Z</time>
      </trkpt>
      <trkpt lat="42.88641" lon="0.20575">
        <ele>2163.4</ele>
        <time>2011-05-15T10:30:46Z</time>
      </trkpt>
      <trkpt lat="42.88639" lon="0.20583">
        <ele>2163</ele>
        <time>2011-05-15T10:30:50Z</time>
      </trkpt>
      <trkpt lat="42.88636" lon="0.20588">
        <ele>2163.3</ele>
        <time>2011-05-15T10:30:52Z</time>
      </trkpt>
      <trkpt lat="42.88635" lon="0.20594">
        <ele>2166.4</ele>
        <time>2011-05-15T10:31:07Z</time>
      </trkpt>
      <trkpt lat="42.8863" lon="0.20599">
        <ele>2168.8</ele>
        <time>2011-05-15T10:31:24Z</time>
      </trkpt>
      <trkpt lat="42.88631" lon="0.20606">
        <ele>2167.2</ele>
        <time>2011-05-15T10:31:32Z</time>
      </trkpt>
      <trkpt lat="42.88627" lon="0.2061">
        <ele>2165.5</ele>
        <time>2011-05-15T10:31:36Z</time>
      </trkpt>
      <trkpt lat="42.88627" lon="0.20616">
        <ele>2166.6</ele>
        <time>2011-05-15T10:31:44Z</time>
      </trkpt>
      <trkpt lat="42.88622" lon="0.20621">
        <ele>2166</ele>
        <time>2011-05-15T10:31:48Z</time>
      </trkpt>
      <trkpt lat="42.88627" lon="0.20623">
        <ele>2167.7</ele>
        <time>2011-05-15T10:32:04Z</time>
      </trkpt>
      <trkpt lat="42.88623" lon="0.20626">
        <ele>2169.6</ele>
        <time>2011-05-15T10:32:14Z</time>
      </trkpt>
      <trkpt lat="42.88615" lon="0.20626">
        <ele>2169.7</ele>
        <time>2011-05-15T10:32:30Z</time>
      </trkpt>
      <trkpt lat="42.88611" lon="0.2063">
        <ele>2167</ele>
        <time>2011-05-15T10:32:42Z</time>
      </trkpt>
      <trkpt lat="42.88606" lon="0.20632">
        <ele>2168.7</ele>
        <time>2011-05-15T10:33:01Z</time>
      </trkpt>
      <trkpt lat="42.88602" lon="0.20625">
        <ele>2171.8</ele>
        <time>2011-05-15T10:33:13Z</time>
      </trkpt>
      <trkpt lat="42.88598" lon="0.20631">
        <ele>2170.8</ele>
        <time>2011-05-15T10:33:23Z</time>
      </trkpt>
      <trkpt lat="42.88592" lon="0.20631">
        <ele>2169</ele>
        <time>2011-05-15T10:33:40Z</time>
      </trkpt>
      <trkpt lat="42.88588" lon="0.20635">
        <ele>2167.5</ele>
        <time>2011-05-15T10:33:48Z</time>
      </trkpt>
      <trkpt lat="42.88583" lon="0.20637">
        <ele>2167.3</ele>
        <time>2011-05-15T10:33:52Z</time>
      </trkpt>
      <trkpt lat="42.88579" lon="0.20642">
        <ele>2163.6</ele>
        <time>2011-05-15T10:34:04Z</time>
      </trkpt>
      <trkpt lat="42.88575" lon="0.20645">
        <ele>2164</ele>
        <time>2011-05-15T10:34:18Z</time>
      </trkpt>
      <trkpt lat="42.88576" lon="0.20652">
        <ele>2163.3</ele>
        <time>2011-05-15T10:34:23Z</time>
      </trkpt>
      <trkpt lat="42.8857" lon="0.20654">
        <ele>2166.1</ele>
        <time>2011-05-15T10:34:45Z</time>
      </trkpt>
      <trkpt lat="42.88565" lon="0.20654">
        <ele>2167</ele>
        <time>2011-05-15T10:34:53Z</time>
      </trkpt>
      <trkpt lat="42.88561" lon="0.20653">
        <ele>2168.1</ele>
        <time>2011-05-15T10:35:05Z</time>
      </trkpt>
      <trkpt lat="42.88556" lon="0.20654">
        <ele>2169.4</ele>
        <time>2011-05-15T10:35:20Z</time>
      </trkpt>
      <trkpt lat="42.88551" lon="0.20654">
        <ele>2169.1</ele>
        <time>2011-05-15T10:35:23Z</time>
      </trkpt>
      <trkpt lat="42.88546" lon="0.20654">
        <ele>2169.8</ele>
        <time>2011-05-15T10:35:27Z</time>
      </trkpt>
      <trkpt lat="42.88541" lon="0.20652">
        <ele>2174.5</ele>
        <time>2011-05-15T10:35:37Z</time>
      </trkpt>
      <trkpt lat="42.88537" lon="0.20649">
        <ele>2178.4</ele>
        <time>2011-05-15T10:35:52Z</time>
      </trkpt>
      <trkpt lat="42.88533" lon="0.20644">
        <ele>2177.8</ele>
        <time>2011-05-15T10:36:03Z</time>
      </trkpt>
      <trkpt lat="42.8853" lon="0.20639">
        <ele>2177.9</ele>
        <time>2011-05-15T10:36:09Z</time>
      </trkpt>
      <trkpt lat="42.88528" lon="0.20634">
        <ele>2177.2</ele>
        <time>2011-05-15T10:36:17Z</time>
      </trkpt>
      <trkpt lat="42.88524" lon="0.20627">
        <ele>2177.3</ele>
        <time>2011-05-15T10:36:24Z</time>
      </trkpt>
      <trkpt lat="42.88521" lon="0.20621">
        <ele>2178.1</ele>
        <time>2011-05-15T10:36:30Z</time>
      </trkpt>
      <trkpt lat="42.88519" lon="0.20615">
        <ele>2178.4</ele>
        <time>2011-05-15T10:36:35Z</time>
      </trkpt>
      <trkpt lat="42.88512" lon="0.20614">
        <ele>2177.7</ele>
        <time>2011-05-15T10:36:40Z</time>
      </trkpt>
      <trkpt lat="42.88512" lon="0.20606">
        <ele>2176.7</ele>
        <time>2011-05-15T10:36:49Z</time>
      </trkpt>
      <trkpt lat="42.88507" lon="0.20601">
        <ele>2172.1</ele>
        <time>2011-05-15T10:36:57Z</time>
      </trkpt>
      <trkpt lat="42.88501" lon="0.20604">
        <ele>2173.8</ele>
        <time>2011-05-15T10:37:09Z</time>
      </trkpt>
      <trkpt lat="42.88497" lon="0.20601">
        <ele>2172.8</ele>
        <time>2011-05-15T10:37:11Z</time>
      </trkpt>
      <trkpt lat="42.88499" lon="0.20595">
        <ele>2169.8</ele>
        <time>2011-05-15T10:37:21Z</time>
      </trkpt>
      <trkpt lat="42.88498" lon="0.20601">
        <ele>2168.8</ele>
        <time>2011-05-15T10:37:42Z</time>
      </trkpt>
      <trkpt lat="42.88496" lon="0.20595">
        <ele>2170.3</ele>
        <time>2011-05-15T10:38:05Z</time>
      </trkpt>
      <trkpt lat="42.88491" lon="0.20591">
        <ele>2169.9</ele>
        <time>2011-05-15T10:38:46Z</time>
      </trkpt>
      <trkpt lat="42.8849" lon="0.20584">
        <ele>2171.2</ele>
        <time>2011-05-15T10:40:07Z</time>
      </trkpt>
      <trkpt lat="42.88485" lon="0.20582">
        <ele>2171</ele>
        <time>2011-05-15T10:40:14Z</time>
      </trkpt>
      <trkpt lat="42.88482" lon="0.20578">
        <ele>2172</ele>
        <time>2011-05-15T10:40:20Z</time>
      </trkpt>
      <trkpt lat="42.88484" lon="0.20573">
        <ele>2173.1</ele>
        <time>2011-05-15T10:40:24Z</time>
      </trkpt>
      <trkpt lat="42.88485" lon="0.20567">
        <ele>2172.9</ele>
        <time>2011-05-15T10:40:30Z</time>
      </trkpt>
      <trkpt lat="42.88482" lon="0.20562">
        <ele>2171.8</ele>
        <time>2011-05-15T10:40:36Z</time>
      </trkpt>
      <trkpt lat="42.88482" lon="0.20556">
        <ele>2170.1</ele>
        <time>2011-05-15T10:40:43Z</time>
      </trkpt>
      <trkpt lat="42.8848" lon="0.2055">
        <ele>2172.7</ele>
        <time>2011-05-15T10:40:54Z</time>
      </trkpt>
      <trkpt lat="42.88477" lon="0.20545">
        <ele>2172.8</ele>
        <time>2011-05-15T10:41:06Z</time>
      </trkpt>
      <trkpt lat="42.88472" lon="0.20541">
        <ele>2174.5</ele>
        <time>2011-05-15T10:41:11Z</time>
      </trkpt>
      <trkpt lat="42.88471" lon="0.20535">
        <ele>2173.8</ele>
        <time>2011-05-15T10:41:25Z</time>
      </trkpt>
      <trkpt lat="42.8847" lon="0.20529">
        <ele>2176</ele>
        <time>2011-05-15T10:41:35Z</time>
      </trkpt>
      <trkpt lat="42.88471" lon="0.20523">
        <ele>2176.2</ele>
        <time>2011-05-15T10:41:50Z</time>
      </trkpt>
      <trkpt lat="42.88471" lon="0.20517">
        <ele>2183.5</ele>
        <time>2011-05-15T10:42:08Z</time>
      </trkpt>
      <trkpt lat="42.88466" lon="0.20514">
        <ele>2184.4</ele>
        <time>2011-05-15T10:42:17Z</time>
      </trkpt>
      <trkpt lat="42.88466" lon="0.20508">
        <ele>2185.3</ele>
        <time>2011-05-15T10:43:14Z</time>
      </trkpt>
      <trkpt lat="42.88469" lon="0.20503">
        <ele>2185.7</ele>
        <time>2011-05-15T10:43:50Z</time>
      </trkpt>
      <trkpt lat="42.88472" lon="0.20497">
        <ele>2187</ele>
        <time>2011-05-15T10:44:26Z</time>
      </trkpt>
      <trkpt lat="42.88469" lon="0.20491">
        <ele>2187.4</ele>
        <time>2011-05-15T10:44:33Z</time>
      </trkpt>
      <trkpt lat="42.88467" lon="0.20485">
        <ele>2192.8</ele>
        <time>2011-05-15T10:44:44Z</time>
      </trkpt>
      <trkpt lat="42.88462" lon="0.20483">
        <ele>2194.8</ele>
        <time>2011-05-15T10:44:53Z</time>
      </trkpt>
      <trkpt lat="42.88458" lon="0.20483">
        <ele>2196.9</ele>
        <time>2011-05-15T10:45:01Z</time>
      </trkpt>
      <trkpt lat="42.88454" lon="0.20479">
        <ele>2196.2</ele>
        <time>2011-05-15T10:45:19Z</time>
      </trkpt>
      <trkpt lat="42.88451" lon="0.20474">
        <ele>2196.1</ele>
        <time>2011-05-15T10:45:31Z</time>
      </trkpt>
      <trkpt lat="42.88448" lon="0.2047">
        <ele>2202.1</ele>
        <time>2011-05-15T10:45:49Z</time>
      </trkpt>
      <trkpt lat="42.88443" lon="0.20469">
        <ele>2202.5</ele>
        <time>2011-05-15T10:45:55Z</time>
      </trkpt>
      <trkpt lat="42.88441" lon="0.20463">
        <ele>2204.8</ele>
        <time>2011-05-15T10:46:05Z</time>
      </trkpt>
      <trkpt lat="42.88442" lon="0.20455">
        <ele>2203.8</ele>
        <time>2011-05-15T10:46:23Z</time>
      </trkpt>
      <trkpt lat="42.88446" lon="0.20449">
        <ele>2203.1</ele>
        <time>2011-05-15T10:46:29Z</time>
      </trkpt>
      <trkpt lat="42.88452" lon="0.20444">
        <ele>2202.5</ele>
        <time>2011-05-15T10:46:35Z</time>
      </trkpt>
      <trkpt lat="42.88448" lon="0.20441">
        <ele>2210.5</ele>
        <time>2011-05-15T10:47:01Z</time>
      </trkpt>
      <trkpt lat="42.88443" lon="0.20439">
        <ele>2212.3</ele>
        <time>2011-05-15T10:47:09Z</time>
      </trkpt>
      <trkpt lat="42.88438" lon="0.20437">
        <ele>2211.4</ele>
        <time>2011-05-15T10:47:13Z</time>
      </trkpt>
      <trkpt lat="42.88435" lon="0.20441">
        <ele>2215.8</ele>
        <time>2011-05-15T10:47:19Z</time>
      </trkpt>
      <trkpt lat="42.8843" lon="0.20439">
        <ele>2216.8</ele>
        <time>2011-05-15T10:47:24Z</time>
      </trkpt>
      <trkpt lat="42.88426" lon="0.20436">
        <ele>2219.5</ele>
        <time>2011-05-15T10:47:32Z</time>
      </trkpt>
      <trkpt lat="42.88421" lon="0.20436">
        <ele>2222.1</ele>
        <time>2011-05-15T10:47:39Z</time>
      </trkpt>
      <trkpt lat="42.88422" lon="0.2043">
        <ele>2219.6</ele>
        <time>2011-05-15T10:47:44Z</time>
      </trkpt>
      <trkpt lat="42.88418" lon="0.20433">
        <ele>2220</ele>
        <time>2011-05-15T10:48:02Z</time>
      </trkpt>
      <trkpt lat="42.88414" lon="0.20428">
        <ele>2221.1</ele>
        <time>2011-05-15T10:48:06Z</time>
      </trkpt>
      <trkpt lat="42.88413" lon="0.20421">
        <ele>2229.6</ele>
        <time>2011-05-15T10:48:22Z</time>
      </trkpt>
      <trkpt lat="42.88408" lon="0.20418">
        <ele>2233.5</ele>
        <time>2011-05-15T10:48:32Z</time>
      </trkpt>
      <trkpt lat="42.88406" lon="0.20423">
        <ele>2234.8</ele>
        <time>2011-05-15T10:48:40Z</time>
      </trkpt>
      <trkpt lat="42.88408" lon="0.20431">
        <ele>2234.2</ele>
        <time>2011-05-15T10:48:48Z</time>
      </trkpt>
      <trkpt lat="42.88408" lon="0.20424">
        <ele>2236.5</ele>
        <time>2011-05-15T10:48:52Z</time>
      </trkpt>
      <trkpt lat="42.88403" lon="0.20427">
        <ele>2237.9</ele>
        <time>2011-05-15T10:49:02Z</time>
      </trkpt>
      <trkpt lat="42.88403" lon="0.20435">
        <ele>2238.9</ele>
        <time>2011-05-15T10:49:12Z</time>
      </trkpt>
      <trkpt lat="42.88398" lon="0.20443">
        <ele>2238.7</ele>
        <time>2011-05-15T10:49:15Z</time>
      </trkpt>
      <trkpt lat="42.88397" lon="0.2045">
        <ele>2238.2</ele>
        <time>2011-05-15T10:49:17Z</time>
      </trkpt>
      <trkpt lat="42.88392" lon="0.20452">
        <ele>2238.3</ele>
        <time>2011-05-15T10:49:28Z</time>
      </trkpt>
      <trkpt lat="42.88389" lon="0.20458">
        <ele>2237.8</ele>
        <time>2011-05-15T10:49:34Z</time>
      </trkpt>
      <trkpt lat="42.88387" lon="0.20465">
        <ele>2238</ele>
        <time>2011-05-15T10:49:41Z</time>
      </trkpt>
      <trkpt lat="42.88387" lon="0.20472">
        <ele>2234.8</ele>
        <time>2011-05-15T10:49:55Z</time>
      </trkpt>
      <trkpt lat="42.88385" lon="0.20478">
        <ele>2236.7</ele>
        <time>2011-05-15T10:50:00Z</time>
      </trkpt>
      <trkpt lat="42.8838" lon="0.20485">
        <ele>2235.8</ele>
        <time>2011-05-15T10:50:12Z</time>
      </trkpt>
      <trkpt lat="42.8838" lon="0.20492">
        <ele>2232.8</ele>
        <time>2011-05-15T10:50:16Z</time>
      </trkpt>
      <trkpt lat="42.88378" lon="0.20498">
        <ele>2232.3</ele>
        <time>2011-05-15T10:50:20Z</time>
      </trkpt>
      <trkpt lat="42.88374" lon="0.20501">
        <ele>2232.6</ele>
        <time>2011-05-15T10:50:36Z</time>
      </trkpt>
      <trkpt lat="42.88368" lon="0.20502">
        <ele>2232.3</ele>
        <time>2011-05-15T10:50:40Z</time>
      </trkpt>
      <trkpt lat="42.88364" lon="0.20505">
        <ele>2233.9</ele>
        <time>2011-05-15T10:50:55Z</time>
      </trkpt>
      <trkpt lat="42.8836" lon="0.20508">
        <ele>2234.8</ele>
        <time>2011-05-15T10:51:02Z</time>
      </trkpt>
      <trkpt lat="42.88355" lon="0.20509">
        <ele>2235.8</ele>
        <time>2011-05-15T10:51:08Z</time>
      </trkpt>
      <trkpt lat="42.8835" lon="0.20509">
        <ele>2240.6</ele>
        <time>2011-05-15T10:51:19Z</time>
      </trkpt>
      <trkpt lat="42.88345" lon="0.2051">
        <ele>2240.4</ele>
        <time>2011-05-15T10:51:22Z</time>
      </trkpt>
      <trkpt lat="42.88341" lon="0.20512">
        <ele>2241.2</ele>
        <time>2011-05-15T10:51:29Z</time>
      </trkpt>
      <trkpt lat="42.88335" lon="0.2051">
        <ele>2244.8</ele>
        <time>2011-05-15T10:51:55Z</time>
      </trkpt>
      <trkpt lat="42.88331" lon="0.20512">
        <ele>2247.2</ele>
        <time>2011-05-15T10:52:04Z</time>
      </trkpt>
      <trkpt lat="42.88326" lon="0.20512">
        <ele>2247.9</ele>
        <time>2011-05-15T10:52:09Z</time>
      </trkpt>
      <trkpt lat="42.88321" lon="0.20512">
        <ele>2248</ele>
        <time>2011-05-15T10:52:15Z</time>
      </trkpt>
      <trkpt lat="42.88316" lon="0.20512">
        <ele>2249.3</ele>
        <time>2011-05-15T10:52:21Z</time>
      </trkpt>
      <trkpt lat="42.88311" lon="0.20512">
        <ele>2249.3</ele>
        <time>2011-05-15T10:52:26Z</time>
      </trkpt>
      <trkpt lat="42.88306" lon="0.20511">
        <ele>2248.8</ele>
        <time>2011-05-15T10:52:32Z</time>
      </trkpt>
      <trkpt lat="42.88302" lon="0.20511">
        <ele>2248</ele>
        <time>2011-05-15T10:52:37Z</time>
      </trkpt>
      <trkpt lat="42.88296" lon="0.20513">
        <ele>2248.6</ele>
        <time>2011-05-15T10:52:48Z</time>
      </trkpt>
      <trkpt lat="42.88291" lon="0.20515">
        <ele>2248.5</ele>
        <time>2011-05-15T10:52:52Z</time>
      </trkpt>
      <trkpt lat="42.88286" lon="0.20517">
        <ele>2250.6</ele>
        <time>2011-05-15T10:53:00Z</time>
      </trkpt>
      <trkpt lat="42.88281" lon="0.20516">
        <ele>2250.9</ele>
        <time>2011-05-15T10:53:09Z</time>
      </trkpt>
      <trkpt lat="42.88276" lon="0.20516">
        <ele>2250.7</ele>
        <time>2011-05-15T10:53:12Z</time>
      </trkpt>
      <trkpt lat="42.88272" lon="0.2052">
        <ele>2251.1</ele>
        <time>2011-05-15T10:53:16Z</time>
      </trkpt>
      <trkpt lat="42.88267" lon="0.20524">
        <ele>2251.5</ele>
        <time>2011-05-15T10:53:20Z</time>
      </trkpt>
      <trkpt lat="42.88262" lon="0.20528">
        <ele>2252.4</ele>
        <time>2011-05-15T10:53:24Z</time>
      </trkpt>
      <trkpt lat="42.88257" lon="0.20531">
        <ele>2252.6</ele>
        <time>2011-05-15T10:53:45Z</time>
      </trkpt>
      <trkpt lat="42.88252" lon="0.20531">
        <ele>2252.8</ele>
        <time>2011-05-15T10:53:57Z</time>
      </trkpt>
      <trkpt lat="42.88248" lon="0.20532">
        <ele>2252.8</ele>
        <time>2011-05-15T10:54:17Z</time>
      </trkpt>
      <trkpt lat="42.88242" lon="0.20532">
        <ele>2254.4</ele>
        <time>2011-05-15T10:54:22Z</time>
      </trkpt>
      <trkpt lat="42.8824" lon="0.20526">
        <ele>2254.1</ele>
        <time>2011-05-15T10:54:28Z</time>
      </trkpt>
      <trkpt lat="42.88235" lon="0.20525">
        <ele>2254.4</ele>
        <time>2011-05-15T10:54:34Z</time>
      </trkpt>
      <trkpt lat="42.8823" lon="0.20522">
        <ele>2256.3</ele>
        <time>2011-05-15T10:54:43Z</time>
      </trkpt>
      <trkpt lat="42.88226" lon="0.20521">
        <ele>2257.5</ele>
        <time>2011-05-15T10:54:51Z</time>
      </trkpt>
      <trkpt lat="42.88221" lon="0.20521">
        <ele>2259.6</ele>
        <time>2011-05-15T10:55:01Z</time>
      </trkpt>
      <trkpt lat="42.88216" lon="0.20521">
        <ele>2259.6</ele>
        <time>2011-05-15T10:55:08Z</time>
      </trkpt>
      <trkpt lat="42.88211" lon="0.20525">
        <ele>2264.3</ele>
        <time>2011-05-15T10:55:23Z</time>
      </trkpt>
      <trkpt lat="42.8821" lon="0.20531">
        <ele>2264.7</ele>
        <time>2011-05-15T10:55:30Z</time>
      </trkpt>
      <trkpt lat="42.88212" lon="0.20537">
        <ele>2262.8</ele>
        <time>2011-05-15T10:55:36Z</time>
      </trkpt>
      <trkpt lat="42.88211" lon="0.20543">
        <ele>2261.9</ele>
        <time>2011-05-15T10:55:42Z</time>
      </trkpt>
      <trkpt lat="42.88208" lon="0.20548">
        <ele>2262.5</ele>
        <time>2011-05-15T10:55:51Z</time>
      </trkpt>
      <trkpt lat="42.88202" lon="0.20551">
        <ele>2262.5</ele>
        <time>2011-05-15T10:55:57Z</time>
      </trkpt>
      <trkpt lat="42.88199" lon="0.20555">
        <ele>2262.6</ele>
        <time>2011-05-15T10:55:59Z</time>
      </trkpt>
      <trkpt lat="42.88195" lon="0.20558">
        <ele>2264</ele>
        <time>2011-05-15T10:56:19Z</time>
      </trkpt>
      <trkpt lat="42.88191" lon="0.20563">
        <ele>2263.8</ele>
        <time>2011-05-15T10:56:21Z</time>
      </trkpt>
      <trkpt lat="42.88188" lon="0.20568">
        <ele>2264.3</ele>
        <time>2011-05-15T10:56:25Z</time>
      </trkpt>
      <trkpt lat="42.88184" lon="0.20572">
        <ele>2263.3</ele>
        <time>2011-05-15T10:56:33Z</time>
      </trkpt>
      <trkpt lat="42.88178" lon="0.20572">
        <ele>2265.5</ele>
        <time>2011-05-15T10:56:44Z</time>
      </trkpt>
      <trkpt lat="42.88173" lon="0.2057">
        <ele>2266.3</ele>
        <time>2011-05-15T10:56:49Z</time>
      </trkpt>
      <trkpt lat="42.88169" lon="0.20567">
        <ele>2267.6</ele>
        <time>2011-05-15T10:56:56Z</time>
      </trkpt>
      <trkpt lat="42.88165" lon="0.20564">
        <ele>2270.3</ele>
        <time>2011-05-15T10:57:05Z</time>
      </trkpt>
      <trkpt lat="42.8816" lon="0.20561">
        <ele>2270.9</ele>
        <time>2011-05-15T10:57:11Z</time>
      </trkpt>
      <trkpt lat="42.88155" lon="0.20556">
        <ele>2269.7</ele>
        <time>2011-05-15T10:57:16Z</time>
      </trkpt>
      <trkpt lat="42.88153" lon="0.2055">
        <ele>2270.5</ele>
        <time>2011-05-15T10:57:25Z</time>
      </trkpt>
      <trkpt lat="42.88151" lon="0.20545">
        <ele>2269.4</ele>
        <time>2011-05-15T10:57:33Z</time>
      </trkpt>
      <trkpt lat="42.88151" lon="0.20538">
        <ele>2270.7</ele>
        <time>2011-05-15T10:57:57Z</time>
      </trkpt>
      <trkpt lat="42.88155" lon="0.20535">
        <ele>2274.8</ele>
        <time>2011-05-15T10:58:28Z</time>
      </trkpt>
    </trkseg>
  </trk>
</gpx>